<?xml version='1.0' encoding='UTF-8'?>
<gpx version="1.1" creator="https://www.komoot.de" xmlns="http://www.topografix.com/GPX/1/1" xmlns:xsi="http://www.w3.org/2001/XMLSchema-instance" xsi:schemaLocation="http://www.topografix.com/GPX/1/1 http://www.topografix.com/GPX/1/1/gpx.xsd">
  <metadata>
    <name>RTCN Rondje Schoonhoven 76 km</name>
    <author>
      <link href="https://www.komoot.de">
        <text>komoot</text>
        <type>text/html</type>
      </link>
    </author>
  </metadata>
  <trk>
    <name>RTCN Rondje Schoonhoven 76 km</name>
    <trkseg>
      <trkpt lat="52.132640" lon="4.762831">
        <ele>-0.708731</ele>
        <time>2026-03-03T14:49:53.131Z</time>
      </trkpt>
      <trkpt lat="52.132551" lon="4.762695">
        <ele>-0.708731</ele>
        <time>2026-03-03T14:49:55.601Z</time>
      </trkpt>
      <trkpt lat="52.132495" lon="4.762599">
        <ele>-0.708731</ele>
        <time>2026-03-03T14:49:57.214Z</time>
      </trkpt>
      <trkpt lat="52.132380" lon="4.762353">
        <ele>-0.708731</ele>
        <time>2026-03-03T14:50:00.929Z</time>
      </trkpt>
      <trkpt lat="52.132219" lon="4.761967">
        <ele>-0.708731</ele>
        <time>2026-03-03T14:50:06.362Z</time>
      </trkpt>
      <trkpt lat="52.132129" lon="4.761750">
        <ele>-0.708731</ele>
        <time>2026-03-03T14:50:09.417Z</time>
      </trkpt>
      <trkpt lat="52.132068" lon="4.761606">
        <ele>-0.739252</ele>
        <time>2026-03-03T14:50:11.423Z</time>
      </trkpt>
      <trkpt lat="52.131913" lon="4.761236">
        <ele>-0.912548</ele>
        <time>2026-03-03T14:50:16.466Z</time>
      </trkpt>
      <trkpt lat="52.131736" lon="4.760815">
        <ele>-1.109958</ele>
        <time>2026-03-03T14:50:22.143Z</time>
      </trkpt>
      <trkpt lat="52.131684" lon="4.760692">
        <ele>-1.167736</ele>
        <time>2026-03-03T14:50:23.795Z</time>
      </trkpt>
      <trkpt lat="52.131623" lon="4.760546">
        <ele>-1.236061</ele>
        <time>2026-03-03T14:50:25.737Z</time>
      </trkpt>
      <trkpt lat="52.131576" lon="4.760434">
        <ele>-1.288547</ele>
        <time>2026-03-03T14:50:27.247Z</time>
      </trkpt>
      <trkpt lat="52.131498" lon="4.760249">
        <ele>-1.375374</ele>
        <time>2026-03-03T14:50:29.701Z</time>
      </trkpt>
      <trkpt lat="52.131442" lon="4.760116">
        <ele>-1.437769</ele>
        <time>2026-03-03T14:50:31.437Z</time>
      </trkpt>
      <trkpt lat="52.131376" lon="4.759961">
        <ele>-1.510748</ele>
        <time>2026-03-03T14:50:33.480Z</time>
      </trkpt>
      <trkpt lat="52.130923" lon="4.759967">
        <ele>-1.796253</ele>
        <time>2026-03-03T14:50:41.576Z</time>
      </trkpt>
      <trkpt lat="52.130284" lon="4.759698">
        <ele>-1.971719</ele>
        <time>2026-03-03T14:50:53.849Z</time>
      </trkpt>
      <trkpt lat="52.129296" lon="4.759162">
        <ele>-2.201345</ele>
        <time>2026-03-03T14:51:14.544Z</time>
      </trkpt>
      <trkpt lat="52.128032" lon="4.758361">
        <ele>-2.308662</ele>
        <time>2026-03-03T14:51:42.539Z</time>
      </trkpt>
      <trkpt lat="52.127825" lon="4.758263">
        <ele>-2.321341</ele>
        <time>2026-03-03T14:51:46.838Z</time>
      </trkpt>
      <trkpt lat="52.125397" lon="4.756862">
        <ele>-3.034668</ele>
        <time>2026-03-03T14:52:35.785Z</time>
      </trkpt>
      <trkpt lat="52.124999" lon="4.756649">
        <ele>-3.118909</ele>
        <time>2026-03-03T14:52:43.881Z</time>
      </trkpt>
      <trkpt lat="52.124840" lon="4.756611">
        <ele>-3.151224</ele>
        <time>2026-03-03T14:52:47.020Z</time>
      </trkpt>
      <trkpt lat="52.124118" lon="4.756225">
        <ele>-3.304027</ele>
        <time>2026-03-03T14:53:01.973Z</time>
      </trkpt>
      <trkpt lat="52.122993" lon="4.755552">
        <ele>-3.535050</ele>
        <time>2026-03-03T14:53:25.269Z</time>
      </trkpt>
      <trkpt lat="52.120402" lon="4.753470">
        <ele>-3.799343</ele>
        <time>2026-03-03T14:54:21.185Z</time>
      </trkpt>
      <trkpt lat="52.119562" lon="4.752656">
        <ele>-3.267008</ele>
        <time>2026-03-03T14:54:44.469Z</time>
      </trkpt>
      <trkpt lat="52.119360" lon="4.752421">
        <ele>-3.131810</ele>
        <time>2026-03-03T14:54:50.502Z</time>
      </trkpt>
      <trkpt lat="52.119231" lon="4.752168">
        <ele>-3.036357</ele>
        <time>2026-03-03T14:54:55.289Z</time>
      </trkpt>
      <trkpt lat="52.119023" lon="4.751823">
        <ele>-2.981678</ele>
        <time>2026-03-03T14:55:02.005Z</time>
      </trkpt>
      <trkpt lat="52.118419" lon="4.751222">
        <ele>-2.851315</ele>
        <time>2026-03-03T14:55:16.643Z</time>
      </trkpt>
      <trkpt lat="52.117937" lon="4.750760">
        <ele>-2.748308</ele>
        <time>2026-03-03T14:55:27.687Z</time>
      </trkpt>
      <trkpt lat="52.113439" lon="4.746142">
        <ele>-2.812313</ele>
        <time>2026-03-03T14:57:14.587Z</time>
      </trkpt>
      <trkpt lat="52.112015" lon="4.744580">
        <ele>-2.526561</ele>
        <time>2026-03-03T14:57:50.854Z</time>
      </trkpt>
      <trkpt lat="52.110816" lon="4.743337">
        <ele>-2.167834</ele>
        <time>2026-03-03T14:58:20.219Z</time>
      </trkpt>
      <trkpt lat="52.109294" lon="4.741829">
        <ele>-1.647137</ele>
        <time>2026-03-03T14:58:59.448Z</time>
      </trkpt>
      <trkpt lat="52.109102" lon="4.741628">
        <ele>-1.577161</ele>
        <time>2026-03-03T14:59:04.505Z</time>
      </trkpt>
      <trkpt lat="52.108960" lon="4.741480">
        <ele>-1.525474</ele>
        <time>2026-03-03T14:59:08.165Z</time>
      </trkpt>
      <trkpt lat="52.107173" lon="4.739788">
        <ele>-1.432966</ele>
        <time>2026-03-03T14:59:49.811Z</time>
      </trkpt>
      <trkpt lat="52.107042" lon="4.739630">
        <ele>-1.439675</ele>
        <time>2026-03-03T14:59:53.004Z</time>
      </trkpt>
      <trkpt lat="52.106943" lon="4.739444">
        <ele>-1.451011</ele>
        <time>2026-03-03T14:59:55.957Z</time>
      </trkpt>
      <trkpt lat="52.106895" lon="4.739257">
        <ele>-1.460345</ele>
        <time>2026-03-03T14:59:58.412Z</time>
      </trkpt>
      <trkpt lat="52.106881" lon="4.739003">
        <ele>-1.472090</ele>
        <time>2026-03-03T15:00:01.502Z</time>
      </trkpt>
      <trkpt lat="52.106915" lon="4.738789">
        <ele>-1.482270</ele>
        <time>2026-03-03T15:00:04.196Z</time>
      </trkpt>
      <trkpt lat="52.107227" lon="4.738135">
        <ele>-1.520409</ele>
        <time>2026-03-03T15:00:14.325Z</time>
      </trkpt>
      <trkpt lat="52.107476" lon="4.737217">
        <ele>-1.566626</ele>
        <time>2026-03-03T15:00:26.662Z</time>
      </trkpt>
      <trkpt lat="52.107587" lon="4.736580">
        <ele>-1.525227</ele>
        <time>2026-03-03T15:00:34.814Z</time>
      </trkpt>
      <trkpt lat="52.107633" lon="4.736101">
        <ele>-1.491292</ele>
        <time>2026-03-03T15:00:40.800Z</time>
      </trkpt>
      <trkpt lat="52.107635" lon="4.735669">
        <ele>-1.461053</ele>
        <time>2026-03-03T15:00:46.175Z</time>
      </trkpt>
      <trkpt lat="52.107611" lon="4.735120">
        <ele>-1.422528</ele>
        <time>2026-03-03T15:00:53.098Z</time>
      </trkpt>
      <trkpt lat="52.107512" lon="4.734156">
        <ele>-1.323698</ele>
        <time>2026-03-03T15:01:05.809Z</time>
      </trkpt>
      <trkpt lat="52.107444" lon="4.733098">
        <ele>-1.010592</ele>
        <time>2026-03-03T15:01:20.541Z</time>
      </trkpt>
      <trkpt lat="52.107459" lon="4.731361">
        <ele>-0.499670</ele>
        <time>2026-03-03T15:01:44.468Z</time>
      </trkpt>
      <trkpt lat="52.107444" lon="4.731211">
        <ele>-0.462270</ele>
        <time>2026-03-03T15:01:46.533Z</time>
      </trkpt>
      <trkpt lat="52.107356" lon="4.731007">
        <ele>-0.400923</ele>
        <time>2026-03-03T15:01:49.913Z</time>
      </trkpt>
      <trkpt lat="52.107274" lon="4.731076">
        <ele>-0.363939</ele>
        <time>2026-03-03T15:01:51.404Z</time>
      </trkpt>
      <trkpt lat="52.107169" lon="4.731140">
        <ele>-0.319017</ele>
        <time>2026-03-03T15:01:53.224Z</time>
      </trkpt>
      <trkpt lat="52.107124" lon="4.731172">
        <ele>-0.299342</ele>
        <time>2026-03-03T15:01:53.970Z</time>
      </trkpt>
      <trkpt lat="52.106934" lon="4.731240">
        <ele>-0.221396</ele>
        <time>2026-03-03T15:01:57.031Z</time>
      </trkpt>
      <trkpt lat="52.106828" lon="4.731272">
        <ele>-0.178200</ele>
        <time>2026-03-03T15:01:58.701Z</time>
      </trkpt>
      <trkpt lat="52.106581" lon="4.731333">
        <ele>-0.078101</ele>
        <time>2026-03-03T15:02:02.634Z</time>
      </trkpt>
      <trkpt lat="52.106497" lon="4.731306">
        <ele>-0.043795</ele>
        <time>2026-03-03T15:02:03.972Z</time>
      </trkpt>
      <trkpt lat="52.106452" lon="4.731213">
        <ele>-0.014659</ele>
        <time>2026-03-03T15:02:05.135Z</time>
      </trkpt>
      <trkpt lat="52.106373" lon="4.730824">
        <ele>0.086169</ele>
        <time>2026-03-03T15:02:09.244Z</time>
      </trkpt>
      <trkpt lat="52.106237" lon="4.730502">
        <ele>0.182340</ele>
        <time>2026-03-03T15:02:13.323Z</time>
      </trkpt>
      <trkpt lat="52.106209" lon="4.730446">
        <ele>0.200110</ele>
        <time>2026-03-03T15:02:14.097Z</time>
      </trkpt>
      <trkpt lat="52.105960" lon="4.729960">
        <ele>0.379950</ele>
        <time>2026-03-03T15:02:20.991Z</time>
      </trkpt>
      <trkpt lat="52.105674" lon="4.729401">
        <ele>0.590513</ele>
        <time>2026-03-03T15:02:28.700Z</time>
      </trkpt>
      <trkpt lat="52.105588" lon="4.729316">
        <ele>0.637919</ele>
        <time>2026-03-03T15:02:30.426Z</time>
      </trkpt>
      <trkpt lat="52.105610" lon="4.729141">
        <ele>0.689618</ele>
        <time>2026-03-03T15:02:32.321Z</time>
      </trkpt>
      <trkpt lat="52.105816" lon="4.728624">
        <ele>0.867977</ele>
        <time>2026-03-03T15:02:38.815Z</time>
      </trkpt>
      <trkpt lat="52.105902" lon="4.728284">
        <ele>0.974398</ele>
        <time>2026-03-03T15:02:42.484Z</time>
      </trkpt>
      <trkpt lat="52.105914" lon="4.728097">
        <ele>1.028814</ele>
        <time>2026-03-03T15:02:44.290Z</time>
      </trkpt>
      <trkpt lat="52.105888" lon="4.727862">
        <ele>1.060893</ele>
        <time>2026-03-03T15:02:46.533Z</time>
      </trkpt>
      <trkpt lat="52.105900" lon="4.727600">
        <ele>1.047121</ele>
        <time>2026-03-03T15:02:48.916Z</time>
      </trkpt>
      <trkpt lat="52.105930" lon="4.727423">
        <ele>1.037496</ele>
        <time>2026-03-03T15:02:50.561Z</time>
      </trkpt>
      <trkpt lat="52.106020" lon="4.727176">
        <ele>1.022442</ele>
        <time>2026-03-03T15:02:53.101Z</time>
      </trkpt>
      <trkpt lat="52.106027" lon="4.727144">
        <ele>1.020662</ele>
        <time>2026-03-03T15:02:53.522Z</time>
      </trkpt>
      <trkpt lat="52.106305" lon="4.726778">
        <ele>0.990151</ele>
        <time>2026-03-03T15:03:00.519Z</time>
      </trkpt>
      <trkpt lat="52.106375" lon="4.726673">
        <ele>0.982028</ele>
        <time>2026-03-03T15:03:02.380Z</time>
      </trkpt>
      <trkpt lat="52.106310" lon="4.726449">
        <ele>0.969042</ele>
        <time>2026-03-03T15:03:04.539Z</time>
      </trkpt>
      <trkpt lat="52.106108" lon="4.725710">
        <ele>0.926642</ele>
        <time>2026-03-03T15:03:11.588Z</time>
      </trkpt>
      <trkpt lat="52.106032" lon="4.725305">
        <ele>0.882751</ele>
        <time>2026-03-03T15:03:15.257Z</time>
      </trkpt>
      <trkpt lat="52.106061" lon="4.725169">
        <ele>0.856226</ele>
        <time>2026-03-03T15:03:16.507Z</time>
      </trkpt>
      <trkpt lat="52.106044" lon="4.724812">
        <ele>0.790251</ele>
        <time>2026-03-03T15:03:19.603Z</time>
      </trkpt>
      <trkpt lat="52.106113" lon="4.724412">
        <ele>0.713699</ele>
        <time>2026-03-03T15:03:23.123Z</time>
      </trkpt>
      <trkpt lat="52.106081" lon="4.724322">
        <ele>0.694538</ele>
        <time>2026-03-03T15:03:24.006Z</time>
      </trkpt>
      <trkpt lat="52.106037" lon="4.724248">
        <ele>0.675561</ele>
        <time>2026-03-03T15:03:24.857Z</time>
      </trkpt>
      <trkpt lat="52.105977" lon="4.724168">
        <ele>0.652296</ele>
        <time>2026-03-03T15:03:25.913Z</time>
      </trkpt>
      <trkpt lat="52.105904" lon="4.724227">
        <ele>0.627848</ele>
        <time>2026-03-03T15:03:27.453Z</time>
      </trkpt>
      <trkpt lat="52.105835" lon="4.724193">
        <ele>0.606221</ele>
        <time>2026-03-03T15:03:28.818Z</time>
      </trkpt>
      <trkpt lat="52.105693" lon="4.724002">
        <ele>0.550967</ele>
        <time>2026-03-03T15:03:31.334Z</time>
      </trkpt>
      <trkpt lat="52.105586" lon="4.723755">
        <ele>0.495276</ele>
        <time>2026-03-03T15:03:33.844Z</time>
      </trkpt>
      <trkpt lat="52.105513" lon="4.723725">
        <ele>0.472690</ele>
        <time>2026-03-03T15:03:34.855Z</time>
      </trkpt>
      <trkpt lat="52.105327" lon="4.723034">
        <ele>0.370954</ele>
        <time>2026-03-03T15:03:43.603Z</time>
      </trkpt>
      <trkpt lat="52.105167" lon="4.722419">
        <ele>0.363075</ele>
        <time>2026-03-03T15:03:51.516Z</time>
      </trkpt>
      <trkpt lat="52.105042" lon="4.722016">
        <ele>0.357749</ele>
        <time>2026-03-03T15:03:57.020Z</time>
      </trkpt>
      <trkpt lat="52.104946" lon="4.721636">
        <ele>0.352901</ele>
        <time>2026-03-03T15:04:02.281Z</time>
      </trkpt>
      <trkpt lat="52.104905" lon="4.721589">
        <ele>0.351938</ele>
        <time>2026-03-03T15:04:03.353Z</time>
      </trkpt>
      <trkpt lat="52.104807" lon="4.721268">
        <ele>0.347709</ele>
        <time>2026-03-03T15:04:08.118Z</time>
      </trkpt>
      <trkpt lat="52.104644" lon="4.720731">
        <ele>0.340643</ele>
        <time>2026-03-03T15:04:15.999Z</time>
      </trkpt>
      <trkpt lat="52.104492" lon="4.720200">
        <ele>0.241252</ele>
        <time>2026-03-03T15:04:23.428Z</time>
      </trkpt>
      <trkpt lat="52.104413" lon="4.719954">
        <ele>0.180023</ele>
        <time>2026-03-03T15:04:26.753Z</time>
      </trkpt>
      <trkpt lat="52.104342" lon="4.719725">
        <ele>0.123441</ele>
        <time>2026-03-03T15:04:29.853Z</time>
      </trkpt>
      <trkpt lat="52.104290" lon="4.719631">
        <ele>0.095538</ele>
        <time>2026-03-03T15:04:31.377Z</time>
      </trkpt>
      <trkpt lat="52.104150" lon="4.719167">
        <ele>-0.018490</ele>
        <time>2026-03-03T15:04:37.469Z</time>
      </trkpt>
      <trkpt lat="52.103970" lon="4.718888">
        <ele>-0.107739</ele>
        <time>2026-03-03T15:04:42.143Z</time>
      </trkpt>
      <trkpt lat="52.103835" lon="4.718839">
        <ele>-0.157408</ele>
        <time>2026-03-03T15:04:44.645Z</time>
      </trkpt>
      <trkpt lat="52.103717" lon="4.718908">
        <ele>-0.202433</ele>
        <time>2026-03-03T15:04:46.892Z</time>
      </trkpt>
      <trkpt lat="52.103606" lon="4.719164">
        <ele>-0.271553</ele>
        <time>2026-03-03T15:04:50.338Z</time>
      </trkpt>
      <trkpt lat="52.103032" lon="4.720477">
        <ele>-0.912659</ele>
        <time>2026-03-03T15:05:07.562Z</time>
      </trkpt>
      <trkpt lat="52.102967" lon="4.720535">
        <ele>-0.963029</ele>
        <time>2026-03-03T15:05:08.890Z</time>
      </trkpt>
      <trkpt lat="52.102877" lon="4.720540">
        <ele>-1.024224</ele>
        <time>2026-03-03T15:05:10.474Z</time>
      </trkpt>
      <trkpt lat="52.102799" lon="4.720478">
        <ele>-1.083209</ele>
        <time>2026-03-03T15:05:12.035Z</time>
      </trkpt>
      <trkpt lat="52.102408" lon="4.719929">
        <ele>-1.434084</ele>
        <time>2026-03-03T15:05:21.659Z</time>
      </trkpt>
      <trkpt lat="52.102354" lon="4.719837">
        <ele>-1.487200</ele>
        <time>2026-03-03T15:05:23.184Z</time>
      </trkpt>
      <trkpt lat="52.102184" lon="4.719546">
        <ele>-1.546352</ele>
        <time>2026-03-03T15:05:27.940Z</time>
      </trkpt>
      <trkpt lat="52.101910" lon="4.718523">
        <ele>-1.609899</ele>
        <time>2026-03-03T15:05:41.761Z</time>
      </trkpt>
      <trkpt lat="52.101667" lon="4.717611">
        <ele>-1.666505</ele>
        <time>2026-03-03T15:05:54.520Z</time>
      </trkpt>
      <trkpt lat="52.101480" lon="4.716910">
        <ele>-1.752564</ele>
        <time>2026-03-03T15:06:03.741Z</time>
      </trkpt>
      <trkpt lat="52.100771" lon="4.714331">
        <ele>-2.376691</ele>
        <time>2026-03-03T15:06:35.798Z</time>
      </trkpt>
      <trkpt lat="52.099796" lon="4.710659">
        <ele>-2.550426</ele>
        <time>2026-03-03T15:07:25.407Z</time>
      </trkpt>
      <trkpt lat="52.099732" lon="4.710530">
        <ele>-2.547851</ele>
        <time>2026-03-03T15:07:27.460Z</time>
      </trkpt>
      <trkpt lat="52.099561" lon="4.710366">
        <ele>-2.542835</ele>
        <time>2026-03-03T15:07:31.472Z</time>
      </trkpt>
      <trkpt lat="52.099339" lon="4.711205">
        <ele>-2.528650</ele>
        <time>2026-03-03T15:07:42.893Z</time>
      </trkpt>
      <trkpt lat="52.099225" lon="4.711556">
        <ele>-2.520835</ele>
        <time>2026-03-03T15:07:47.808Z</time>
      </trkpt>
      <trkpt lat="52.098925" lon="4.712299">
        <ele>-2.490421</ele>
        <time>2026-03-03T15:07:58.953Z</time>
      </trkpt>
      <trkpt lat="52.098578" lon="4.712964">
        <ele>-2.460574</ele>
        <time>2026-03-03T15:08:10.037Z</time>
      </trkpt>
      <trkpt lat="52.098309" lon="4.713397">
        <ele>-2.439508</ele>
        <time>2026-03-03T15:08:17.804Z</time>
      </trkpt>
      <trkpt lat="52.098058" lon="4.713734">
        <ele>-2.420222</ele>
        <time>2026-03-03T15:08:24.352Z</time>
      </trkpt>
      <trkpt lat="52.097549" lon="4.714278">
        <ele>-2.369152</ele>
        <time>2026-03-03T15:08:36.692Z</time>
      </trkpt>
      <trkpt lat="52.097129" lon="4.714627">
        <ele>-2.329601</ele>
        <time>2026-03-03T15:08:46.377Z</time>
      </trkpt>
      <trkpt lat="52.095104" lon="4.715906">
        <ele>-2.100950</ele>
        <time>2026-03-03T15:09:31.840Z</time>
      </trkpt>
      <trkpt lat="52.094251" lon="4.712050">
        <ele>-2.230906</ele>
        <time>2026-03-03T15:10:21.637Z</time>
      </trkpt>
      <trkpt lat="52.093667" lon="4.709403">
        <ele>-2.199643</ele>
        <time>2026-03-03T15:10:57.058Z</time>
      </trkpt>
      <trkpt lat="52.093585" lon="4.708828">
        <ele>-2.194864</ele>
        <time>2026-03-03T15:11:04.670Z</time>
      </trkpt>
      <trkpt lat="52.093566" lon="4.708709">
        <ele>-2.193868</ele>
        <time>2026-03-03T15:11:06.304Z</time>
      </trkpt>
      <trkpt lat="52.093236" lon="4.707122">
        <ele>-2.184487</ele>
        <time>2026-03-03T15:11:26.964Z</time>
      </trkpt>
      <trkpt lat="52.093189" lon="4.706948">
        <ele>-2.217573</ele>
        <time>2026-03-03T15:11:29.257Z</time>
      </trkpt>
      <trkpt lat="52.093009" lon="4.706681">
        <ele>-2.286571</ele>
        <time>2026-03-03T15:11:33.906Z</time>
      </trkpt>
      <trkpt lat="52.092731" lon="4.706443">
        <ele>-2.375565</ele>
        <time>2026-03-03T15:11:39.741Z</time>
      </trkpt>
      <trkpt lat="52.091519" lon="4.705440">
        <ele>-2.677022</ele>
        <time>2026-03-03T15:12:05.582Z</time>
      </trkpt>
      <trkpt lat="52.091390" lon="4.705412">
        <ele>-2.670212</ele>
        <time>2026-03-03T15:12:07.520Z</time>
      </trkpt>
      <trkpt lat="52.091074" lon="4.705163">
        <ele>-2.651840</ele>
        <time>2026-03-03T15:12:12.839Z</time>
      </trkpt>
      <trkpt lat="52.090361" lon="4.704572">
        <ele>-2.609970</ele>
        <time>2026-03-03T15:12:25.604Z</time>
      </trkpt>
      <trkpt lat="52.088232" lon="4.702825">
        <ele>-2.399669</ele>
        <time>2026-03-03T15:13:01.768Z</time>
      </trkpt>
      <trkpt lat="52.086151" lon="4.701026">
        <ele>-2.298565</ele>
        <time>2026-03-03T15:13:37.547Z</time>
      </trkpt>
      <trkpt lat="52.085381" lon="4.700394">
        <ele>-2.322408</ele>
        <time>2026-03-03T15:13:49.734Z</time>
      </trkpt>
      <trkpt lat="52.085154" lon="4.700279">
        <ele>-2.324128</ele>
        <time>2026-03-03T15:13:53.101Z</time>
      </trkpt>
      <trkpt lat="52.084857" lon="4.700194">
        <ele>-2.324206</ele>
        <time>2026-03-03T15:13:57.429Z</time>
      </trkpt>
      <trkpt lat="52.084293" lon="4.700013">
        <ele>-2.324353</ele>
        <time>2026-03-03T15:14:05.880Z</time>
      </trkpt>
      <trkpt lat="52.083729" lon="4.699836">
        <ele>-2.324500</ele>
        <time>2026-03-03T15:14:14.707Z</time>
      </trkpt>
      <trkpt lat="52.082435" lon="4.699408">
        <ele>-2.469939</ele>
        <time>2026-03-03T15:14:34.278Z</time>
      </trkpt>
      <trkpt lat="52.082363" lon="4.699329">
        <ele>-2.480920</ele>
        <time>2026-03-03T15:14:35.476Z</time>
      </trkpt>
      <trkpt lat="52.081356" lon="4.699016">
        <ele>-2.652556</ele>
        <time>2026-03-03T15:14:49.481Z</time>
      </trkpt>
      <trkpt lat="52.079815" lon="4.698505">
        <ele>-2.966307</ele>
        <time>2026-03-03T15:15:11.958Z</time>
      </trkpt>
      <trkpt lat="52.075464" lon="4.697154">
        <ele>-3.859254</ele>
        <time>2026-03-03T15:16:15.999Z</time>
      </trkpt>
      <trkpt lat="52.075035" lon="4.697031">
        <ele>-4.085655</ele>
        <time>2026-03-03T15:16:21.247Z</time>
      </trkpt>
      <trkpt lat="52.074816" lon="4.696957">
        <ele>-4.201905</ele>
        <time>2026-03-03T15:16:23.931Z</time>
      </trkpt>
      <trkpt lat="52.074040" lon="4.696682">
        <ele>-4.835301</ele>
        <time>2026-03-03T15:16:33.372Z</time>
      </trkpt>
      <trkpt lat="52.073987" lon="4.696693">
        <ele>-4.879345</ele>
        <time>2026-03-03T15:16:34.007Z</time>
      </trkpt>
      <trkpt lat="52.073910" lon="4.696771">
        <ele>-4.954118</ele>
        <time>2026-03-03T15:16:35.112Z</time>
      </trkpt>
      <trkpt lat="52.073853" lon="4.696633">
        <ele>-5.038361</ele>
        <time>2026-03-03T15:16:36.373Z</time>
      </trkpt>
      <trkpt lat="52.073727" lon="4.696509">
        <ele>-5.159752</ele>
        <time>2026-03-03T15:16:38.198Z</time>
      </trkpt>
      <trkpt lat="52.073359" lon="4.696307">
        <ele>-5.479912</ele>
        <time>2026-03-03T15:16:43.172Z</time>
      </trkpt>
      <trkpt lat="52.073307" lon="4.696173">
        <ele>-5.560207</ele>
        <time>2026-03-03T15:16:44.486Z</time>
      </trkpt>
      <trkpt lat="52.073317" lon="4.695986">
        <ele>-5.655315</ele>
        <time>2026-03-03T15:16:46.034Z</time>
      </trkpt>
      <trkpt lat="52.074152" lon="4.692043">
        <ele>-5.854502</ele>
        <time>2026-03-03T15:17:23.340Z</time>
      </trkpt>
      <trkpt lat="52.074188" lon="4.691878">
        <ele>-5.840252</ele>
        <time>2026-03-03T15:17:24.992Z</time>
      </trkpt>
      <trkpt lat="52.074502" lon="4.690418">
        <ele>-5.714366</ele>
        <time>2026-03-03T15:17:39.643Z</time>
      </trkpt>
      <trkpt lat="52.074855" lon="4.688781">
        <ele>-4.737598</ele>
        <time>2026-03-03T15:17:58.776Z</time>
      </trkpt>
      <trkpt lat="52.075170" lon="4.687379">
        <ele>-3.869596</ele>
        <time>2026-03-03T15:18:17.634Z</time>
      </trkpt>
      <trkpt lat="52.075176" lon="4.687314">
        <ele>-3.834499</ele>
        <time>2026-03-03T15:18:18.508Z</time>
      </trkpt>
      <trkpt lat="52.075191" lon="4.687221">
        <ele>-3.783159</ele>
        <time>2026-03-03T15:18:19.775Z</time>
      </trkpt>
      <trkpt lat="52.072846" lon="4.686462">
        <ele>-2.310875</ele>
        <time>2026-03-03T15:19:15.115Z</time>
      </trkpt>
      <trkpt lat="52.072656" lon="4.686397">
        <ele>-2.285118</ele>
        <time>2026-03-03T15:19:19.073Z</time>
      </trkpt>
      <trkpt lat="52.072197" lon="4.686223">
        <ele>-2.222594</ele>
        <time>2026-03-03T15:19:25.847Z</time>
      </trkpt>
      <trkpt lat="52.071000" lon="4.685847">
        <ele>-2.644769</ele>
        <time>2026-03-03T15:19:41.330Z</time>
      </trkpt>
      <trkpt lat="52.070580" lon="4.685715">
        <ele>-2.863210</ele>
        <time>2026-03-03T15:19:46.869Z</time>
      </trkpt>
      <trkpt lat="52.070103" lon="4.685563">
        <ele>-3.100436</ele>
        <time>2026-03-03T15:19:53.464Z</time>
      </trkpt>
      <trkpt lat="52.069305" lon="4.685323">
        <ele>-3.124381</ele>
        <time>2026-03-03T15:20:09.789Z</time>
      </trkpt>
      <trkpt lat="52.069026" lon="4.685272">
        <ele>-3.132665</ele>
        <time>2026-03-03T15:20:15.794Z</time>
      </trkpt>
      <trkpt lat="52.067964" lon="4.684956">
        <ele>-3.201209</ele>
        <time>2026-03-03T15:20:37.897Z</time>
      </trkpt>
      <trkpt lat="52.063500" lon="4.683500">
        <ele>-3.667309</ele>
        <time>2026-03-03T15:22:07.219Z</time>
      </trkpt>
      <trkpt lat="52.061500" lon="4.682900">
        <ele>-3.244979</ele>
        <time>2026-03-03T15:22:49.905Z</time>
      </trkpt>
      <trkpt lat="52.059963" lon="4.682383">
        <ele>-2.552468</ele>
        <time>2026-03-03T15:23:25.955Z</time>
      </trkpt>
      <trkpt lat="52.059114" lon="4.682097">
        <ele>-2.441139</ele>
        <time>2026-03-03T15:23:43.708Z</time>
      </trkpt>
      <trkpt lat="52.058950" lon="4.682047">
        <ele>-2.478047</ele>
        <time>2026-03-03T15:23:46.949Z</time>
      </trkpt>
      <trkpt lat="52.058092" lon="4.681792">
        <ele>-2.670975</ele>
        <time>2026-03-03T15:24:03.864Z</time>
      </trkpt>
      <trkpt lat="52.057129" lon="4.681466">
        <ele>-3.134488</ele>
        <time>2026-03-03T15:24:16.676Z</time>
      </trkpt>
      <trkpt lat="52.057064" lon="4.681757">
        <ele>-3.248619</ele>
        <time>2026-03-03T15:24:19.055Z</time>
      </trkpt>
      <trkpt lat="52.056908" lon="4.682480">
        <ele>-3.531073</ele>
        <time>2026-03-03T15:24:24.911Z</time>
      </trkpt>
      <trkpt lat="52.056054" lon="4.686507">
        <ele>-4.229673</ele>
        <time>2026-03-03T15:25:00.784Z</time>
      </trkpt>
      <trkpt lat="52.055959" lon="4.686938">
        <ele>-4.123603</ele>
        <time>2026-03-03T15:25:05.331Z</time>
      </trkpt>
      <trkpt lat="52.055859" lon="4.687377">
        <ele>-4.015146</ele>
        <time>2026-03-03T15:25:10.035Z</time>
      </trkpt>
      <trkpt lat="52.055809" lon="4.687614">
        <ele>-3.957098</ele>
        <time>2026-03-03T15:25:12.590Z</time>
      </trkpt>
      <trkpt lat="52.055796" lon="4.687673">
        <ele>-3.942579</ele>
        <time>2026-03-03T15:25:13.220Z</time>
      </trkpt>
      <trkpt lat="52.055689" lon="4.688173">
        <ele>-3.819930</ele>
        <time>2026-03-03T15:25:18.896Z</time>
      </trkpt>
      <trkpt lat="52.055543" lon="4.688846">
        <ele>-3.625468</ele>
        <time>2026-03-03T15:25:26.893Z</time>
      </trkpt>
      <trkpt lat="52.055465" lon="4.689205">
        <ele>-3.425950</ele>
        <time>2026-03-03T15:25:31.310Z</time>
      </trkpt>
      <trkpt lat="52.055372" lon="4.689669">
        <ele>-3.170219</ele>
        <time>2026-03-03T15:25:37.216Z</time>
      </trkpt>
      <trkpt lat="52.055336" lon="4.689823">
        <ele>-3.083886</ele>
        <time>2026-03-03T15:25:39.225Z</time>
      </trkpt>
      <trkpt lat="52.055219" lon="4.690333">
        <ele>-2.798647</ele>
        <time>2026-03-03T15:25:45.807Z</time>
      </trkpt>
      <trkpt lat="52.055182" lon="4.690496">
        <ele>-2.707598</ele>
        <time>2026-03-03T15:25:47.848Z</time>
      </trkpt>
      <trkpt lat="52.055152" lon="4.690631">
        <ele>-2.632379</ele>
        <time>2026-03-03T15:25:49.506Z</time>
      </trkpt>
      <trkpt lat="52.055064" lon="4.690819">
        <ele>-2.508568</ele>
        <time>2026-03-03T15:25:52.185Z</time>
      </trkpt>
      <trkpt lat="52.054447" lon="4.690621">
        <ele>-2.174407</ele>
        <time>2026-03-03T15:26:06.184Z</time>
      </trkpt>
      <trkpt lat="52.053302" lon="4.690287">
        <ele>-2.344227</ele>
        <time>2026-03-03T15:26:21.897Z</time>
      </trkpt>
      <trkpt lat="52.048947" lon="4.688969">
        <ele>-2.735629</ele>
        <time>2026-03-03T15:27:26.280Z</time>
      </trkpt>
      <trkpt lat="52.048550" lon="4.688851">
        <ele>-2.786461</ele>
        <time>2026-03-03T15:27:31.873Z</time>
      </trkpt>
      <trkpt lat="52.047541" lon="4.688551">
        <ele>-2.907562</ele>
        <time>2026-03-03T15:27:46.246Z</time>
      </trkpt>
      <trkpt lat="52.044042" lon="4.687482">
        <ele>-2.297011</ele>
        <time>2026-03-03T15:28:42.151Z</time>
      </trkpt>
      <trkpt lat="52.043955" lon="4.687448">
        <ele>-2.291223</ele>
        <time>2026-03-03T15:28:43.540Z</time>
      </trkpt>
      <trkpt lat="52.043852" lon="4.687340">
        <ele>-2.284708</ele>
        <time>2026-03-03T15:28:45.416Z</time>
      </trkpt>
      <trkpt lat="52.043747" lon="4.687371">
        <ele>-2.279036</ele>
        <time>2026-03-03T15:28:47.079Z</time>
      </trkpt>
      <trkpt lat="52.043543" lon="4.687350">
        <ele>-2.268172</ele>
        <time>2026-03-03T15:28:50.179Z</time>
      </trkpt>
      <trkpt lat="52.043321" lon="4.687336">
        <ele>-2.256363</ele>
        <time>2026-03-03T15:28:53.558Z</time>
      </trkpt>
      <trkpt lat="52.043118" lon="4.687369">
        <ele>-2.245520</ele>
        <time>2026-03-03T15:28:56.620Z</time>
      </trkpt>
      <trkpt lat="52.043076" lon="4.687381">
        <ele>-2.243253</ele>
        <time>2026-03-03T15:28:57.237Z</time>
      </trkpt>
      <trkpt lat="52.043004" lon="4.687401">
        <ele>-2.239371</ele>
        <time>2026-03-03T15:28:58.335Z</time>
      </trkpt>
      <trkpt lat="52.039295" lon="4.687952">
        <ele>-2.189142</ele>
        <time>2026-03-03T15:29:53.369Z</time>
      </trkpt>
      <trkpt lat="52.038854" lon="4.688017">
        <ele>-2.185084</ele>
        <time>2026-03-03T15:30:00.053Z</time>
      </trkpt>
      <trkpt lat="52.038546" lon="4.688119">
        <ele>-2.171546</ele>
        <time>2026-03-03T15:30:04.820Z</time>
      </trkpt>
      <trkpt lat="52.036703" lon="4.689033">
        <ele>-1.964821</ele>
        <time>2026-03-03T15:30:33.853Z</time>
      </trkpt>
      <trkpt lat="52.036581" lon="4.689116">
        <ele>-1.931394</ele>
        <time>2026-03-03T15:30:35.836Z</time>
      </trkpt>
      <trkpt lat="52.036471" lon="4.689242">
        <ele>-1.897383</ele>
        <time>2026-03-03T15:30:37.869Z</time>
      </trkpt>
      <trkpt lat="52.036020" lon="4.689878">
        <ele>-1.746478</ele>
        <time>2026-03-03T15:30:47.139Z</time>
      </trkpt>
      <trkpt lat="52.035327" lon="4.690898">
        <ele>-1.453405</ele>
        <time>2026-03-03T15:31:02.628Z</time>
      </trkpt>
      <trkpt lat="52.034926" lon="4.691488">
        <ele>-1.203731</ele>
        <time>2026-03-03T15:31:12.138Z</time>
      </trkpt>
      <trkpt lat="52.034776" lon="4.691829">
        <ele>-1.084686</ele>
        <time>2026-03-03T15:31:16.556Z</time>
      </trkpt>
      <trkpt lat="52.034383" lon="4.691062">
        <ele>-0.801219</ele>
        <time>2026-03-03T15:31:26.626Z</time>
      </trkpt>
      <trkpt lat="52.033880" lon="4.690068">
        <ele>-0.758423</ele>
        <time>2026-03-03T15:31:39.111Z</time>
      </trkpt>
      <trkpt lat="52.033637" lon="4.689590">
        <ele>-0.763937</ele>
        <time>2026-03-03T15:31:44.463Z</time>
      </trkpt>
      <trkpt lat="52.033344" lon="4.689005">
        <ele>-0.770645</ele>
        <time>2026-03-03T15:31:50.877Z</time>
      </trkpt>
      <trkpt lat="52.032978" lon="4.688285">
        <ele>-0.760812</ele>
        <time>2026-03-03T15:31:59.145Z</time>
      </trkpt>
      <trkpt lat="52.032928" lon="4.688116">
        <ele>-0.755490</ele>
        <time>2026-03-03T15:32:00.825Z</time>
      </trkpt>
      <trkpt lat="52.032754" lon="4.685463">
        <ele>-0.722469</ele>
        <time>2026-03-03T15:32:26.009Z</time>
      </trkpt>
      <trkpt lat="52.032825" lon="4.684769">
        <ele>-0.774281</ele>
        <time>2026-03-03T15:32:32.345Z</time>
      </trkpt>
      <trkpt lat="52.032824" lon="4.684273">
        <ele>-0.810810</ele>
        <time>2026-03-03T15:32:36.675Z</time>
      </trkpt>
      <trkpt lat="52.032761" lon="4.683694">
        <ele>-0.854112</ele>
        <time>2026-03-03T15:32:41.708Z</time>
      </trkpt>
      <trkpt lat="52.032620" lon="4.683136">
        <ele>-0.898538</ele>
        <time>2026-03-03T15:32:46.760Z</time>
      </trkpt>
      <trkpt lat="52.032516" lon="4.682888">
        <ele>-0.918717</ele>
        <time>2026-03-03T15:32:49.241Z</time>
      </trkpt>
      <trkpt lat="52.030116" lon="4.678391">
        <ele>-1.251982</ele>
        <time>2026-03-03T15:33:42.736Z</time>
      </trkpt>
      <trkpt lat="52.029840" lon="4.678176">
        <ele>-1.338538</ele>
        <time>2026-03-03T15:33:47.202Z</time>
      </trkpt>
      <trkpt lat="52.029723" lon="4.677973">
        <ele>-1.386936</ele>
        <time>2026-03-03T15:33:49.632Z</time>
      </trkpt>
      <trkpt lat="52.029708" lon="4.677937">
        <ele>-1.394502</ele>
        <time>2026-03-03T15:33:50.150Z</time>
      </trkpt>
      <trkpt lat="52.029665" lon="4.677826">
        <ele>-1.417325</ele>
        <time>2026-03-03T15:33:51.724Z</time>
      </trkpt>
      <trkpt lat="52.029640" lon="4.677763">
        <ele>-1.430369</ele>
        <time>2026-03-03T15:33:52.626Z</time>
      </trkpt>
      <trkpt lat="52.029427" lon="4.677297">
        <ele>-1.531378</ele>
        <time>2026-03-03T15:33:57.568Z</time>
      </trkpt>
      <trkpt lat="52.029200" lon="4.676532">
        <ele>-1.679159</ele>
        <time>2026-03-03T15:34:04.614Z</time>
      </trkpt>
      <trkpt lat="52.028911" lon="4.675365">
        <ele>-1.898906</ele>
        <time>2026-03-03T15:34:14.692Z</time>
      </trkpt>
      <trkpt lat="52.028305" lon="4.672705">
        <ele>-2.135210</ele>
        <time>2026-03-03T15:34:39.922Z</time>
      </trkpt>
      <trkpt lat="52.027579" lon="4.669412">
        <ele>-1.720475</ele>
        <time>2026-03-03T15:35:14.095Z</time>
      </trkpt>
      <trkpt lat="52.027500" lon="4.668900">
        <ele>-1.636821</ele>
        <time>2026-03-03T15:35:19.133Z</time>
      </trkpt>
      <trkpt lat="52.027429" lon="4.668194">
        <ele>-1.523449</ele>
        <time>2026-03-03T15:35:26.113Z</time>
      </trkpt>
      <trkpt lat="52.027356" lon="4.667464">
        <ele>-1.536802</ele>
        <time>2026-03-03T15:35:33.544Z</time>
      </trkpt>
      <trkpt lat="52.027285" lon="4.667390">
        <ele>-1.543534</ele>
        <time>2026-03-03T15:35:34.793Z</time>
      </trkpt>
      <trkpt lat="52.027291" lon="4.667305">
        <ele>-1.547736</ele>
        <time>2026-03-03T15:35:35.551Z</time>
      </trkpt>
      <trkpt lat="52.027250" lon="4.667038">
        <ele>-1.561250</ele>
        <time>2026-03-03T15:35:38.014Z</time>
      </trkpt>
      <trkpt lat="52.027229" lon="4.666915">
        <ele>-1.567519</ele>
        <time>2026-03-03T15:35:39.083Z</time>
      </trkpt>
      <trkpt lat="52.027119" lon="4.666995">
        <ele>-1.577137</ele>
        <time>2026-03-03T15:35:40.744Z</time>
      </trkpt>
      <trkpt lat="52.026944" lon="4.667127">
        <ele>-1.592536</ele>
        <time>2026-03-03T15:35:43.210Z</time>
      </trkpt>
      <trkpt lat="52.026775" lon="4.667262">
        <ele>-1.607566</ele>
        <time>2026-03-03T15:35:45.655Z</time>
      </trkpt>
      <trkpt lat="52.026579" lon="4.667425">
        <ele>-1.625138</ele>
        <time>2026-03-03T15:35:48.742Z</time>
      </trkpt>
      <trkpt lat="52.026495" lon="4.667459">
        <ele>-1.632048</ele>
        <time>2026-03-03T15:35:50.081Z</time>
      </trkpt>
      <trkpt lat="52.026398" lon="4.667401">
        <ele>-1.640297</ele>
        <time>2026-03-03T15:35:51.667Z</time>
      </trkpt>
      <trkpt lat="52.026340" lon="4.667322">
        <ele>-1.646337</ele>
        <time>2026-03-03T15:35:52.889Z</time>
      </trkpt>
      <trkpt lat="52.026264" lon="4.667302">
        <ele>-1.644329</ele>
        <time>2026-03-03T15:35:54.071Z</time>
      </trkpt>
      <trkpt lat="52.025880" lon="4.667491">
        <ele>-1.589560</ele>
        <time>2026-03-03T15:36:00.219Z</time>
      </trkpt>
      <trkpt lat="52.025418" lon="4.667806">
        <ele>-1.521169</ele>
        <time>2026-03-03T15:36:07.430Z</time>
      </trkpt>
      <trkpt lat="52.025248" lon="4.667913">
        <ele>-1.496284</ele>
        <time>2026-03-03T15:36:10.162Z</time>
      </trkpt>
      <trkpt lat="52.024822" lon="4.668180">
        <ele>-1.433958</ele>
        <time>2026-03-03T15:36:17.534Z</time>
      </trkpt>
      <trkpt lat="52.024701" lon="4.668269">
        <ele>-1.415828</ele>
        <time>2026-03-03T15:36:19.998Z</time>
      </trkpt>
      <trkpt lat="52.024362" lon="4.668605">
        <ele>-1.329738</ele>
        <time>2026-03-03T15:36:26.581Z</time>
      </trkpt>
      <trkpt lat="52.024248" lon="4.668793">
        <ele>-1.290865</ele>
        <time>2026-03-03T15:36:29.032Z</time>
      </trkpt>
      <trkpt lat="52.024019" lon="4.669249">
        <ele>-1.204178</ele>
        <time>2026-03-03T15:36:34.394Z</time>
      </trkpt>
      <trkpt lat="52.023967" lon="4.669406">
        <ele>-1.177919</ele>
        <time>2026-03-03T15:36:35.955Z</time>
      </trkpt>
      <trkpt lat="52.023961" lon="4.669513">
        <ele>-1.162094</ele>
        <time>2026-03-03T15:36:36.922Z</time>
      </trkpt>
      <trkpt lat="52.024024" lon="4.669786">
        <ele>-1.119153</ele>
        <time>2026-03-03T15:36:40.534Z</time>
      </trkpt>
      <trkpt lat="52.024019" lon="4.669898">
        <ele>-1.102614</ele>
        <time>2026-03-03T15:36:41.909Z</time>
      </trkpt>
      <trkpt lat="52.023981" lon="4.670011">
        <ele>-1.083648</ele>
        <time>2026-03-03T15:36:43.539Z</time>
      </trkpt>
      <trkpt lat="52.023950" lon="4.670101">
        <ele>-1.068458</ele>
        <time>2026-03-03T15:36:44.856Z</time>
      </trkpt>
      <trkpt lat="52.023913" lon="4.670200">
        <ele>-1.051399</ele>
        <time>2026-03-03T15:36:46.375Z</time>
      </trkpt>
      <trkpt lat="52.024054" lon="4.670272">
        <ele>-1.016024</ele>
        <time>2026-03-03T15:36:48.909Z</time>
      </trkpt>
      <trkpt lat="52.024701" lon="4.670868">
        <ele>-0.796511</ele>
        <time>2026-03-03T15:37:01.545Z</time>
      </trkpt>
      <trkpt lat="52.024722" lon="4.670887">
        <ele>-0.788995</ele>
        <time>2026-03-03T15:37:01.927Z</time>
      </trkpt>
      <trkpt lat="52.024815" lon="4.670923">
        <ele>-0.759100</ele>
        <time>2026-03-03T15:37:03.480Z</time>
      </trkpt>
      <trkpt lat="52.024909" lon="4.670914">
        <ele>-0.729655</ele>
        <time>2026-03-03T15:37:04.991Z</time>
      </trkpt>
      <trkpt lat="52.024943" lon="4.670903">
        <ele>-0.718814</ele>
        <time>2026-03-03T15:37:05.549Z</time>
      </trkpt>
      <trkpt lat="52.025015" lon="4.670896">
        <ele>-0.696259</ele>
        <time>2026-03-03T15:37:06.715Z</time>
      </trkpt>
      <trkpt lat="52.025104" lon="4.670824">
        <ele>-0.665171</ele>
        <time>2026-03-03T15:37:08.332Z</time>
      </trkpt>
      <trkpt lat="52.025224" lon="4.670646">
        <ele>-0.614366</ele>
        <time>2026-03-03T15:37:10.953Z</time>
      </trkpt>
      <trkpt lat="52.025323" lon="4.670280">
        <ele>-0.537439</ele>
        <time>2026-03-03T15:37:14.921Z</time>
      </trkpt>
      <trkpt lat="52.025300" lon="4.670039">
        <ele>-0.490514</ele>
        <time>2026-03-03T15:37:17.352Z</time>
      </trkpt>
      <trkpt lat="52.025096" lon="4.669404">
        <ele>-0.471148</ele>
        <time>2026-03-03T15:37:24.222Z</time>
      </trkpt>
      <trkpt lat="52.024746" lon="4.668478">
        <ele>-0.686802</ele>
        <time>2026-03-03T15:37:33.668Z</time>
      </trkpt>
      <trkpt lat="52.024714" lon="4.668385">
        <ele>-0.707946</ele>
        <time>2026-03-03T15:37:34.548Z</time>
      </trkpt>
      <trkpt lat="52.024286" lon="4.667175">
        <ele>-0.984906</ele>
        <time>2026-03-03T15:37:45.934Z</time>
      </trkpt>
      <trkpt lat="52.023730" lon="4.665629">
        <ele>-2.027188</ele>
        <time>2026-03-03T15:38:05.501Z</time>
      </trkpt>
      <trkpt lat="52.023618" lon="4.665261">
        <ele>-2.268931</ele>
        <time>2026-03-03T15:38:08.643Z</time>
      </trkpt>
      <trkpt lat="52.023232" lon="4.663713">
        <ele>-3.508788</ele>
        <time>2026-03-03T15:38:20.550Z</time>
      </trkpt>
      <trkpt lat="52.023156" lon="4.663409">
        <ele>-3.793690</ele>
        <time>2026-03-03T15:38:23.857Z</time>
      </trkpt>
      <trkpt lat="52.022581" lon="4.663228">
        <ele>-4.620100</ele>
        <time>2026-03-03T15:38:33.501Z</time>
      </trkpt>
      <trkpt lat="52.022403" lon="4.663171">
        <ele>-4.876089</ele>
        <time>2026-03-03T15:38:36.444Z</time>
      </trkpt>
      <trkpt lat="52.022332" lon="4.663142">
        <ele>-4.979387</ele>
        <time>2026-03-03T15:38:37.660Z</time>
      </trkpt>
      <trkpt lat="52.022275" lon="4.663067">
        <ele>-5.082872</ele>
        <time>2026-03-03T15:38:38.842Z</time>
      </trkpt>
      <trkpt lat="52.022210" lon="4.662961">
        <ele>-5.212805</ele>
        <time>2026-03-03T15:38:39.895Z</time>
      </trkpt>
      <trkpt lat="52.022080" lon="4.663168">
        <ele>-5.314965</ele>
        <time>2026-03-03T15:38:42.955Z</time>
      </trkpt>
      <trkpt lat="52.021985" lon="4.663324">
        <ele>-5.371273</ele>
        <time>2026-03-03T15:38:45.286Z</time>
      </trkpt>
      <trkpt lat="52.021938" lon="4.663400">
        <ele>-5.398917</ele>
        <time>2026-03-03T15:38:46.431Z</time>
      </trkpt>
      <trkpt lat="52.021637" lon="4.663893">
        <ele>-5.577093</ele>
        <time>2026-03-03T15:38:54.299Z</time>
      </trkpt>
      <trkpt lat="52.021154" lon="4.664685">
        <ele>-5.863169</ele>
        <time>2026-03-03T15:39:08.093Z</time>
      </trkpt>
      <trkpt lat="52.020812" lon="4.665246">
        <ele>-6.017843</ele>
        <time>2026-03-03T15:39:18.050Z</time>
      </trkpt>
      <trkpt lat="52.020766" lon="4.665323">
        <ele>-6.025312</ele>
        <time>2026-03-03T15:39:19.357Z</time>
      </trkpt>
      <trkpt lat="52.020586" lon="4.665579">
        <ele>-6.052367</ele>
        <time>2026-03-03T15:39:24.260Z</time>
      </trkpt>
      <trkpt lat="52.020489" lon="4.665670">
        <ele>-6.065035</ele>
        <time>2026-03-03T15:39:26.531Z</time>
      </trkpt>
      <trkpt lat="52.020299" lon="4.665745">
        <ele>-6.087150</ele>
        <time>2026-03-03T15:39:30.500Z</time>
      </trkpt>
      <trkpt lat="52.020152" lon="4.665728">
        <ele>-6.103819</ele>
        <time>2026-03-03T15:39:33.464Z</time>
      </trkpt>
      <trkpt lat="52.019770" lon="4.665531">
        <ele>-6.149149</ele>
        <time>2026-03-03T15:39:41.198Z</time>
      </trkpt>
      <trkpt lat="52.019511" lon="4.665360">
        <ele>-6.180768</ele>
        <time>2026-03-03T15:39:46.597Z</time>
      </trkpt>
      <trkpt lat="52.019052" lon="4.664964">
        <ele>-6.201404</ele>
        <time>2026-03-03T15:39:56.703Z</time>
      </trkpt>
      <trkpt lat="52.018460" lon="4.664309">
        <ele>-6.196847</ele>
        <time>2026-03-03T15:40:10.931Z</time>
      </trkpt>
      <trkpt lat="52.018249" lon="4.664076">
        <ele>-6.195224</ele>
        <time>2026-03-03T15:40:16.154Z</time>
      </trkpt>
      <trkpt lat="52.017653" lon="4.663484">
        <ele>-6.090755</ele>
        <time>2026-03-03T15:40:30.676Z</time>
      </trkpt>
      <trkpt lat="52.017522" lon="4.663340">
        <ele>-6.006695</ele>
        <time>2026-03-03T15:40:33.979Z</time>
      </trkpt>
      <trkpt lat="52.017090" lon="4.662888">
        <ele>-5.733609</ele>
        <time>2026-03-03T15:40:45.528Z</time>
      </trkpt>
      <trkpt lat="52.016914" lon="4.662704">
        <ele>-5.622378</ele>
        <time>2026-03-03T15:40:50.393Z</time>
      </trkpt>
      <trkpt lat="52.016791" lon="4.662532">
        <ele>-5.536129</ele>
        <time>2026-03-03T15:40:54.225Z</time>
      </trkpt>
      <trkpt lat="52.016776" lon="4.662708">
        <ele>-5.478011</ele>
        <time>2026-03-03T15:40:56.754Z</time>
      </trkpt>
      <trkpt lat="52.016730" lon="4.663229">
        <ele>-5.305850</ele>
        <time>2026-03-03T15:41:04.298Z</time>
      </trkpt>
      <trkpt lat="52.016781" lon="4.663508">
        <ele>-5.220400</ele>
        <time>2026-03-03T15:41:08.400Z</time>
      </trkpt>
      <trkpt lat="52.016733" lon="4.663828">
        <ele>-5.154049</ele>
        <time>2026-03-03T15:41:12.986Z</time>
      </trkpt>
      <trkpt lat="52.016682" lon="4.663795">
        <ele>-5.136080</ele>
        <time>2026-03-03T15:41:13.908Z</time>
      </trkpt>
      <trkpt lat="52.016606" lon="4.663760">
        <ele>-5.110223</ele>
        <time>2026-03-03T15:41:15.315Z</time>
      </trkpt>
      <trkpt lat="52.016494" lon="4.663746">
        <ele>-5.073453</ele>
        <time>2026-03-03T15:41:17.269Z</time>
      </trkpt>
      <trkpt lat="52.016305" lon="4.663786">
        <ele>-5.011065</ele>
        <time>2026-03-03T15:41:20.527Z</time>
      </trkpt>
      <trkpt lat="52.015940" lon="4.663715">
        <ele>-4.890735</ele>
        <time>2026-03-03T15:41:26.520Z</time>
      </trkpt>
      <trkpt lat="52.015415" lon="4.663736">
        <ele>-4.718834</ele>
        <time>2026-03-03T15:41:34.380Z</time>
      </trkpt>
      <trkpt lat="52.014756" lon="4.663901">
        <ele>-4.615748</ele>
        <time>2026-03-03T15:41:43.997Z</time>
      </trkpt>
      <trkpt lat="52.014189" lon="4.664234">
        <ele>-4.573332</ele>
        <time>2026-03-03T15:41:52.779Z</time>
      </trkpt>
      <trkpt lat="52.013469" lon="4.664837">
        <ele>-4.525573</ele>
        <time>2026-03-03T15:42:05.416Z</time>
      </trkpt>
      <trkpt lat="52.013076" lon="4.665298">
        <ele>-4.563090</ele>
        <time>2026-03-03T15:42:13.776Z</time>
      </trkpt>
      <trkpt lat="52.012858" lon="4.665606">
        <ele>-4.585450</ele>
        <time>2026-03-03T15:42:18.331Z</time>
      </trkpt>
      <trkpt lat="52.012437" lon="4.666477">
        <ele>-4.638207</ele>
        <time>2026-03-03T15:42:27.655Z</time>
      </trkpt>
      <trkpt lat="52.011980" lon="4.667466">
        <ele>-4.852985</ele>
        <time>2026-03-03T15:42:37.692Z</time>
      </trkpt>
      <trkpt lat="52.011641" lon="4.668078">
        <ele>-5.056677</ele>
        <time>2026-03-03T15:42:44.111Z</time>
      </trkpt>
      <trkpt lat="52.011065" lon="4.669319">
        <ele>-5.421960</ele>
        <time>2026-03-03T15:42:57.619Z</time>
      </trkpt>
      <trkpt lat="52.010668" lon="4.670178">
        <ele>-5.599981</ele>
        <time>2026-03-03T15:43:06.962Z</time>
      </trkpt>
      <trkpt lat="52.010597" lon="4.670263">
        <ele>-5.623727</ele>
        <time>2026-03-03T15:43:08.179Z</time>
      </trkpt>
      <trkpt lat="52.010502" lon="4.670237">
        <ele>-5.649666</ele>
        <time>2026-03-03T15:43:09.495Z</time>
      </trkpt>
      <trkpt lat="52.010464" lon="4.670078">
        <ele>-5.677933</ele>
        <time>2026-03-03T15:43:11.484Z</time>
      </trkpt>
      <trkpt lat="52.010354" lon="4.670070">
        <ele>-5.707580</ele>
        <time>2026-03-03T15:43:13.559Z</time>
      </trkpt>
      <trkpt lat="52.010292" lon="4.670066">
        <ele>-5.724286</ele>
        <time>2026-03-03T15:43:14.713Z</time>
      </trkpt>
      <trkpt lat="52.010187" lon="4.670053">
        <ele>-5.752639</ele>
        <time>2026-03-03T15:43:16.694Z</time>
      </trkpt>
      <trkpt lat="52.010155" lon="4.670167">
        <ele>-5.773404</ele>
        <time>2026-03-03T15:43:17.725Z</time>
      </trkpt>
      <trkpt lat="52.009995" lon="4.670158">
        <ele>-5.816509</ele>
        <time>2026-03-03T15:43:19.911Z</time>
      </trkpt>
      <trkpt lat="52.009962" lon="4.670200">
        <ele>-5.827796</ele>
        <time>2026-03-03T15:43:20.480Z</time>
      </trkpt>
      <trkpt lat="52.009947" lon="4.670335">
        <ele>-5.850531</ele>
        <time>2026-03-03T15:43:21.661Z</time>
      </trkpt>
      <trkpt lat="52.009934" lon="4.670454">
        <ele>-5.867853</ele>
        <time>2026-03-03T15:43:22.693Z</time>
      </trkpt>
      <trkpt lat="52.010070" lon="4.670527">
        <ele>-5.875482</ele>
        <time>2026-03-03T15:43:24.705Z</time>
      </trkpt>
      <trkpt lat="52.010093" lon="4.670617">
        <ele>-5.878676</ele>
        <time>2026-03-03T15:43:25.571Z</time>
      </trkpt>
      <trkpt lat="52.009992" lon="4.671425">
        <ele>-5.905707</ele>
        <time>2026-03-03T15:43:33.003Z</time>
      </trkpt>
      <trkpt lat="52.009760" lon="4.672219">
        <ele>-5.934521</ele>
        <time>2026-03-03T15:43:41.121Z</time>
      </trkpt>
      <trkpt lat="52.007007" lon="4.678269">
        <ele>-5.542985</ele>
        <time>2026-03-03T15:44:50.690Z</time>
      </trkpt>
      <trkpt lat="52.006421" lon="4.679577">
        <ele>-5.186376</ele>
        <time>2026-03-03T15:45:06.927Z</time>
      </trkpt>
      <trkpt lat="52.006164" lon="4.680284">
        <ele>-4.989955</ele>
        <time>2026-03-03T15:45:16.189Z</time>
      </trkpt>
      <trkpt lat="52.005909" lon="4.681190">
        <ele>-4.723539</ele>
        <time>2026-03-03T15:45:26.797Z</time>
      </trkpt>
      <trkpt lat="52.005821" lon="4.681456">
        <ele>-4.642780</ele>
        <time>2026-03-03T15:45:29.990Z</time>
      </trkpt>
      <trkpt lat="52.005698" lon="4.681825">
        <ele>-4.530558</ele>
        <time>2026-03-03T15:45:34.374Z</time>
      </trkpt>
      <trkpt lat="52.005535" lon="4.682305">
        <ele>-4.383954</ele>
        <time>2026-03-03T15:45:39.847Z</time>
      </trkpt>
      <trkpt lat="52.004902" lon="4.684117">
        <ele>-4.493183</ele>
        <time>2026-03-03T15:45:57.937Z</time>
      </trkpt>
      <trkpt lat="52.004768" lon="4.684379">
        <ele>-4.531367</ele>
        <time>2026-03-03T15:46:01.094Z</time>
      </trkpt>
      <trkpt lat="52.004649" lon="4.684544">
        <ele>-4.559857</ele>
        <time>2026-03-03T15:46:03.315Z</time>
      </trkpt>
      <trkpt lat="52.004571" lon="4.684573">
        <ele>-4.574428</ele>
        <time>2026-03-03T15:46:04.398Z</time>
      </trkpt>
      <trkpt lat="52.004434" lon="4.684527">
        <ele>-4.599903</ele>
        <time>2026-03-03T15:46:06.302Z</time>
      </trkpt>
      <trkpt lat="52.004378" lon="4.684596">
        <ele>-4.612702</ele>
        <time>2026-03-03T15:46:07.283Z</time>
      </trkpt>
      <trkpt lat="52.004333" lon="4.684675">
        <ele>-4.624689</ele>
        <time>2026-03-03T15:46:08.162Z</time>
      </trkpt>
      <trkpt lat="52.004301" lon="4.684735">
        <ele>-4.632801</ele>
        <time>2026-03-03T15:46:08.794Z</time>
      </trkpt>
      <trkpt lat="52.004298" lon="4.684810">
        <ele>-4.640481</ele>
        <time>2026-03-03T15:46:09.462Z</time>
      </trkpt>
      <trkpt lat="52.004379" lon="4.685285">
        <ele>-4.690848</ele>
        <time>2026-03-03T15:46:13.468Z</time>
      </trkpt>
      <trkpt lat="52.004324" lon="4.685634">
        <ele>-4.727661</ele>
        <time>2026-03-03T15:46:16.331Z</time>
      </trkpt>
      <trkpt lat="52.004184" lon="4.686104">
        <ele>-4.781016</ele>
        <time>2026-03-03T15:46:20.525Z</time>
      </trkpt>
      <trkpt lat="52.004046" lon="4.686428">
        <ele>-4.821277</ele>
        <time>2026-03-03T15:46:24.166Z</time>
      </trkpt>
      <trkpt lat="52.003723" lon="4.686961">
        <ele>-4.897705</ele>
        <time>2026-03-03T15:46:31.254Z</time>
      </trkpt>
      <trkpt lat="52.003421" lon="4.687621">
        <ele>-4.804116</ele>
        <time>2026-03-03T15:46:39.681Z</time>
      </trkpt>
      <trkpt lat="52.002877" lon="4.688838">
        <ele>-4.497381</ele>
        <time>2026-03-03T15:46:54.307Z</time>
      </trkpt>
      <trkpt lat="52.002818" lon="4.689179">
        <ele>-4.425140</ele>
        <time>2026-03-03T15:46:57.646Z</time>
      </trkpt>
      <trkpt lat="52.002654" lon="4.689930">
        <ele>-4.095890</ele>
        <time>2026-03-03T15:47:06.018Z</time>
      </trkpt>
      <trkpt lat="52.002233" lon="4.690513">
        <ele>-3.434779</ele>
        <time>2026-03-03T15:47:15.763Z</time>
      </trkpt>
      <trkpt lat="52.002235" lon="4.690652">
        <ele>-3.332491</ele>
        <time>2026-03-03T15:47:17.336Z</time>
      </trkpt>
      <trkpt lat="52.002261" lon="4.690734">
        <ele>-3.264634</ele>
        <time>2026-03-03T15:47:18.416Z</time>
      </trkpt>
      <trkpt lat="52.002276" lon="4.690779">
        <ele>-3.226987</ele>
        <time>2026-03-03T15:47:19.041Z</time>
      </trkpt>
      <trkpt lat="52.002414" lon="4.691204">
        <ele>-2.873496</ele>
        <time>2026-03-03T15:47:25.156Z</time>
      </trkpt>
      <trkpt lat="52.002351" lon="4.692066">
        <ele>-2.234883</ele>
        <time>2026-03-03T15:47:37.288Z</time>
      </trkpt>
      <trkpt lat="52.002139" lon="4.692309">
        <ele>-1.917768</ele>
        <time>2026-03-03T15:47:43.246Z</time>
      </trkpt>
      <trkpt lat="52.002069" lon="4.692371">
        <ele>-1.819828</ele>
        <time>2026-03-03T15:47:44.965Z</time>
      </trkpt>
      <trkpt lat="52.001752" lon="4.692436">
        <ele>-1.427339</ele>
        <time>2026-03-03T15:47:51.600Z</time>
      </trkpt>
      <trkpt lat="52.001516" lon="4.692395">
        <ele>-1.135787</ele>
        <time>2026-03-03T15:47:56.413Z</time>
      </trkpt>
      <trkpt lat="52.001186" lon="4.692324">
        <ele>-0.726878</ele>
        <time>2026-03-03T15:48:02.828Z</time>
      </trkpt>
      <trkpt lat="52.001117" lon="4.692318">
        <ele>-0.641998</ele>
        <time>2026-03-03T15:48:04.091Z</time>
      </trkpt>
      <trkpt lat="52.001020" lon="4.692364">
        <ele>-0.517870</ele>
        <time>2026-03-03T15:48:05.941Z</time>
      </trkpt>
      <trkpt lat="52.000869" lon="4.692336">
        <ele>-0.331179</ele>
        <time>2026-03-03T15:48:08.694Z</time>
      </trkpt>
      <trkpt lat="52.000829" lon="4.692435">
        <ele>-0.241626</ele>
        <time>2026-03-03T15:48:10.012Z</time>
      </trkpt>
      <trkpt lat="52.000797" lon="4.692524">
        <ele>-0.163682</ele>
        <time>2026-03-03T15:48:11.154Z</time>
      </trkpt>
      <trkpt lat="52.000777" lon="4.692647">
        <ele>-0.067473</ele>
        <time>2026-03-03T15:48:12.551Z</time>
      </trkpt>
      <trkpt lat="52.000902" lon="4.692990">
        <ele>0.093151</ele>
        <time>2026-03-03T15:48:16.864Z</time>
      </trkpt>
      <trkpt lat="52.000895" lon="4.693315">
        <ele>0.167399</ele>
        <time>2026-03-03T15:48:20.201Z</time>
      </trkpt>
      <trkpt lat="52.000872" lon="4.693531">
        <ele>0.217446</ele>
        <time>2026-03-03T15:48:22.346Z</time>
      </trkpt>
      <trkpt lat="52.000847" lon="4.693729">
        <ele>0.263593</ele>
        <time>2026-03-03T15:48:24.325Z</time>
      </trkpt>
      <trkpt lat="52.000796" lon="4.693985">
        <ele>0.325025</ele>
        <time>2026-03-03T15:48:26.985Z</time>
      </trkpt>
      <trkpt lat="52.000724" lon="4.694313">
        <ele>0.404530</ele>
        <time>2026-03-03T15:48:30.412Z</time>
      </trkpt>
      <trkpt lat="52.000625" lon="4.694439">
        <ele>0.451172</ele>
        <time>2026-03-03T15:48:32.413Z</time>
      </trkpt>
      <trkpt lat="52.000504" lon="4.694560">
        <ele>0.503867</ele>
        <time>2026-03-03T15:48:34.610Z</time>
      </trkpt>
      <trkpt lat="52.000487" lon="4.694656">
        <ele>0.526674</ele>
        <time>2026-03-03T15:48:35.554Z</time>
      </trkpt>
      <trkpt lat="52.000482" lon="4.694717">
        <ele>0.540724</ele>
        <time>2026-03-03T15:48:36.133Z</time>
      </trkpt>
      <trkpt lat="52.000445" lon="4.694879">
        <ele>0.580174</ele>
        <time>2026-03-03T15:48:37.791Z</time>
      </trkpt>
      <trkpt lat="52.000440" lon="4.694941">
        <ele>0.594451</ele>
        <time>2026-03-03T15:48:38.372Z</time>
      </trkpt>
      <trkpt lat="52.000434" lon="4.695051">
        <ele>0.619664</ele>
        <time>2026-03-03T15:48:39.445Z</time>
      </trkpt>
      <trkpt lat="51.999275" lon="4.694738">
        <ele>0.876011</ele>
        <time>2026-03-03T15:48:58.438Z</time>
      </trkpt>
      <trkpt lat="51.998735" lon="4.694654">
        <ele>0.975854</ele>
        <time>2026-03-03T15:49:06.774Z</time>
      </trkpt>
      <trkpt lat="51.998174" lon="4.694656">
        <ele>1.062781</ele>
        <time>2026-03-03T15:49:14.765Z</time>
      </trkpt>
      <trkpt lat="51.997645" lon="4.694784">
        <ele>1.128274</ele>
        <time>2026-03-03T15:49:22.759Z</time>
      </trkpt>
      <trkpt lat="51.997390" lon="4.694804">
        <ele>1.159536</ele>
        <time>2026-03-03T15:49:26.671Z</time>
      </trkpt>
      <trkpt lat="51.997294" lon="4.694842">
        <ele>1.171636</ele>
        <time>2026-03-03T15:49:28.193Z</time>
      </trkpt>
      <trkpt lat="51.996847" lon="4.694998">
        <ele>1.227622</ele>
        <time>2026-03-03T15:49:35.450Z</time>
      </trkpt>
      <trkpt lat="51.996473" lon="4.695128">
        <ele>1.251966</ele>
        <time>2026-03-03T15:49:41.723Z</time>
      </trkpt>
      <trkpt lat="51.996395" lon="4.695163">
        <ele>1.252544</ele>
        <time>2026-03-03T15:49:43.037Z</time>
      </trkpt>
      <trkpt lat="51.996166" lon="4.695383">
        <ele>1.254442</ele>
        <time>2026-03-03T15:49:47.459Z</time>
      </trkpt>
      <trkpt lat="51.996129" lon="4.695477">
        <ele>1.254931</ele>
        <time>2026-03-03T15:49:48.592Z</time>
      </trkpt>
      <trkpt lat="51.996117" lon="4.695622">
        <ele>1.255574</ele>
        <time>2026-03-03T15:49:50.027Z</time>
      </trkpt>
      <trkpt lat="51.996172" lon="4.695922">
        <ele>1.256949</ele>
        <time>2026-03-03T15:49:52.988Z</time>
      </trkpt>
      <trkpt lat="51.996309" lon="4.696114">
        <ele>1.258239</ele>
        <time>2026-03-03T15:49:55.618Z</time>
      </trkpt>
      <trkpt lat="51.996331" lon="4.696237">
        <ele>1.258802</ele>
        <time>2026-03-03T15:49:56.725Z</time>
      </trkpt>
      <trkpt lat="51.996398" lon="4.696249">
        <ele>1.259283</ele>
        <time>2026-03-03T15:49:57.655Z</time>
      </trkpt>
      <trkpt lat="51.996452" lon="4.696349">
        <ele>1.259867</ele>
        <time>2026-03-03T15:49:58.757Z</time>
      </trkpt>
      <trkpt lat="51.996453" lon="4.696438">
        <ele>1.260258</ele>
        <time>2026-03-03T15:49:59.492Z</time>
      </trkpt>
      <trkpt lat="51.996357" lon="4.696823">
        <ele>1.262082</ele>
        <time>2026-03-03T15:50:02.891Z</time>
      </trkpt>
      <trkpt lat="51.996351" lon="4.696952">
        <ele>1.262650</ele>
        <time>2026-03-03T15:50:03.963Z</time>
      </trkpt>
      <trkpt lat="51.997047" lon="4.700704">
        <ele>0.502949</ele>
        <time>2026-03-03T15:50:37.014Z</time>
      </trkpt>
      <trkpt lat="51.997237" lon="4.701245">
        <ele>0.384113</ele>
        <time>2026-03-03T15:50:42.137Z</time>
      </trkpt>
      <trkpt lat="51.997613" lon="4.701934">
        <ele>0.208447</ele>
        <time>2026-03-03T15:50:49.919Z</time>
      </trkpt>
      <trkpt lat="51.997866" lon="4.702380">
        <ele>0.098427</ele>
        <time>2026-03-03T15:50:55.194Z</time>
      </trkpt>
      <trkpt lat="51.999058" lon="4.703886">
        <ele>-0.111856</ele>
        <time>2026-03-03T15:51:16.923Z</time>
      </trkpt>
      <trkpt lat="51.999505" lon="4.704503">
        <ele>-0.181751</ele>
        <time>2026-03-03T15:51:25.359Z</time>
      </trkpt>
      <trkpt lat="51.999634" lon="4.704697">
        <ele>-0.199979</ele>
        <time>2026-03-03T15:51:27.793Z</time>
      </trkpt>
      <trkpt lat="51.999880" lon="4.705034">
        <ele>-0.233345</ele>
        <time>2026-03-03T15:51:32.211Z</time>
      </trkpt>
      <trkpt lat="51.999935" lon="4.705107">
        <ele>-0.240710</ele>
        <time>2026-03-03T15:51:33.178Z</time>
      </trkpt>
      <trkpt lat="51.999979" lon="4.705171">
        <ele>-0.246833</ele>
        <time>2026-03-03T15:51:34.005Z</time>
      </trkpt>
      <trkpt lat="52.000085" lon="4.705326">
        <ele>-0.261621</ele>
        <time>2026-03-03T15:51:36.050Z</time>
      </trkpt>
      <trkpt lat="52.000138" lon="4.705405">
        <ele>-0.269080</ele>
        <time>2026-03-03T15:51:37.153Z</time>
      </trkpt>
      <trkpt lat="52.000292" lon="4.705635">
        <ele>-0.290771</ele>
        <time>2026-03-03T15:51:40.277Z</time>
      </trkpt>
      <trkpt lat="52.000488" lon="4.705934">
        <ele>-0.318650</ele>
        <time>2026-03-03T15:51:44.518Z</time>
      </trkpt>
      <trkpt lat="52.000822" lon="4.706442">
        <ele>-0.301202</ele>
        <time>2026-03-03T15:51:51.399Z</time>
      </trkpt>
      <trkpt lat="52.000838" lon="4.706468">
        <ele>-0.298822</ele>
        <time>2026-03-03T15:51:51.717Z</time>
      </trkpt>
      <trkpt lat="52.000890" lon="4.706546">
        <ele>-0.291381</ele>
        <time>2026-03-03T15:51:52.782Z</time>
      </trkpt>
      <trkpt lat="52.001153" lon="4.706946">
        <ele>-0.253501</ele>
        <time>2026-03-03T15:51:58.150Z</time>
      </trkpt>
      <trkpt lat="52.001191" lon="4.707004">
        <ele>-0.248019</ele>
        <time>2026-03-03T15:51:58.955Z</time>
      </trkpt>
      <trkpt lat="52.001475" lon="4.707434">
        <ele>-0.207201</ele>
        <time>2026-03-03T15:52:04.939Z</time>
      </trkpt>
      <trkpt lat="52.001614" lon="4.707643">
        <ele>-0.187287</ele>
        <time>2026-03-03T15:52:07.776Z</time>
      </trkpt>
      <trkpt lat="52.001648" lon="4.707696">
        <ele>-0.182333</ele>
        <time>2026-03-03T15:52:08.488Z</time>
      </trkpt>
      <trkpt lat="52.001767" lon="4.707862">
        <ele>-0.165841</ele>
        <time>2026-03-03T15:52:10.848Z</time>
      </trkpt>
      <trkpt lat="52.001965" lon="4.708136">
        <ele>-0.127881</ele>
        <time>2026-03-03T15:52:14.871Z</time>
      </trkpt>
      <trkpt lat="52.002151" lon="4.708399">
        <ele>-0.058123</ele>
        <time>2026-03-03T15:52:18.753Z</time>
      </trkpt>
      <trkpt lat="52.002247" lon="4.708537">
        <ele>-0.021860</ele>
        <time>2026-03-03T15:52:20.788Z</time>
      </trkpt>
      <trkpt lat="52.002411" lon="4.708779">
        <ele>0.040816</ele>
        <time>2026-03-03T15:52:24.362Z</time>
      </trkpt>
      <trkpt lat="52.002459" lon="4.708854">
        <ele>0.059656</ele>
        <time>2026-03-03T15:52:25.448Z</time>
      </trkpt>
      <trkpt lat="52.002707" lon="4.709280">
        <ele>0.161759</ele>
        <time>2026-03-03T15:52:31.282Z</time>
      </trkpt>
      <trkpt lat="52.002922" lon="4.709716">
        <ele>0.259041</ele>
        <time>2026-03-03T15:52:36.837Z</time>
      </trkpt>
      <trkpt lat="52.003132" lon="4.710037">
        <ele>0.340611</ele>
        <time>2026-03-03T15:52:41.575Z</time>
      </trkpt>
      <trkpt lat="52.003237" lon="4.710235">
        <ele>0.377464</ele>
        <time>2026-03-03T15:52:44.227Z</time>
      </trkpt>
      <trkpt lat="52.003584" lon="4.710986">
        <ele>0.476932</ele>
        <time>2026-03-03T15:52:53.557Z</time>
      </trkpt>
      <trkpt lat="52.004107" lon="4.711985">
        <ele>0.615846</ele>
        <time>2026-03-03T15:53:05.871Z</time>
      </trkpt>
      <trkpt lat="52.004611" lon="4.712797">
        <ele>0.537922</ele>
        <time>2026-03-03T15:53:16.429Z</time>
      </trkpt>
      <trkpt lat="52.004902" lon="4.713439">
        <ele>0.360319</ele>
        <time>2026-03-03T15:53:23.272Z</time>
      </trkpt>
      <trkpt lat="52.004928" lon="4.713504">
        <ele>0.343051</ele>
        <time>2026-03-03T15:53:23.911Z</time>
      </trkpt>
      <trkpt lat="52.005235" lon="4.714287">
        <ele>0.136250</ele>
        <time>2026-03-03T15:53:31.358Z</time>
      </trkpt>
      <trkpt lat="52.005253" lon="4.714332">
        <ele>0.124296</ele>
        <time>2026-03-03T15:53:31.779Z</time>
      </trkpt>
      <trkpt lat="52.005376" lon="4.714802">
        <ele>0.016619</ele>
        <time>2026-03-03T15:53:35.781Z</time>
      </trkpt>
      <trkpt lat="52.005407" lon="4.715214">
        <ele>-0.029327</ele>
        <time>2026-03-03T15:53:39.146Z</time>
      </trkpt>
      <trkpt lat="52.005369" lon="4.716260">
        <ele>-0.145316</ele>
        <time>2026-03-03T15:53:47.739Z</time>
      </trkpt>
      <trkpt lat="52.005361" lon="4.716448">
        <ele>-0.166177</ele>
        <time>2026-03-03T15:53:49.293Z</time>
      </trkpt>
      <trkpt lat="52.005296" lon="4.717906">
        <ele>-0.245524</ele>
        <time>2026-03-03T15:54:03.267Z</time>
      </trkpt>
      <trkpt lat="52.005291" lon="4.718065">
        <ele>-0.209704</ele>
        <time>2026-03-03T15:54:04.991Z</time>
      </trkpt>
      <trkpt lat="52.005286" lon="4.718184">
        <ele>-0.182868</ele>
        <time>2026-03-03T15:54:06.235Z</time>
      </trkpt>
      <trkpt lat="52.005284" lon="4.718218">
        <ele>-0.175183</ele>
        <time>2026-03-03T15:54:06.594Z</time>
      </trkpt>
      <trkpt lat="52.005240" lon="4.718901">
        <ele>-0.020676</ele>
        <time>2026-03-03T15:54:14.057Z</time>
      </trkpt>
      <trkpt lat="52.005019" lon="4.719591">
        <ele>0.154324</ele>
        <time>2026-03-03T15:54:21.957Z</time>
      </trkpt>
      <trkpt lat="52.004967" lon="4.719809">
        <ele>0.206925</ele>
        <time>2026-03-03T15:54:24.255Z</time>
      </trkpt>
      <trkpt lat="52.004975" lon="4.720092">
        <ele>0.270665</ele>
        <time>2026-03-03T15:54:27.099Z</time>
      </trkpt>
      <trkpt lat="52.005084" lon="4.720440">
        <ele>0.354446</ele>
        <time>2026-03-03T15:54:30.998Z</time>
      </trkpt>
      <trkpt lat="52.005108" lon="4.720611">
        <ele>0.310804</ele>
        <time>2026-03-03T15:54:32.644Z</time>
      </trkpt>
      <trkpt lat="52.005095" lon="4.721010">
        <ele>0.211381</ele>
        <time>2026-03-03T15:54:36.189Z</time>
      </trkpt>
      <trkpt lat="52.005093" lon="4.721117">
        <ele>0.184744</ele>
        <time>2026-03-03T15:54:37.122Z</time>
      </trkpt>
      <trkpt lat="52.005035" lon="4.721430">
        <ele>0.103407</ele>
        <time>2026-03-03T15:54:39.918Z</time>
      </trkpt>
      <trkpt lat="52.004973" lon="4.721489">
        <ele>0.074362</ele>
        <time>2026-03-03T15:54:41.255Z</time>
      </trkpt>
      <trkpt lat="52.004849" lon="4.721928">
        <ele>-0.045826</ele>
        <time>2026-03-03T15:54:46.825Z</time>
      </trkpt>
      <trkpt lat="52.004848" lon="4.722006">
        <ele>-0.065240</ele>
        <time>2026-03-03T15:54:47.735Z</time>
      </trkpt>
      <trkpt lat="52.004897" lon="4.722105">
        <ele>-0.096849</ele>
        <time>2026-03-03T15:54:49.143Z</time>
      </trkpt>
      <trkpt lat="52.004914" lon="4.722260">
        <ele>-0.136026</ele>
        <time>2026-03-03T15:54:50.892Z</time>
      </trkpt>
      <trkpt lat="52.004930" lon="4.722318">
        <ele>-0.151841</ele>
        <time>2026-03-03T15:54:51.579Z</time>
      </trkpt>
      <trkpt lat="52.004956" lon="4.722417">
        <ele>-0.178624</ele>
        <time>2026-03-03T15:54:52.776Z</time>
      </trkpt>
      <trkpt lat="52.004829" lon="4.722480">
        <ele>-0.232300</ele>
        <time>2026-03-03T15:54:54.476Z</time>
      </trkpt>
      <trkpt lat="52.004683" lon="4.722611">
        <ele>-0.299719</ele>
        <time>2026-03-03T15:54:56.621Z</time>
      </trkpt>
      <trkpt lat="52.004204" lon="4.723119">
        <ele>-0.596165</ele>
        <time>2026-03-03T15:55:03.826Z</time>
      </trkpt>
      <trkpt lat="52.003413" lon="4.723982">
        <ele>-1.137832</ele>
        <time>2026-03-03T15:55:16.123Z</time>
      </trkpt>
      <trkpt lat="52.003110" lon="4.724369">
        <ele>-1.356947</ele>
        <time>2026-03-03T15:55:21.327Z</time>
      </trkpt>
      <trkpt lat="52.002645" lon="4.725056">
        <ele>-1.463811</ele>
        <time>2026-03-03T15:55:30.411Z</time>
      </trkpt>
      <trkpt lat="52.002551" lon="4.725249">
        <ele>-1.482808</ele>
        <time>2026-03-03T15:55:32.660Z</time>
      </trkpt>
      <trkpt lat="52.002523" lon="4.725565">
        <ele>-1.507452</ele>
        <time>2026-03-03T15:55:35.559Z</time>
      </trkpt>
      <trkpt lat="52.002470" lon="4.725700">
        <ele>-1.519812</ele>
        <time>2026-03-03T15:55:37.007Z</time>
      </trkpt>
      <trkpt lat="52.002397" lon="4.725812">
        <ele>-1.532403</ele>
        <time>2026-03-03T15:55:38.466Z</time>
      </trkpt>
      <trkpt lat="52.002194" lon="4.725881">
        <ele>-1.558409</ele>
        <time>2026-03-03T15:55:41.494Z</time>
      </trkpt>
      <trkpt lat="52.002065" lon="4.726110">
        <ele>-1.582370</ele>
        <time>2026-03-03T15:55:44.277Z</time>
      </trkpt>
      <trkpt lat="52.001673" lon="4.727139">
        <ele>-1.687425</ele>
        <time>2026-03-03T15:55:54.909Z</time>
      </trkpt>
      <trkpt lat="52.001552" lon="4.727420">
        <ele>-1.719273</ele>
        <time>2026-03-03T15:55:57.842Z</time>
      </trkpt>
      <trkpt lat="52.001491" lon="4.727554">
        <ele>-1.734752</ele>
        <time>2026-03-03T15:55:59.267Z</time>
      </trkpt>
      <trkpt lat="52.001345" lon="4.727879">
        <ele>-1.772118</ele>
        <time>2026-03-03T15:56:02.676Z</time>
      </trkpt>
      <trkpt lat="51.999815" lon="4.731240">
        <ele>-2.073553</ele>
        <time>2026-03-03T15:56:39.865Z</time>
      </trkpt>
      <trkpt lat="51.999527" lon="4.731897">
        <ele>-2.081174</ele>
        <time>2026-03-03T15:56:47.140Z</time>
      </trkpt>
      <trkpt lat="51.998143" lon="4.735090">
        <ele>-2.126216</ele>
        <time>2026-03-03T15:57:22.933Z</time>
      </trkpt>
      <trkpt lat="51.997817" lon="4.736096">
        <ele>-2.142947</ele>
        <time>2026-03-03T15:57:33.001Z</time>
      </trkpt>
      <trkpt lat="51.997676" lon="4.736443">
        <ele>-2.147712</ele>
        <time>2026-03-03T15:57:36.674Z</time>
      </trkpt>
      <trkpt lat="51.996851" lon="4.738351">
        <ele>-2.174378</ele>
        <time>2026-03-03T15:57:57.829Z</time>
      </trkpt>
      <trkpt lat="51.994043" lon="4.744659">
        <ele>-1.810715</ele>
        <time>2026-03-03T15:59:10.565Z</time>
      </trkpt>
      <trkpt lat="51.993044" lon="4.746889">
        <ele>-1.555655</ele>
        <time>2026-03-03T15:59:36.282Z</time>
      </trkpt>
      <trkpt lat="51.992115" lon="4.748917">
        <ele>-1.189536</ele>
        <time>2026-03-03T16:00:01.444Z</time>
      </trkpt>
      <trkpt lat="51.992004" lon="4.749113">
        <ele>-1.145646</ele>
        <time>2026-03-03T16:00:04.034Z</time>
      </trkpt>
      <trkpt lat="51.991795" lon="4.749330">
        <ele>-1.079248</ele>
        <time>2026-03-03T16:00:07.971Z</time>
      </trkpt>
      <trkpt lat="51.991489" lon="4.749569">
        <ele>-0.988363</ele>
        <time>2026-03-03T16:00:13.348Z</time>
      </trkpt>
      <trkpt lat="51.991052" lon="4.749909">
        <ele>-0.936145</ele>
        <time>2026-03-03T16:00:20.838Z</time>
      </trkpt>
      <trkpt lat="51.991018" lon="4.749940">
        <ele>-0.942398</ele>
        <time>2026-03-03T16:00:21.443Z</time>
      </trkpt>
      <trkpt lat="51.990995" lon="4.749961">
        <ele>-0.946629</ele>
        <time>2026-03-03T16:00:21.833Z</time>
      </trkpt>
      <trkpt lat="51.990905" lon="4.750039">
        <ele>-0.962987</ele>
        <time>2026-03-03T16:00:23.370Z</time>
      </trkpt>
      <trkpt lat="51.990762" lon="4.750235">
        <ele>-0.992993</ele>
        <time>2026-03-03T16:00:26.171Z</time>
      </trkpt>
      <trkpt lat="51.990640" lon="4.750460">
        <ele>-1.022596</ele>
        <time>2026-03-03T16:00:28.938Z</time>
      </trkpt>
      <trkpt lat="51.990309" lon="4.751256">
        <ele>-1.117438</ele>
        <time>2026-03-03T16:00:37.511Z</time>
      </trkpt>
      <trkpt lat="51.990094" lon="4.751541">
        <ele>-1.161942</ele>
        <time>2026-03-03T16:00:41.271Z</time>
      </trkpt>
      <trkpt lat="51.989977" lon="4.751629">
        <ele>-1.182618</ele>
        <time>2026-03-03T16:00:42.959Z</time>
      </trkpt>
      <trkpt lat="51.989824" lon="4.751679">
        <ele>-1.234885</ele>
        <time>2026-03-03T16:00:44.993Z</time>
      </trkpt>
      <trkpt lat="51.989654" lon="4.751677">
        <ele>-1.323468</ele>
        <time>2026-03-03T16:00:47.189Z</time>
      </trkpt>
      <trkpt lat="51.989534" lon="4.751638">
        <ele>-1.387236</ele>
        <time>2026-03-03T16:00:48.760Z</time>
      </trkpt>
      <trkpt lat="51.989393" lon="4.751503">
        <ele>-1.472526</ele>
        <time>2026-03-03T16:00:50.856Z</time>
      </trkpt>
      <trkpt lat="51.989147" lon="4.750953">
        <ele>-1.690647</ele>
        <time>2026-03-03T16:00:56.185Z</time>
      </trkpt>
      <trkpt lat="51.989005" lon="4.750744">
        <ele>-1.790508</ele>
        <time>2026-03-03T16:00:58.655Z</time>
      </trkpt>
      <trkpt lat="51.988556" lon="4.750320">
        <ele>-2.061150</ele>
        <time>2026-03-03T16:01:05.520Z</time>
      </trkpt>
      <trkpt lat="51.988389" lon="4.750274">
        <ele>-2.136246</ele>
        <time>2026-03-03T16:01:07.874Z</time>
      </trkpt>
      <trkpt lat="51.987585" lon="4.750660">
        <ele>-2.228016</ele>
        <time>2026-03-03T16:01:19.801Z</time>
      </trkpt>
      <trkpt lat="51.987508" lon="4.750725">
        <ele>-2.237515</ele>
        <time>2026-03-03T16:01:21.073Z</time>
      </trkpt>
      <trkpt lat="51.986702" lon="4.751654">
        <ele>-2.325013</ele>
        <time>2026-03-03T16:01:35.760Z</time>
      </trkpt>
      <trkpt lat="51.985253" lon="4.753222">
        <ele>-2.262049</ele>
        <time>2026-03-03T16:02:01.843Z</time>
      </trkpt>
      <trkpt lat="51.982969" lon="4.755628">
        <ele>-2.006388</ele>
        <time>2026-03-03T16:02:43.609Z</time>
      </trkpt>
      <trkpt lat="51.982158" lon="4.756692">
        <ele>-1.987384</ele>
        <time>2026-03-03T16:02:58.782Z</time>
      </trkpt>
      <trkpt lat="51.981127" lon="4.758199">
        <ele>-2.062425</ele>
        <time>2026-03-03T16:03:18.812Z</time>
      </trkpt>
      <trkpt lat="51.980880" lon="4.758581">
        <ele>-2.045849</ele>
        <time>2026-03-03T16:03:23.948Z</time>
      </trkpt>
      <trkpt lat="51.980840" lon="4.758644">
        <ele>-2.038440</ele>
        <time>2026-03-03T16:03:25.080Z</time>
      </trkpt>
      <trkpt lat="51.976925" lon="4.764414">
        <ele>-1.286048</ele>
        <time>2026-03-03T16:05:15.400Z</time>
      </trkpt>
      <trkpt lat="51.976193" lon="4.765475">
        <ele>-1.098103</ele>
        <time>2026-03-03T16:05:30.719Z</time>
      </trkpt>
      <trkpt lat="51.976112" lon="4.765599">
        <ele>-1.076780</ele>
        <time>2026-03-03T16:05:33.053Z</time>
      </trkpt>
      <trkpt lat="51.975474" lon="4.766577">
        <ele>-0.905109</ele>
        <time>2026-03-03T16:05:51.584Z</time>
      </trkpt>
      <trkpt lat="51.974765" lon="4.767607">
        <ele>-0.711661</ele>
        <time>2026-03-03T16:06:11.494Z</time>
      </trkpt>
      <trkpt lat="51.974629" lon="4.767803">
        <ele>-0.674685</ele>
        <time>2026-03-03T16:06:15.286Z</time>
      </trkpt>
      <trkpt lat="51.973693" lon="4.769143">
        <ele>-0.306551</ele>
        <time>2026-03-03T16:06:41.494Z</time>
      </trkpt>
      <trkpt lat="51.973179" lon="4.769868">
        <ele>-0.080465</ele>
        <time>2026-03-03T16:06:56.349Z</time>
      </trkpt>
      <trkpt lat="51.973144" lon="4.769921">
        <ele>-0.064573</ele>
        <time>2026-03-03T16:06:57.430Z</time>
      </trkpt>
      <trkpt lat="51.972836" lon="4.770403">
        <ele>0.017237</ele>
        <time>2026-03-03T16:07:07.040Z</time>
      </trkpt>
      <trkpt lat="51.972682" lon="4.770644">
        <ele>0.036045</ele>
        <time>2026-03-03T16:07:11.813Z</time>
      </trkpt>
      <trkpt lat="51.972530" lon="4.770895">
        <ele>0.055109</ele>
        <time>2026-03-03T16:07:16.555Z</time>
      </trkpt>
      <trkpt lat="51.972329" lon="4.771127">
        <ele>0.076794</ele>
        <time>2026-03-03T16:07:21.823Z</time>
      </trkpt>
      <trkpt lat="51.972266" lon="4.771170">
        <ele>0.082803</ele>
        <time>2026-03-03T16:07:23.261Z</time>
      </trkpt>
      <trkpt lat="51.972244" lon="4.771288">
        <ele>0.089481</ele>
        <time>2026-03-03T16:07:24.855Z</time>
      </trkpt>
      <trkpt lat="51.972232" lon="4.771367">
        <ele>0.093888</ele>
        <time>2026-03-03T16:07:25.893Z</time>
      </trkpt>
      <trkpt lat="51.972329" lon="4.771974">
        <ele>0.127855</ele>
        <time>2026-03-03T16:07:33.530Z</time>
      </trkpt>
      <trkpt lat="51.971711" lon="4.772319">
        <ele>-0.008792</ele>
        <time>2026-03-03T16:07:45.532Z</time>
      </trkpt>
      <trkpt lat="51.971460" lon="4.772531">
        <ele>-0.136580</ele>
        <time>2026-03-03T16:07:50.663Z</time>
      </trkpt>
      <trkpt lat="51.971263" lon="4.772623">
        <ele>-0.229162</ele>
        <time>2026-03-03T16:07:53.310Z</time>
      </trkpt>
      <trkpt lat="51.971169" lon="4.772675">
        <ele>-0.274013</ele>
        <time>2026-03-03T16:07:54.605Z</time>
      </trkpt>
      <trkpt lat="51.970965" lon="4.772784">
        <ele>-0.371010</ele>
        <time>2026-03-03T16:07:57.403Z</time>
      </trkpt>
      <trkpt lat="51.970499" lon="4.773075">
        <ele>-0.596510</ele>
        <time>2026-03-03T16:08:04.110Z</time>
      </trkpt>
      <trkpt lat="51.969377" lon="4.773779">
        <ele>-0.788495</ele>
        <time>2026-03-03T16:08:21.466Z</time>
      </trkpt>
      <trkpt lat="51.968957" lon="4.773997">
        <ele>-0.842241</ele>
        <time>2026-03-03T16:08:27.822Z</time>
      </trkpt>
      <trkpt lat="51.968790" lon="4.774098">
        <ele>-0.863963</ele>
        <time>2026-03-03T16:08:30.411Z</time>
      </trkpt>
      <trkpt lat="51.966986" lon="4.775179">
        <ele>-0.910349</ele>
        <time>2026-03-03T16:08:59.021Z</time>
      </trkpt>
      <trkpt lat="51.964919" lon="4.776430">
        <ele>-0.983156</ele>
        <time>2026-03-03T16:09:31.364Z</time>
      </trkpt>
      <trkpt lat="51.962857" lon="4.777677">
        <ele>-0.939333</ele>
        <time>2026-03-03T16:10:03.768Z</time>
      </trkpt>
      <trkpt lat="51.961638" lon="4.778369">
        <ele>-0.882647</ele>
        <time>2026-03-03T16:10:23.599Z</time>
      </trkpt>
      <trkpt lat="51.961486" lon="4.778433">
        <ele>-0.890429</ele>
        <time>2026-03-03T16:10:25.972Z</time>
      </trkpt>
      <trkpt lat="51.961778" lon="4.780477">
        <ele>-0.954504</ele>
        <time>2026-03-03T16:10:44.670Z</time>
      </trkpt>
      <trkpt lat="51.961793" lon="4.780570">
        <ele>-0.959498</ele>
        <time>2026-03-03T16:10:45.499Z</time>
      </trkpt>
      <trkpt lat="51.961829" lon="4.780784">
        <ele>-0.978622</ele>
        <time>2026-03-03T16:10:47.411Z</time>
      </trkpt>
      <trkpt lat="51.962180" lon="4.782962">
        <ele>-1.172708</ele>
        <time>2026-03-03T16:11:07.370Z</time>
      </trkpt>
      <trkpt lat="51.962326" lon="4.783817">
        <ele>-1.259930</ele>
        <time>2026-03-03T16:11:15.189Z</time>
      </trkpt>
      <trkpt lat="51.962491" lon="4.785122">
        <ele>-1.404676</ele>
        <time>2026-03-03T16:11:26.894Z</time>
      </trkpt>
      <trkpt lat="51.962601" lon="4.786186">
        <ele>-1.521898</ele>
        <time>2026-03-03T16:11:36.085Z</time>
      </trkpt>
      <trkpt lat="51.962609" lon="4.786253">
        <ele>-1.523583</ele>
        <time>2026-03-03T16:11:36.666Z</time>
      </trkpt>
      <trkpt lat="51.962677" lon="4.786800">
        <ele>-1.501264</ele>
        <time>2026-03-03T16:11:41.706Z</time>
      </trkpt>
      <trkpt lat="51.962966" lon="4.789137">
        <ele>-1.409863</ele>
        <time>2026-03-03T16:12:04.391Z</time>
      </trkpt>
      <trkpt lat="51.963138" lon="4.790450">
        <ele>-1.442621</ele>
        <time>2026-03-03T16:12:16.827Z</time>
      </trkpt>
      <trkpt lat="51.963330" lon="4.791435">
        <ele>-1.467833</ele>
        <time>2026-03-03T16:12:26.003Z</time>
      </trkpt>
      <trkpt lat="51.963516" lon="4.792491">
        <ele>-1.507795</ele>
        <time>2026-03-03T16:12:35.414Z</time>
      </trkpt>
      <trkpt lat="51.963718" lon="4.793628">
        <ele>-1.561960</ele>
        <time>2026-03-03T16:12:45.897Z</time>
      </trkpt>
      <trkpt lat="51.963918" lon="4.794803">
        <ele>-1.602398</ele>
        <time>2026-03-03T16:12:56.929Z</time>
      </trkpt>
      <trkpt lat="51.964153" lon="4.796514">
        <ele>-1.410680</ele>
        <time>2026-03-03T16:13:13.963Z</time>
      </trkpt>
      <trkpt lat="51.964604" lon="4.799390">
        <ele>-1.195500</ele>
        <time>2026-03-03T16:13:42.253Z</time>
      </trkpt>
      <trkpt lat="51.964813" lon="4.800680">
        <ele>-1.186099</ele>
        <time>2026-03-03T16:13:54.344Z</time>
      </trkpt>
      <trkpt lat="51.965313" lon="4.804002">
        <ele>-1.570137</ele>
        <time>2026-03-03T16:14:23.485Z</time>
      </trkpt>
      <trkpt lat="51.965437" lon="4.804823">
        <ele>-1.596786</ele>
        <time>2026-03-03T16:14:31.276Z</time>
      </trkpt>
      <trkpt lat="51.965683" lon="4.806411">
        <ele>-1.638318</ele>
        <time>2026-03-03T16:14:46.804Z</time>
      </trkpt>
      <trkpt lat="51.965686" lon="4.806501">
        <ele>-1.638761</ele>
        <time>2026-03-03T16:14:47.657Z</time>
      </trkpt>
      <trkpt lat="51.965668" lon="4.806623">
        <ele>-1.639378</ele>
        <time>2026-03-03T16:14:49.267Z</time>
      </trkpt>
      <trkpt lat="51.965646" lon="4.806673">
        <ele>-1.639681</ele>
        <time>2026-03-03T16:14:50.059Z</time>
      </trkpt>
      <trkpt lat="51.965523" lon="4.806726">
        <ele>-1.640697</ele>
        <time>2026-03-03T16:14:52.683Z</time>
      </trkpt>
      <trkpt lat="51.963050" lon="4.807244">
        <ele>-1.756075</ele>
        <time>2026-03-03T16:15:42.588Z</time>
      </trkpt>
      <trkpt lat="51.962969" lon="4.807306">
        <ele>-1.763761</ele>
        <time>2026-03-03T16:15:44.345Z</time>
      </trkpt>
      <trkpt lat="51.962905" lon="4.807278">
        <ele>-1.769450</ele>
        <time>2026-03-03T16:15:45.259Z</time>
      </trkpt>
      <trkpt lat="51.962112" lon="4.807449">
        <ele>-1.836416</ele>
        <time>2026-03-03T16:15:56.504Z</time>
      </trkpt>
      <trkpt lat="51.957284" lon="4.808455">
        <ele>-2.189684</ele>
        <time>2026-03-03T16:17:07.549Z</time>
      </trkpt>
      <trkpt lat="51.957258" lon="4.808455">
        <ele>-2.191125</ele>
        <time>2026-03-03T16:17:07.949Z</time>
      </trkpt>
      <trkpt lat="51.956823" lon="4.808475">
        <ele>-2.221357</ele>
        <time>2026-03-03T16:17:14.400Z</time>
      </trkpt>
      <trkpt lat="51.950534" lon="4.809680">
        <ele>-2.584917</ele>
        <time>2026-03-03T16:18:46.267Z</time>
      </trkpt>
      <trkpt lat="51.950469" lon="4.809708">
        <ele>-2.584051</ele>
        <time>2026-03-03T16:18:47.262Z</time>
      </trkpt>
      <trkpt lat="51.950410" lon="4.809738">
        <ele>-2.583256</ele>
        <time>2026-03-03T16:18:48.180Z</time>
      </trkpt>
      <trkpt lat="51.950343" lon="4.809672">
        <ele>-2.582247</ele>
        <time>2026-03-03T16:18:49.369Z</time>
      </trkpt>
      <trkpt lat="51.950263" lon="4.809705">
        <ele>-2.581184</ele>
        <time>2026-03-03T16:18:50.600Z</time>
      </trkpt>
      <trkpt lat="51.950206" lon="4.809720">
        <ele>-2.580441</ele>
        <time>2026-03-03T16:18:51.489Z</time>
      </trkpt>
      <trkpt lat="51.946029" lon="4.810490">
        <ele>-1.311229</ele>
        <time>2026-03-03T16:19:59.701Z</time>
      </trkpt>
      <trkpt lat="51.945956" lon="4.810503">
        <ele>-1.301370</ele>
        <time>2026-03-03T16:20:00.882Z</time>
      </trkpt>
      <trkpt lat="51.944640" lon="4.810767">
        <ele>-1.125073</ele>
        <time>2026-03-03T16:20:20.842Z</time>
      </trkpt>
      <trkpt lat="51.944559" lon="4.810787">
        <ele>-1.128440</ele>
        <time>2026-03-03T16:20:22.028Z</time>
      </trkpt>
      <trkpt lat="51.944502" lon="4.810800">
        <ele>-1.130805</ele>
        <time>2026-03-03T16:20:22.861Z</time>
      </trkpt>
      <trkpt lat="51.938158" lon="4.812015">
        <ele>-1.432026</ele>
        <time>2026-03-03T16:21:56.612Z</time>
      </trkpt>
      <trkpt lat="51.938081" lon="4.812032">
        <ele>-1.437856</ele>
        <time>2026-03-03T16:21:57.751Z</time>
      </trkpt>
      <trkpt lat="51.938030" lon="4.812045">
        <ele>-1.441729</ele>
        <time>2026-03-03T16:21:58.522Z</time>
      </trkpt>
      <trkpt lat="51.937969" lon="4.812005">
        <ele>-1.446665</ele>
        <time>2026-03-03T16:21:59.462Z</time>
      </trkpt>
      <trkpt lat="51.937888" lon="4.811954">
        <ele>-1.453184</ele>
        <time>2026-03-03T16:22:00.744Z</time>
      </trkpt>
      <trkpt lat="51.938127" lon="4.812940">
        <ele>-1.548584</ele>
        <time>2026-03-03T16:22:10.114Z</time>
      </trkpt>
      <trkpt lat="51.939361" lon="4.817880">
        <ele>-2.299810</ele>
        <time>2026-03-03T16:22:55.465Z</time>
      </trkpt>
      <trkpt lat="51.940595" lon="4.821770">
        <ele>-1.936157</ele>
        <time>2026-03-03T16:23:37.386Z</time>
      </trkpt>
      <trkpt lat="51.942832" lon="4.828822">
        <ele>-0.845338</ele>
        <time>2026-03-03T16:24:54.538Z</time>
      </trkpt>
      <trkpt lat="51.943083" lon="4.829742">
        <ele>-0.759742</ele>
        <time>2026-03-03T16:25:04.004Z</time>
      </trkpt>
      <trkpt lat="51.943453" lon="4.831445">
        <ele>-0.478542</ele>
        <time>2026-03-03T16:25:20.496Z</time>
      </trkpt>
      <trkpt lat="51.943322" lon="4.831478">
        <ele>-0.402497</ele>
        <time>2026-03-03T16:25:22.774Z</time>
      </trkpt>
      <trkpt lat="51.943297" lon="4.831485">
        <ele>-0.387944</ele>
        <time>2026-03-03T16:25:23.218Z</time>
      </trkpt>
      <trkpt lat="51.943065" lon="4.831537">
        <ele>-0.253600</ele>
        <time>2026-03-03T16:25:27.350Z</time>
      </trkpt>
      <trkpt lat="51.942150" lon="4.831742">
        <ele>0.276245</ele>
        <time>2026-03-03T16:25:43.799Z</time>
      </trkpt>
      <trkpt lat="51.941741" lon="4.831834">
        <ele>0.479878</ele>
        <time>2026-03-03T16:25:51.628Z</time>
      </trkpt>
      <trkpt lat="51.941693" lon="4.832168">
        <ele>0.569652</ele>
        <time>2026-03-03T16:25:55.417Z</time>
      </trkpt>
      <trkpt lat="51.941783" lon="4.832741">
        <ele>0.724435</ele>
        <time>2026-03-03T16:26:01.467Z</time>
      </trkpt>
      <trkpt lat="51.941905" lon="4.833944">
        <ele>1.043569</ele>
        <time>2026-03-03T16:26:12.911Z</time>
      </trkpt>
      <trkpt lat="51.942098" lon="4.834966">
        <ele>1.178707</ele>
        <time>2026-03-03T16:26:23.564Z</time>
      </trkpt>
      <trkpt lat="51.942281" lon="4.835774">
        <ele>1.217157</ele>
        <time>2026-03-03T16:26:31.818Z</time>
      </trkpt>
      <trkpt lat="51.942349" lon="4.836363">
        <ele>1.243923</ele>
        <time>2026-03-03T16:26:37.422Z</time>
      </trkpt>
      <trkpt lat="51.942368" lon="4.836620">
        <ele>1.255485</ele>
        <time>2026-03-03T16:26:39.835Z</time>
      </trkpt>
      <trkpt lat="51.942381" lon="4.837203">
        <ele>1.266498</ele>
        <time>2026-03-03T16:26:44.995Z</time>
      </trkpt>
      <trkpt lat="51.942331" lon="4.838005">
        <ele>1.064091</ele>
        <time>2026-03-03T16:26:51.667Z</time>
      </trkpt>
      <trkpt lat="51.942295" lon="4.838385">
        <ele>0.967554</ele>
        <time>2026-03-03T16:26:54.762Z</time>
      </trkpt>
      <trkpt lat="51.942234" lon="4.838871">
        <ele>0.843017</ele>
        <time>2026-03-03T16:26:58.720Z</time>
      </trkpt>
      <trkpt lat="51.942186" lon="4.839307">
        <ele>0.731806</ele>
        <time>2026-03-03T16:27:02.316Z</time>
      </trkpt>
      <trkpt lat="51.942166" lon="4.839599">
        <ele>0.658034</ele>
        <time>2026-03-03T16:27:04.733Z</time>
      </trkpt>
      <trkpt lat="51.942126" lon="4.840609">
        <ele>0.487620</ele>
        <time>2026-03-03T16:27:13.228Z</time>
      </trkpt>
      <trkpt lat="51.942015" lon="4.841970">
        <ele>0.345083</ele>
        <time>2026-03-03T16:27:25.384Z</time>
      </trkpt>
      <trkpt lat="51.941982" lon="4.842595">
        <ele>0.279955</ele>
        <time>2026-03-03T16:27:31.070Z</time>
      </trkpt>
      <trkpt lat="51.941996" lon="4.843121">
        <ele>0.256349</ele>
        <time>2026-03-03T16:27:35.875Z</time>
      </trkpt>
      <trkpt lat="51.942049" lon="4.843759">
        <ele>0.302224</ele>
        <time>2026-03-03T16:27:41.808Z</time>
      </trkpt>
      <trkpt lat="51.942114" lon="4.844234">
        <ele>0.336896</ele>
        <time>2026-03-03T16:27:46.290Z</time>
      </trkpt>
      <trkpt lat="51.942241" lon="4.844967">
        <ele>0.391154</ele>
        <time>2026-03-03T16:27:53.521Z</time>
      </trkpt>
      <trkpt lat="51.942305" lon="4.845272">
        <ele>0.414113</ele>
        <time>2026-03-03T16:27:56.647Z</time>
      </trkpt>
      <trkpt lat="51.942486" lon="4.846057">
        <ele>0.518059</ele>
        <time>2026-03-03T16:28:04.701Z</time>
      </trkpt>
      <trkpt lat="51.942702" lon="4.846855">
        <ele>0.703815</ele>
        <time>2026-03-03T16:28:12.985Z</time>
      </trkpt>
      <trkpt lat="51.942746" lon="4.847035">
        <ele>0.745085</ele>
        <time>2026-03-03T16:28:14.883Z</time>
      </trkpt>
      <trkpt lat="51.942805" lon="4.847257">
        <ele>0.796611</ele>
        <time>2026-03-03T16:28:17.274Z</time>
      </trkpt>
      <trkpt lat="51.942925" lon="4.847807">
        <ele>0.920960</ele>
        <time>2026-03-03T16:28:23.118Z</time>
      </trkpt>
      <trkpt lat="51.943002" lon="4.848389">
        <ele>1.047829</ele>
        <time>2026-03-03T16:28:29.059Z</time>
      </trkpt>
      <trkpt lat="51.943077" lon="4.849340">
        <ele>1.677786</ele>
        <time>2026-03-03T16:28:39.749Z</time>
      </trkpt>
      <trkpt lat="51.943106" lon="4.849538">
        <ele>1.824486</ele>
        <time>2026-03-03T16:28:42.257Z</time>
      </trkpt>
      <trkpt lat="51.943137" lon="4.849701">
        <ele>1.947447</ele>
        <time>2026-03-03T16:28:45.003Z</time>
      </trkpt>
      <trkpt lat="51.943177" lon="4.849872">
        <ele>2.079287</ele>
        <time>2026-03-03T16:28:47.977Z</time>
      </trkpt>
      <trkpt lat="51.943258" lon="4.850132">
        <ele>2.289279</ele>
        <time>2026-03-03T16:28:52.636Z</time>
      </trkpt>
      <trkpt lat="51.943294" lon="4.850235">
        <ele>2.374629</ele>
        <time>2026-03-03T16:28:54.548Z</time>
      </trkpt>
      <trkpt lat="51.943405" lon="4.850557">
        <ele>2.640565</ele>
        <time>2026-03-03T16:29:00.504Z</time>
      </trkpt>
      <trkpt lat="51.943737" lon="4.851171">
        <ele>3.168061</ele>
        <time>2026-03-03T16:29:13.870Z</time>
      </trkpt>
      <trkpt lat="51.944017" lon="4.851682">
        <ele>3.086640</ele>
        <time>2026-03-03T16:29:24.354Z</time>
      </trkpt>
      <trkpt lat="51.944034" lon="4.851760">
        <ele>3.076788</ele>
        <time>2026-03-03T16:29:25.526Z</time>
      </trkpt>
      <trkpt lat="51.944039" lon="4.851821">
        <ele>3.069459</ele>
        <time>2026-03-03T16:29:26.398Z</time>
      </trkpt>
      <trkpt lat="51.944031" lon="4.851914">
        <ele>3.058277</ele>
        <time>2026-03-03T16:29:27.691Z</time>
      </trkpt>
      <trkpt lat="51.944026" lon="4.852004">
        <ele>3.047515</ele>
        <time>2026-03-03T16:29:28.894Z</time>
      </trkpt>
      <trkpt lat="51.944056" lon="4.852358">
        <ele>3.004962</ele>
        <time>2026-03-03T16:29:33.273Z</time>
      </trkpt>
      <trkpt lat="51.943704" lon="4.852509">
        <ele>2.934621</ele>
        <time>2026-03-03T16:29:39.594Z</time>
      </trkpt>
      <trkpt lat="51.943635" lon="4.852559">
        <ele>2.920022</ele>
        <time>2026-03-03T16:29:40.878Z</time>
      </trkpt>
      <trkpt lat="51.943563" lon="4.852615">
        <ele>2.904596</ele>
        <time>2026-03-03T16:29:42.208Z</time>
      </trkpt>
      <trkpt lat="51.943419" lon="4.852726">
        <ele>2.873796</ele>
        <time>2026-03-03T16:29:44.873Z</time>
      </trkpt>
      <trkpt lat="51.943233" lon="4.852856">
        <ele>2.834669</ele>
        <time>2026-03-03T16:29:48.242Z</time>
      </trkpt>
      <trkpt lat="51.943156" lon="4.852891">
        <ele>2.805998</ele>
        <time>2026-03-03T16:29:49.541Z</time>
      </trkpt>
      <trkpt lat="51.943067" lon="4.852893">
        <ele>2.766160</ele>
        <time>2026-03-03T16:29:51.003Z</time>
      </trkpt>
      <trkpt lat="51.943027" lon="4.852889">
        <ele>2.748224</ele>
        <time>2026-03-03T16:29:51.645Z</time>
      </trkpt>
      <trkpt lat="51.942828" lon="4.852899">
        <ele>2.659116</ele>
        <time>2026-03-03T16:29:54.918Z</time>
      </trkpt>
      <trkpt lat="51.942836" lon="4.853247">
        <ele>2.563036</ele>
        <time>2026-03-03T16:29:58.607Z</time>
      </trkpt>
      <trkpt lat="51.942851" lon="4.853909">
        <ele>2.380267</ele>
        <time>2026-03-03T16:30:06.033Z</time>
      </trkpt>
      <trkpt lat="51.942856" lon="4.854208">
        <ele>2.297742</ele>
        <time>2026-03-03T16:30:09.514Z</time>
      </trkpt>
      <trkpt lat="51.942871" lon="4.854426">
        <ele>2.237223</ele>
        <time>2026-03-03T16:30:11.463Z</time>
      </trkpt>
      <trkpt lat="51.942966" lon="4.854623">
        <ele>2.168215</ele>
        <time>2026-03-03T16:30:13.910Z</time>
      </trkpt>
      <trkpt lat="51.942997" lon="4.854763">
        <ele>2.127173</ele>
        <time>2026-03-03T16:30:15.511Z</time>
      </trkpt>
      <trkpt lat="51.942918" lon="4.855503">
        <ele>2.117935</ele>
        <time>2026-03-03T16:30:23.906Z</time>
      </trkpt>
      <trkpt lat="51.942840" lon="4.856346">
        <ele>2.329208</ele>
        <time>2026-03-03T16:30:32.821Z</time>
      </trkpt>
      <trkpt lat="51.942858" lon="4.856789">
        <ele>2.439241</ele>
        <time>2026-03-03T16:30:37.184Z</time>
      </trkpt>
      <trkpt lat="51.942909" lon="4.857346">
        <ele>2.578804</ele>
        <time>2026-03-03T16:30:42.712Z</time>
      </trkpt>
      <trkpt lat="51.942924" lon="4.857443">
        <ele>2.603590</ele>
        <time>2026-03-03T16:30:43.639Z</time>
      </trkpt>
      <trkpt lat="51.943022" lon="4.857898">
        <ele>2.723044</ele>
        <time>2026-03-03T16:30:48.495Z</time>
      </trkpt>
      <trkpt lat="51.943272" lon="4.858588">
        <ele>2.783874</ele>
        <time>2026-03-03T16:30:56.683Z</time>
      </trkpt>
      <trkpt lat="51.943363" lon="4.858774">
        <ele>2.796210</ele>
        <time>2026-03-03T16:30:58.997Z</time>
      </trkpt>
      <trkpt lat="51.943462" lon="4.858974">
        <ele>2.809535</ele>
        <time>2026-03-03T16:31:01.478Z</time>
      </trkpt>
      <trkpt lat="51.943784" lon="4.859426">
        <ele>2.845419</ele>
        <time>2026-03-03T16:31:08.362Z</time>
      </trkpt>
      <trkpt lat="51.943930" lon="4.859577">
        <ele>2.860010</ele>
        <time>2026-03-03T16:31:11.045Z</time>
      </trkpt>
      <trkpt lat="51.943963" lon="4.859618">
        <ele>2.863513</ele>
        <time>2026-03-03T16:31:11.668Z</time>
      </trkpt>
      <trkpt lat="51.943905" lon="4.859868">
        <ele>2.877389</ele>
        <time>2026-03-03T16:31:14.095Z</time>
      </trkpt>
      <trkpt lat="51.943913" lon="4.860276">
        <ele>2.898594</ele>
        <time>2026-03-03T16:31:18.838Z</time>
      </trkpt>
      <trkpt lat="51.943888" lon="4.861519">
        <ele>2.283436</ele>
        <time>2026-03-03T16:31:32.166Z</time>
      </trkpt>
      <trkpt lat="51.943916" lon="4.861510">
        <ele>2.260381</ele>
        <time>2026-03-03T16:31:32.518Z</time>
      </trkpt>
      <trkpt lat="51.944424" lon="4.861342">
        <ele>1.841636</ele>
        <time>2026-03-03T16:31:38.960Z</time>
      </trkpt>
      <trkpt lat="51.944544" lon="4.861254">
        <ele>1.735270</ele>
        <time>2026-03-03T16:31:40.611Z</time>
      </trkpt>
      <trkpt lat="51.944675" lon="4.861077">
        <ele>1.597571</ele>
        <time>2026-03-03T16:31:42.750Z</time>
      </trkpt>
      <trkpt lat="51.944980" lon="4.860479">
        <ele>1.264810</ele>
        <time>2026-03-03T16:31:48.712Z</time>
      </trkpt>
      <trkpt lat="51.945098" lon="4.860148">
        <ele>1.117900</ele>
        <time>2026-03-03T16:31:51.738Z</time>
      </trkpt>
      <trkpt lat="51.945163" lon="4.859870">
        <ele>1.003664</ele>
        <time>2026-03-03T16:31:54.154Z</time>
      </trkpt>
      <trkpt lat="51.945190" lon="4.859746">
        <ele>0.953137</ele>
        <time>2026-03-03T16:31:55.247Z</time>
      </trkpt>
      <trkpt lat="51.945414" lon="4.859744">
        <ele>0.813517</ele>
        <time>2026-03-03T16:31:58.260Z</time>
      </trkpt>
      <trkpt lat="51.945809" lon="4.859674">
        <ele>0.565850</ele>
        <time>2026-03-03T16:32:03.443Z</time>
      </trkpt>
      <trkpt lat="51.946430" lon="4.859506">
        <ele>0.235648</ele>
        <time>2026-03-03T16:32:11.500Z</time>
      </trkpt>
      <trkpt lat="51.946985" lon="4.859339">
        <ele>0.028094</ele>
        <time>2026-03-03T16:32:19.224Z</time>
      </trkpt>
      <trkpt lat="51.947052" lon="4.859344">
        <ele>0.003433</ele>
        <time>2026-03-03T16:32:20.149Z</time>
      </trkpt>
      <trkpt lat="51.947187" lon="4.859126">
        <ele>-0.066605</ele>
        <time>2026-03-03T16:32:22.779Z</time>
      </trkpt>
      <trkpt lat="51.947272" lon="4.859119">
        <ele>-0.097900</ele>
        <time>2026-03-03T16:32:23.942Z</time>
      </trkpt>
      <trkpt lat="51.947321" lon="4.859119">
        <ele>-0.115917</ele>
        <time>2026-03-03T16:32:24.614Z</time>
      </trkpt>
      <trkpt lat="51.947416" lon="4.859155">
        <ele>-0.151789</ele>
        <time>2026-03-03T16:32:25.965Z</time>
      </trkpt>
      <trkpt lat="51.947496" lon="4.859244">
        <ele>-0.187457</ele>
        <time>2026-03-03T16:32:27.311Z</time>
      </trkpt>
      <trkpt lat="51.947502" lon="4.859244">
        <ele>-0.189663</ele>
        <time>2026-03-03T16:32:27.391Z</time>
      </trkpt>
      <trkpt lat="51.947825" lon="4.859106">
        <ele>-0.312479</ele>
        <time>2026-03-03T16:32:32.053Z</time>
      </trkpt>
      <trkpt lat="51.948099" lon="4.858989">
        <ele>-0.340387</ele>
        <time>2026-03-03T16:32:36.117Z</time>
      </trkpt>
      <trkpt lat="51.948216" lon="4.858962">
        <ele>-0.342640</ele>
        <time>2026-03-03T16:32:37.795Z</time>
      </trkpt>
      <trkpt lat="51.948645" lon="4.858968">
        <ele>-0.350816</ele>
        <time>2026-03-03T16:32:43.952Z</time>
      </trkpt>
      <trkpt lat="51.948655" lon="4.859104">
        <ele>-0.352425</ele>
        <time>2026-03-03T16:32:45.199Z</time>
      </trkpt>
      <trkpt lat="51.948687" lon="4.859193">
        <ele>-0.353636</ele>
        <time>2026-03-03T16:32:46.116Z</time>
      </trkpt>
      <trkpt lat="51.948730" lon="4.859276">
        <ele>-0.354909</ele>
        <time>2026-03-03T16:32:47.085Z</time>
      </trkpt>
      <trkpt lat="51.948774" lon="4.859349">
        <ele>-0.356109</ele>
        <time>2026-03-03T16:32:48.016Z</time>
      </trkpt>
      <trkpt lat="51.948920" lon="4.859251">
        <ele>-0.359120</ele>
        <time>2026-03-03T16:32:51.207Z</time>
      </trkpt>
      <trkpt lat="51.949138" lon="4.859186">
        <ele>-0.363345</ele>
        <time>2026-03-03T16:32:55.742Z</time>
      </trkpt>
      <trkpt lat="51.949515" lon="4.858992">
        <ele>-0.369963</ele>
        <time>2026-03-03T16:33:04.101Z</time>
      </trkpt>
      <trkpt lat="51.950029" lon="4.858645">
        <ele>-0.355185</ele>
        <time>2026-03-03T16:33:15.991Z</time>
      </trkpt>
      <trkpt lat="51.950174" lon="4.858513">
        <ele>-0.350771</ele>
        <time>2026-03-03T16:33:19.514Z</time>
      </trkpt>
      <trkpt lat="51.950309" lon="4.858835">
        <ele>-0.344400</ele>
        <time>2026-03-03T16:33:23.226Z</time>
      </trkpt>
      <trkpt lat="51.950329" lon="4.858815">
        <ele>-0.343776</ele>
        <time>2026-03-03T16:33:23.692Z</time>
      </trkpt>
      <trkpt lat="51.950409" lon="4.858740">
        <ele>-0.341323</ele>
        <time>2026-03-03T16:33:25.565Z</time>
      </trkpt>
      <trkpt lat="51.950429" lon="4.858693">
        <ele>-0.340389</ele>
        <time>2026-03-03T16:33:26.271Z</time>
      </trkpt>
      <trkpt lat="51.950734" lon="4.859490">
        <ele>-0.325041</ele>
        <time>2026-03-03T16:33:34.378Z</time>
      </trkpt>
      <trkpt lat="51.951140" lon="4.860990">
        <ele>-0.470378</ele>
        <time>2026-03-03T16:33:48.124Z</time>
      </trkpt>
      <trkpt lat="51.951522" lon="4.861835">
        <ele>-0.573615</ele>
        <time>2026-03-03T16:33:57.458Z</time>
      </trkpt>
      <trkpt lat="51.951693" lon="4.862102">
        <ele>-0.609339</ele>
        <time>2026-03-03T16:34:01.099Z</time>
      </trkpt>
      <trkpt lat="51.952243" lon="4.862519">
        <ele>-0.541181</ele>
        <time>2026-03-03T16:34:10.639Z</time>
      </trkpt>
      <trkpt lat="51.952602" lon="4.862943">
        <ele>-0.491328</ele>
        <time>2026-03-03T16:34:17.633Z</time>
      </trkpt>
      <trkpt lat="51.952777" lon="4.863409">
        <ele>-0.453569</ele>
        <time>2026-03-03T16:34:22.849Z</time>
      </trkpt>
      <trkpt lat="51.952860" lon="4.863637">
        <ele>-0.435247</ele>
        <time>2026-03-03T16:34:25.312Z</time>
      </trkpt>
      <trkpt lat="51.953032" lon="4.864121">
        <ele>-0.432538</ele>
        <time>2026-03-03T16:34:30.344Z</time>
      </trkpt>
      <trkpt lat="51.953156" lon="4.864471">
        <ele>-0.490244</ele>
        <time>2026-03-03T16:34:33.891Z</time>
      </trkpt>
      <trkpt lat="51.953208" lon="4.864661">
        <ele>-0.519960</ele>
        <time>2026-03-03T16:34:35.675Z</time>
      </trkpt>
      <trkpt lat="51.953289" lon="4.864998">
        <ele>-0.571664</ele>
        <time>2026-03-03T16:34:38.774Z</time>
      </trkpt>
      <trkpt lat="51.953451" lon="4.865866">
        <ele>-0.701298</ele>
        <time>2026-03-03T16:34:46.513Z</time>
      </trkpt>
      <trkpt lat="51.953559" lon="4.866273">
        <ele>-0.764637</ele>
        <time>2026-03-03T16:34:50.190Z</time>
      </trkpt>
      <trkpt lat="51.953676" lon="4.866458">
        <ele>-0.802526</ele>
        <time>2026-03-03T16:34:52.412Z</time>
      </trkpt>
      <trkpt lat="51.953980" lon="4.866779">
        <ele>-0.818864</ele>
        <time>2026-03-03T16:34:57.457Z</time>
      </trkpt>
      <trkpt lat="51.954233" lon="4.867228">
        <ele>-0.809473</ele>
        <time>2026-03-03T16:35:02.852Z</time>
      </trkpt>
      <trkpt lat="51.954448" lon="4.867941">
        <ele>-0.797220</ele>
        <time>2026-03-03T16:35:10.313Z</time>
      </trkpt>
      <trkpt lat="51.954623" lon="4.868753">
        <ele>-0.783942</ele>
        <time>2026-03-03T16:35:18.729Z</time>
      </trkpt>
      <trkpt lat="51.954701" lon="4.869306">
        <ele>-0.763790</ele>
        <time>2026-03-03T16:35:24.176Z</time>
      </trkpt>
      <trkpt lat="51.954718" lon="4.869917">
        <ele>-0.733800</ele>
        <time>2026-03-03T16:35:29.881Z</time>
      </trkpt>
      <trkpt lat="51.954777" lon="4.870198">
        <ele>-0.719244</ele>
        <time>2026-03-03T16:35:32.653Z</time>
      </trkpt>
      <trkpt lat="51.954952" lon="4.870486">
        <ele>-0.699412</ele>
        <time>2026-03-03T16:35:36.443Z</time>
      </trkpt>
      <trkpt lat="51.955352" lon="4.871068">
        <ele>-0.656666</ele>
        <time>2026-03-03T16:35:44.387Z</time>
      </trkpt>
      <trkpt lat="51.955389" lon="4.871121">
        <ele>-0.652739</ele>
        <time>2026-03-03T16:35:45.112Z</time>
      </trkpt>
      <trkpt lat="51.955663" lon="4.871496">
        <ele>-0.629071</ele>
        <time>2026-03-03T16:35:50.297Z</time>
      </trkpt>
      <trkpt lat="51.955879" lon="4.871832">
        <ele>-0.614084</ele>
        <time>2026-03-03T16:35:54.819Z</time>
      </trkpt>
      <trkpt lat="51.956105" lon="4.872272">
        <ele>-0.596403</ele>
        <time>2026-03-03T16:36:00.289Z</time>
      </trkpt>
      <trkpt lat="51.956228" lon="4.872682">
        <ele>-0.582328</ele>
        <time>2026-03-03T16:36:04.669Z</time>
      </trkpt>
      <trkpt lat="51.956326" lon="4.873222">
        <ele>-0.564952</ele>
        <time>2026-03-03T16:36:09.880Z</time>
      </trkpt>
      <trkpt lat="51.956709" lon="4.874629">
        <ele>-0.493940</ele>
        <time>2026-03-03T16:36:23.838Z</time>
      </trkpt>
      <trkpt lat="51.956937" lon="4.875486">
        <ele>-0.442336</ele>
        <time>2026-03-03T16:36:32.341Z</time>
      </trkpt>
      <trkpt lat="51.957017" lon="4.875713">
        <ele>-0.427880</ele>
        <time>2026-03-03T16:36:34.808Z</time>
      </trkpt>
      <trkpt lat="51.957706" lon="4.877231">
        <ele>-0.232450</ele>
        <time>2026-03-03T16:36:53.418Z</time>
      </trkpt>
      <trkpt lat="51.957725" lon="4.877274">
        <ele>-0.225237</ele>
        <time>2026-03-03T16:36:53.945Z</time>
      </trkpt>
      <trkpt lat="51.957940" lon="4.877717">
        <ele>-0.148365</ele>
        <time>2026-03-03T16:36:59.500Z</time>
      </trkpt>
      <trkpt lat="51.958135" lon="4.878015">
        <ele>-0.089110</ele>
        <time>2026-03-03T16:37:03.707Z</time>
      </trkpt>
      <trkpt lat="51.958272" lon="4.878104">
        <ele>-0.056465</ele>
        <time>2026-03-03T16:37:05.995Z</time>
      </trkpt>
      <trkpt lat="51.958447" lon="4.878134">
        <ele>-0.017537</ele>
        <time>2026-03-03T16:37:08.701Z</time>
      </trkpt>
      <trkpt lat="51.959144" lon="4.878046">
        <ele>-0.017895</ele>
        <time>2026-03-03T16:37:19.176Z</time>
      </trkpt>
      <trkpt lat="51.959626" lon="4.878108">
        <ele>-0.043471</ele>
        <time>2026-03-03T16:37:26.173Z</time>
      </trkpt>
      <trkpt lat="51.959857" lon="4.878242">
        <ele>-0.056448</ele>
        <time>2026-03-03T16:37:29.726Z</time>
      </trkpt>
      <trkpt lat="51.960020" lon="4.878467">
        <ele>-0.067767</ele>
        <time>2026-03-03T16:37:32.817Z</time>
      </trkpt>
      <trkpt lat="51.960240" lon="4.878983">
        <ele>-0.093801</ele>
        <time>2026-03-03T16:37:38.342Z</time>
      </trkpt>
      <trkpt lat="51.960623" lon="4.879738">
        <ele>-0.160594</ele>
        <time>2026-03-03T16:37:46.835Z</time>
      </trkpt>
      <trkpt lat="51.961178" lon="4.881069">
        <ele>-0.270358</ele>
        <time>2026-03-03T16:38:01.090Z</time>
      </trkpt>
      <trkpt lat="51.961490" lon="4.881767">
        <ele>-0.317676</ele>
        <time>2026-03-03T16:38:08.883Z</time>
      </trkpt>
      <trkpt lat="51.961907" lon="4.882568">
        <ele>-0.371567</ele>
        <time>2026-03-03T16:38:18.542Z</time>
      </trkpt>
      <trkpt lat="51.962142" lon="4.883066">
        <ele>-0.403803</ele>
        <time>2026-03-03T16:38:24.179Z</time>
      </trkpt>
      <trkpt lat="51.962240" lon="4.883354">
        <ele>-0.420711</ele>
        <time>2026-03-03T16:38:27.067Z</time>
      </trkpt>
      <trkpt lat="51.962722" lon="4.885038">
        <ele>-0.509780</ele>
        <time>2026-03-03T16:38:43.330Z</time>
      </trkpt>
      <trkpt lat="51.962976" lon="4.885973">
        <ele>-0.558302</ele>
        <time>2026-03-03T16:38:52.435Z</time>
      </trkpt>
      <trkpt lat="51.963045" lon="4.886340">
        <ele>-0.559057</ele>
        <time>2026-03-03T16:38:55.986Z</time>
      </trkpt>
      <trkpt lat="51.963108" lon="4.887389">
        <ele>-0.447530</ele>
        <time>2026-03-03T16:39:06.178Z</time>
      </trkpt>
      <trkpt lat="51.963138" lon="4.887599">
        <ele>-0.424720</ele>
        <time>2026-03-03T16:39:08.267Z</time>
      </trkpt>
      <trkpt lat="51.963197" lon="4.887890">
        <ele>-0.392303</ele>
        <time>2026-03-03T16:39:11.230Z</time>
      </trkpt>
      <trkpt lat="51.963507" lon="4.889035">
        <ele>-0.262730</ele>
        <time>2026-03-03T16:39:23.465Z</time>
      </trkpt>
      <trkpt lat="51.963608" lon="4.889517">
        <ele>-0.274634</ele>
        <time>2026-03-03T16:39:28.232Z</time>
      </trkpt>
      <trkpt lat="51.963656" lon="4.890334">
        <ele>-0.293822</ele>
        <time>2026-03-03T16:39:35.570Z</time>
      </trkpt>
      <trkpt lat="51.963696" lon="4.890640">
        <ele>-0.301136</ele>
        <time>2026-03-03T16:39:38.321Z</time>
      </trkpt>
      <trkpt lat="51.963752" lon="4.890871">
        <ele>-0.306939</ele>
        <time>2026-03-03T16:39:40.490Z</time>
      </trkpt>
      <trkpt lat="51.963963" lon="4.891637">
        <ele>-0.326557</ele>
        <time>2026-03-03T16:39:47.905Z</time>
      </trkpt>
      <trkpt lat="51.964280" lon="4.892876">
        <ele>-0.326082</ele>
        <time>2026-03-03T16:39:59.909Z</time>
      </trkpt>
      <trkpt lat="51.964343" lon="4.893260">
        <ele>-0.324593</ele>
        <time>2026-03-03T16:40:03.554Z</time>
      </trkpt>
      <trkpt lat="51.964419" lon="4.894003">
        <ele>-0.321771</ele>
        <time>2026-03-03T16:40:10.538Z</time>
      </trkpt>
      <trkpt lat="51.964549" lon="4.894574">
        <ele>-0.317763</ele>
        <time>2026-03-03T16:40:16.305Z</time>
      </trkpt>
      <trkpt lat="51.964741" lon="4.895181">
        <ele>-0.230493</ele>
        <time>2026-03-03T16:40:22.764Z</time>
      </trkpt>
      <trkpt lat="51.964820" lon="4.895485">
        <ele>-0.188294</ele>
        <time>2026-03-03T16:40:25.918Z</time>
      </trkpt>
      <trkpt lat="51.964882" lon="4.895892">
        <ele>-0.134670</ele>
        <time>2026-03-03T16:40:29.973Z</time>
      </trkpt>
      <trkpt lat="51.964900" lon="4.896293">
        <ele>-0.083245</ele>
        <time>2026-03-03T16:40:33.881Z</time>
      </trkpt>
      <trkpt lat="51.964859" lon="4.897574">
        <ele>0.060318</ele>
        <time>2026-03-03T16:40:46.478Z</time>
      </trkpt>
      <trkpt lat="51.964901" lon="4.897675">
        <ele>0.064063</ele>
        <time>2026-03-03T16:40:47.654Z</time>
      </trkpt>
      <trkpt lat="51.965113" lon="4.897977">
        <ele>0.078137</ele>
        <time>2026-03-03T16:40:52.028Z</time>
      </trkpt>
      <trkpt lat="51.965593" lon="4.898464">
        <ele>0.106380</ele>
        <time>2026-03-03T16:41:00.642Z</time>
      </trkpt>
      <trkpt lat="51.965945" lon="4.899019">
        <ele>0.130865</ele>
        <time>2026-03-03T16:41:07.711Z</time>
      </trkpt>
      <trkpt lat="51.966151" lon="4.899322">
        <ele>0.142779</ele>
        <time>2026-03-03T16:41:11.719Z</time>
      </trkpt>
      <trkpt lat="51.966600" lon="4.899965">
        <ele>0.122500</ele>
        <time>2026-03-03T16:41:20.496Z</time>
      </trkpt>
      <trkpt lat="51.966980" lon="4.900653">
        <ele>0.103220</ele>
        <time>2026-03-03T16:41:28.876Z</time>
      </trkpt>
      <trkpt lat="51.967366" lon="4.901636">
        <ele>0.064248</ele>
        <time>2026-03-03T16:41:39.475Z</time>
      </trkpt>
      <trkpt lat="51.967439" lon="4.902246">
        <ele>0.000740</ele>
        <time>2026-03-03T16:41:45.109Z</time>
      </trkpt>
      <trkpt lat="51.967493" lon="4.902540">
        <ele>-0.030613</ele>
        <time>2026-03-03T16:41:47.848Z</time>
      </trkpt>
      <trkpt lat="51.967578" lon="4.902805">
        <ele>-0.061146</ele>
        <time>2026-03-03T16:41:50.468Z</time>
      </trkpt>
      <trkpt lat="51.967976" lon="4.903396">
        <ele>-0.150627</ele>
        <time>2026-03-03T16:41:57.981Z</time>
      </trkpt>
      <trkpt lat="51.968247" lon="4.903781">
        <ele>-0.210367</ele>
        <time>2026-03-03T16:42:02.909Z</time>
      </trkpt>
      <trkpt lat="51.968364" lon="4.904016">
        <ele>-0.221979</ele>
        <time>2026-03-03T16:42:05.496Z</time>
      </trkpt>
      <trkpt lat="51.968499" lon="4.904457">
        <ele>-0.234348</ele>
        <time>2026-03-03T16:42:09.776Z</time>
      </trkpt>
      <trkpt lat="51.968542" lon="4.904682">
        <ele>-0.240264</ele>
        <time>2026-03-03T16:42:11.852Z</time>
      </trkpt>
      <trkpt lat="51.968557" lon="4.905017">
        <ele>-0.248701</ele>
        <time>2026-03-03T16:42:14.856Z</time>
      </trkpt>
      <trkpt lat="51.968545" lon="4.905205">
        <ele>-0.253448</ele>
        <time>2026-03-03T16:42:16.564Z</time>
      </trkpt>
      <trkpt lat="51.968309" lon="4.906328">
        <ele>-0.283249</ele>
        <time>2026-03-03T16:42:27.659Z</time>
      </trkpt>
      <trkpt lat="51.968297" lon="4.906771">
        <ele>-0.291275</ele>
        <time>2026-03-03T16:42:31.838Z</time>
      </trkpt>
      <trkpt lat="51.968401" lon="4.907325">
        <ele>-0.297376</ele>
        <time>2026-03-03T16:42:37.327Z</time>
      </trkpt>
      <trkpt lat="51.968496" lon="4.907677">
        <ele>-0.301425</ele>
        <time>2026-03-03T16:42:40.955Z</time>
      </trkpt>
      <trkpt lat="51.968608" lon="4.907875">
        <ele>-0.304257</ele>
        <time>2026-03-03T16:42:43.477Z</time>
      </trkpt>
      <trkpt lat="51.968794" lon="4.908090">
        <ele>-0.308161</ele>
        <time>2026-03-03T16:42:46.918Z</time>
      </trkpt>
      <trkpt lat="51.969497" lon="4.908931">
        <ele>-0.379839</ele>
        <time>2026-03-03T16:42:59.352Z</time>
      </trkpt>
      <trkpt lat="51.969957" lon="4.909326">
        <ele>-0.541228</ele>
        <time>2026-03-03T16:43:06.410Z</time>
      </trkpt>
      <trkpt lat="51.970057" lon="4.909456">
        <ele>-0.580961</ele>
        <time>2026-03-03T16:43:08.141Z</time>
      </trkpt>
      <trkpt lat="51.970168" lon="4.909643">
        <ele>-0.630574</ele>
        <time>2026-03-03T16:43:10.372Z</time>
      </trkpt>
      <trkpt lat="51.970468" lon="4.910296">
        <ele>-0.786206</ele>
        <time>2026-03-03T16:43:17.343Z</time>
      </trkpt>
      <trkpt lat="51.970786" lon="4.910760">
        <ele>-0.895526</ele>
        <time>2026-03-03T16:43:23.080Z</time>
      </trkpt>
      <trkpt lat="51.970889" lon="4.910925">
        <ele>-0.915054</ele>
        <time>2026-03-03T16:43:24.993Z</time>
      </trkpt>
      <trkpt lat="51.971035" lon="4.911080">
        <ele>-0.938597</ele>
        <time>2026-03-03T16:43:28.197Z</time>
      </trkpt>
      <trkpt lat="51.971197" lon="4.911193">
        <ele>-0.962391</ele>
        <time>2026-03-03T16:43:31.471Z</time>
      </trkpt>
      <trkpt lat="51.972150" lon="4.911744">
        <ele>-1.098911</ele>
        <time>2026-03-03T16:43:51.760Z</time>
      </trkpt>
      <trkpt lat="51.972336" lon="4.911940">
        <ele>-1.095861</ele>
        <time>2026-03-03T16:43:56.396Z</time>
      </trkpt>
      <trkpt lat="51.972535" lon="4.912290">
        <ele>-0.982335</ele>
        <time>2026-03-03T16:44:02.746Z</time>
      </trkpt>
      <trkpt lat="51.972644" lon="4.912559">
        <ele>-0.905591</ele>
        <time>2026-03-03T16:44:07.099Z</time>
      </trkpt>
      <trkpt lat="51.972691" lon="4.912806">
        <ele>-0.843973</ele>
        <time>2026-03-03T16:44:10.672Z</time>
      </trkpt>
      <trkpt lat="51.972695" lon="4.912941">
        <ele>-0.811758</ele>
        <time>2026-03-03T16:44:12.598Z</time>
      </trkpt>
      <trkpt lat="51.972692" lon="4.913650">
        <ele>-0.642761</ele>
        <time>2026-03-03T16:44:22.631Z</time>
      </trkpt>
      <trkpt lat="51.972714" lon="4.913817">
        <ele>-0.602056</ele>
        <time>2026-03-03T16:44:24.975Z</time>
      </trkpt>
      <trkpt lat="51.972955" lon="4.914681">
        <ele>-0.421612</ele>
        <time>2026-03-03T16:44:37.678Z</time>
      </trkpt>
      <trkpt lat="51.973160" lon="4.915659">
        <ele>-0.407489</ele>
        <time>2026-03-03T16:44:47.196Z</time>
      </trkpt>
      <trkpt lat="51.973230" lon="4.915888">
        <ele>-0.403994</ele>
        <time>2026-03-03T16:44:49.477Z</time>
      </trkpt>
      <trkpt lat="51.973660" lon="4.916741">
        <ele>-0.388926</ele>
        <time>2026-03-03T16:44:59.214Z</time>
      </trkpt>
      <trkpt lat="51.973984" lon="4.917499">
        <ele>-0.437873</ele>
        <time>2026-03-03T16:45:07.451Z</time>
      </trkpt>
      <trkpt lat="51.974137" lon="4.917923">
        <ele>-0.481841</ele>
        <time>2026-03-03T16:45:11.803Z</time>
      </trkpt>
      <trkpt lat="51.974269" lon="4.918411">
        <ele>-0.529529</ele>
        <time>2026-03-03T16:45:16.475Z</time>
      </trkpt>
      <trkpt lat="51.974279" lon="4.918560">
        <ele>-0.542940</ele>
        <time>2026-03-03T16:45:17.806Z</time>
      </trkpt>
      <trkpt lat="51.974830" lon="4.918220">
        <ele>-0.628559</ele>
        <time>2026-03-03T16:45:26.144Z</time>
      </trkpt>
      <trkpt lat="51.975195" lon="4.917910">
        <ele>-0.687821</ele>
        <time>2026-03-03T16:45:31.927Z</time>
      </trkpt>
      <trkpt lat="51.975426" lon="4.917661">
        <ele>-0.727557</ele>
        <time>2026-03-03T16:45:35.765Z</time>
      </trkpt>
      <trkpt lat="51.977624" lon="4.916210">
        <ele>-1.022567</ele>
        <time>2026-03-03T16:46:10.025Z</time>
      </trkpt>
      <trkpt lat="51.977681" lon="4.916173">
        <ele>-1.028951</ele>
        <time>2026-03-03T16:46:10.932Z</time>
      </trkpt>
      <trkpt lat="51.982055" lon="4.913347">
        <ele>-1.655693</ele>
        <time>2026-03-03T16:47:18.291Z</time>
      </trkpt>
      <trkpt lat="51.984552" lon="4.911755">
        <ele>-1.649363</ele>
        <time>2026-03-03T16:47:57.741Z</time>
      </trkpt>
      <trkpt lat="51.984578" lon="4.911739">
        <ele>-1.647413</ele>
        <time>2026-03-03T16:47:58.214Z</time>
      </trkpt>
      <trkpt lat="51.984788" lon="4.911604">
        <ele>-1.631568</ele>
        <time>2026-03-03T16:48:06.886Z</time>
      </trkpt>
      <trkpt lat="51.984822" lon="4.911579">
        <ele>-1.628950</ele>
        <time>2026-03-03T16:48:07.483Z</time>
      </trkpt>
      <trkpt lat="51.985036" lon="4.911424">
        <ele>-1.600420</ele>
        <time>2026-03-03T16:48:11.288Z</time>
      </trkpt>
      <trkpt lat="51.985140" lon="4.911310">
        <ele>-1.579846</ele>
        <time>2026-03-03T16:48:13.328Z</time>
      </trkpt>
      <trkpt lat="51.985217" lon="4.911051">
        <ele>-1.550805</ele>
        <time>2026-03-03T16:48:16.204Z</time>
      </trkpt>
      <trkpt lat="51.985282" lon="4.910585">
        <ele>-1.502556</ele>
        <time>2026-03-03T16:48:21.016Z</time>
      </trkpt>
      <trkpt lat="51.985366" lon="4.910356">
        <ele>-1.475641</ele>
        <time>2026-03-03T16:48:23.680Z</time>
      </trkpt>
      <trkpt lat="51.985479" lon="4.910200">
        <ele>-1.451322</ele>
        <time>2026-03-03T16:48:26.032Z</time>
      </trkpt>
      <trkpt lat="51.988162" lon="4.908526">
        <ele>-1.405753</ele>
        <time>2026-03-03T16:49:08.230Z</time>
      </trkpt>
      <trkpt lat="51.989522" lon="4.907632">
        <ele>-1.468848</ele>
        <time>2026-03-03T16:49:29.538Z</time>
      </trkpt>
      <trkpt lat="51.993685" lon="4.905038">
        <ele>-1.152793</ele>
        <time>2026-03-03T16:50:36.868Z</time>
      </trkpt>
      <trkpt lat="51.993741" lon="4.904825">
        <ele>-1.135226</ele>
        <time>2026-03-03T16:50:39.051Z</time>
      </trkpt>
      <trkpt lat="51.993887" lon="4.904716">
        <ele>-1.115432</ele>
        <time>2026-03-03T16:50:42.385Z</time>
      </trkpt>
      <trkpt lat="51.994168" lon="4.904352">
        <ele>-1.071154</ele>
        <time>2026-03-03T16:50:49.897Z</time>
      </trkpt>
      <trkpt lat="51.994578" lon="4.903989">
        <ele>-1.024812</ele>
        <time>2026-03-03T16:50:59.841Z</time>
      </trkpt>
      <trkpt lat="51.994869" lon="4.903615">
        <ele>-1.002614</ele>
        <time>2026-03-03T16:51:07.661Z</time>
      </trkpt>
      <trkpt lat="51.995430" lon="4.903143">
        <ele>-0.964821</ele>
        <time>2026-03-03T16:51:20.952Z</time>
      </trkpt>
      <trkpt lat="51.995520" lon="4.903074">
        <ele>-0.958868</ele>
        <time>2026-03-03T16:51:22.404Z</time>
      </trkpt>
      <trkpt lat="51.996396" lon="4.902514">
        <ele>-0.992027</ele>
        <time>2026-03-03T16:51:35.599Z</time>
      </trkpt>
      <trkpt lat="51.996466" lon="4.902384">
        <ele>-1.008230</ele>
        <time>2026-03-03T16:51:37.578Z</time>
      </trkpt>
      <trkpt lat="51.996594" lon="4.902293">
        <ele>-1.029520</ele>
        <time>2026-03-03T16:51:40.215Z</time>
      </trkpt>
      <trkpt lat="52.005180" lon="4.897006">
        <ele>-2.350824</ele>
        <time>2026-03-03T16:54:40.901Z</time>
      </trkpt>
      <trkpt lat="52.005439" lon="4.896711">
        <ele>-2.377479</ele>
        <time>2026-03-03T16:54:47.241Z</time>
      </trkpt>
      <trkpt lat="52.005508" lon="4.896558">
        <ele>-2.387317</ele>
        <time>2026-03-03T16:54:49.578Z</time>
      </trkpt>
      <trkpt lat="52.005556" lon="4.896385">
        <ele>-2.397160</ele>
        <time>2026-03-03T16:54:51.917Z</time>
      </trkpt>
      <trkpt lat="52.005596" lon="4.896087">
        <ele>-2.412981</ele>
        <time>2026-03-03T16:54:55.669Z</time>
      </trkpt>
      <trkpt lat="52.005553" lon="4.895714">
        <ele>-2.428301</ele>
        <time>2026-03-03T16:55:00.345Z</time>
      </trkpt>
      <trkpt lat="52.005433" lon="4.895351">
        <ele>-2.411979</ele>
        <time>2026-03-03T16:55:05.433Z</time>
      </trkpt>
      <trkpt lat="52.004918" lon="4.894056">
        <ele>-2.350907</ele>
        <time>2026-03-03T16:55:24.824Z</time>
      </trkpt>
      <trkpt lat="52.004422" lon="4.892792">
        <ele>-2.261946</ele>
        <time>2026-03-03T16:55:44.064Z</time>
      </trkpt>
      <trkpt lat="52.004363" lon="4.892585">
        <ele>-2.241247</ele>
        <time>2026-03-03T16:55:47.088Z</time>
      </trkpt>
      <trkpt lat="52.004334" lon="4.892305">
        <ele>-2.215483</ele>
        <time>2026-03-03T16:55:50.814Z</time>
      </trkpt>
      <trkpt lat="52.004369" lon="4.891958">
        <ele>-2.183576</ele>
        <time>2026-03-03T16:55:55.375Z</time>
      </trkpt>
      <trkpt lat="52.004485" lon="4.891639">
        <ele>-2.149958</ele>
        <time>2026-03-03T16:56:00.071Z</time>
      </trkpt>
      <trkpt lat="52.004699" lon="4.891361">
        <ele>-2.109568</ele>
        <time>2026-03-03T16:56:05.675Z</time>
      </trkpt>
      <trkpt lat="52.004838" lon="4.891198">
        <ele>-2.084299</ele>
        <time>2026-03-03T16:56:08.245Z</time>
      </trkpt>
      <trkpt lat="52.005278" lon="4.890453">
        <ele>-2.019576</ele>
        <time>2026-03-03T16:56:18.035Z</time>
      </trkpt>
      <trkpt lat="52.006403" lon="4.889225">
        <ele>-1.918329</ele>
        <time>2026-03-03T16:56:38.311Z</time>
      </trkpt>
      <trkpt lat="52.007537" lon="4.887986">
        <ele>-1.912044</ele>
        <time>2026-03-03T16:56:58.754Z</time>
      </trkpt>
      <trkpt lat="52.011514" lon="4.883642">
        <ele>-1.907366</ele>
        <time>2026-03-03T16:58:09.551Z</time>
      </trkpt>
      <trkpt lat="52.015707" lon="4.879035">
        <ele>-1.250566</ele>
        <time>2026-03-03T16:59:27.253Z</time>
      </trkpt>
      <trkpt lat="52.015870" lon="4.878993">
        <ele>-1.215402</ele>
        <time>2026-03-03T16:59:29.875Z</time>
      </trkpt>
      <trkpt lat="52.015983" lon="4.878985">
        <ele>-1.191303</ele>
        <time>2026-03-03T16:59:31.686Z</time>
      </trkpt>
      <trkpt lat="52.016360" lon="4.878570">
        <ele>-1.094279</ele>
        <time>2026-03-03T16:59:39.084Z</time>
      </trkpt>
      <trkpt lat="52.016624" lon="4.878202">
        <ele>-1.020168</ele>
        <time>2026-03-03T16:59:44.462Z</time>
      </trkpt>
      <trkpt lat="52.016938" lon="4.877733">
        <ele>-0.951175</ele>
        <time>2026-03-03T16:59:51.049Z</time>
      </trkpt>
      <trkpt lat="52.016947" lon="4.877631">
        <ele>-0.952574</ele>
        <time>2026-03-03T16:59:52.392Z</time>
      </trkpt>
      <trkpt lat="52.016976" lon="4.877604">
        <ele>-0.953311</ele>
        <time>2026-03-03T16:59:53.079Z</time>
      </trkpt>
      <trkpt lat="52.017026" lon="4.877564">
        <ele>-0.954541</ele>
        <time>2026-03-03T16:59:54.210Z</time>
      </trkpt>
      <trkpt lat="52.017064" lon="4.877530">
        <ele>-0.955498</ele>
        <time>2026-03-03T16:59:55.146Z</time>
      </trkpt>
      <trkpt lat="52.016996" lon="4.877353">
        <ele>-0.958332</ele>
        <time>2026-03-03T16:59:57.749Z</time>
      </trkpt>
      <trkpt lat="52.016947" lon="4.876983">
        <ele>-0.963471</ele>
        <time>2026-03-03T17:00:02.491Z</time>
      </trkpt>
      <trkpt lat="52.016951" lon="4.876708">
        <ele>-0.967206</ele>
        <time>2026-03-03T17:00:05.907Z</time>
      </trkpt>
      <trkpt lat="52.017017" lon="4.876014">
        <ele>-0.976741</ele>
        <time>2026-03-03T17:00:14.522Z</time>
      </trkpt>
      <trkpt lat="52.017036" lon="4.875359">
        <ele>-0.985645</ele>
        <time>2026-03-03T17:00:22.364Z</time>
      </trkpt>
      <trkpt lat="52.017037" lon="4.875320">
        <ele>-0.986175</ele>
        <time>2026-03-03T17:00:22.846Z</time>
      </trkpt>
      <trkpt lat="52.017073" lon="4.874542">
        <ele>-0.988315</ele>
        <time>2026-03-03T17:00:32.432Z</time>
      </trkpt>
      <trkpt lat="52.017095" lon="4.874383">
        <ele>-0.988179</ele>
        <time>2026-03-03T17:00:34.428Z</time>
      </trkpt>
      <trkpt lat="52.017172" lon="4.874136">
        <ele>-0.987947</ele>
        <time>2026-03-03T17:00:37.815Z</time>
      </trkpt>
      <trkpt lat="52.017493" lon="4.873249">
        <ele>-0.987085</ele>
        <time>2026-03-03T17:00:50.559Z</time>
      </trkpt>
      <trkpt lat="52.017854" lon="4.872666">
        <ele>-0.986392</ele>
        <time>2026-03-03T17:01:01.018Z</time>
      </trkpt>
      <trkpt lat="52.018078" lon="4.872448">
        <ele>-0.902587</ele>
        <time>2026-03-03T17:01:06.492Z</time>
      </trkpt>
      <trkpt lat="52.018255" lon="4.872173">
        <ele>-0.815766</ele>
        <time>2026-03-03T17:01:11.637Z</time>
      </trkpt>
      <trkpt lat="52.018921" lon="4.871431">
        <ele>-0.529477</ele>
        <time>2026-03-03T17:01:29.255Z</time>
      </trkpt>
      <trkpt lat="52.019051" lon="4.871155">
        <ele>-0.453645</ele>
        <time>2026-03-03T17:01:34.047Z</time>
      </trkpt>
      <trkpt lat="52.019154" lon="4.871011">
        <ele>-0.405473</ele>
        <time>2026-03-03T17:01:37.088Z</time>
      </trkpt>
      <trkpt lat="52.019728" lon="4.870276">
        <ele>-0.132374</ele>
        <time>2026-03-03T17:01:53.224Z</time>
      </trkpt>
      <trkpt lat="52.020089" lon="4.869582">
        <ele>0.079612</ele>
        <time>2026-03-03T17:02:05.700Z</time>
      </trkpt>
      <trkpt lat="52.020281" lon="4.869140">
        <ele>0.205822</ele>
        <time>2026-03-03T17:02:12.970Z</time>
      </trkpt>
      <trkpt lat="52.020425" lon="4.868917">
        <ele>0.281227</ele>
        <time>2026-03-03T17:02:17.118Z</time>
      </trkpt>
      <trkpt lat="52.020639" lon="4.868742">
        <ele>0.338122</ele>
        <time>2026-03-03T17:02:21.991Z</time>
      </trkpt>
      <trkpt lat="52.020927" lon="4.868674">
        <ele>0.352220</ele>
        <time>2026-03-03T17:02:27.822Z</time>
      </trkpt>
      <trkpt lat="52.021043" lon="4.868660">
        <ele>0.357854</ele>
        <time>2026-03-03T17:02:30.143Z</time>
      </trkpt>
      <trkpt lat="52.021102" lon="4.868615">
        <ele>0.361011</ele>
        <time>2026-03-03T17:02:31.418Z</time>
      </trkpt>
      <trkpt lat="52.021126" lon="4.868541">
        <ele>0.363505</ele>
        <time>2026-03-03T17:02:32.449Z</time>
      </trkpt>
      <trkpt lat="52.021272" lon="4.867966">
        <ele>0.382046</ele>
        <time>2026-03-03T17:02:40.242Z</time>
      </trkpt>
      <trkpt lat="52.021347" lon="4.867766">
        <ele>0.389028</ele>
        <time>2026-03-03T17:02:43.231Z</time>
      </trkpt>
      <trkpt lat="52.021397" lon="4.867710">
        <ele>0.391969</ele>
        <time>2026-03-03T17:02:44.468Z</time>
      </trkpt>
      <trkpt lat="52.021508" lon="4.867350">
        <ele>0.403972</ele>
        <time>2026-03-03T17:02:49.582Z</time>
      </trkpt>
      <trkpt lat="52.021677" lon="4.866924">
        <ele>0.419080</ele>
        <time>2026-03-03T17:02:55.838Z</time>
      </trkpt>
      <trkpt lat="52.021693" lon="4.866638">
        <ele>0.440171</ele>
        <time>2026-03-03T17:02:59.405Z</time>
      </trkpt>
      <trkpt lat="52.021767" lon="4.866548">
        <ele>0.452270</ele>
        <time>2026-03-03T17:03:01.301Z</time>
      </trkpt>
      <trkpt lat="52.022349" lon="4.866405">
        <ele>0.529315</ele>
        <time>2026-03-03T17:03:13.482Z</time>
      </trkpt>
      <trkpt lat="52.022880" lon="4.866394">
        <ele>0.598825</ele>
        <time>2026-03-03T17:03:24.772Z</time>
      </trkpt>
      <trkpt lat="52.023399" lon="4.866366">
        <ele>0.654855</ele>
        <time>2026-03-03T17:03:35.567Z</time>
      </trkpt>
      <trkpt lat="52.023488" lon="4.866361">
        <ele>0.653957</ele>
        <time>2026-03-03T17:03:37.365Z</time>
      </trkpt>
      <trkpt lat="52.023698" lon="4.866347">
        <ele>0.651839</ele>
        <time>2026-03-03T17:03:40.542Z</time>
      </trkpt>
      <trkpt lat="52.023826" lon="4.866341">
        <ele>0.650548</ele>
        <time>2026-03-03T17:03:42.511Z</time>
      </trkpt>
      <trkpt lat="52.024396" lon="4.866423">
        <ele>0.644780</ele>
        <time>2026-03-03T17:03:54.578Z</time>
      </trkpt>
      <trkpt lat="52.024420" lon="4.866426">
        <ele>0.644537</ele>
        <time>2026-03-03T17:03:55.071Z</time>
      </trkpt>
      <trkpt lat="52.024664" lon="4.866492">
        <ele>0.642044</ele>
        <time>2026-03-03T17:04:00.039Z</time>
      </trkpt>
      <trkpt lat="52.025302" lon="4.866820">
        <ele>0.548445</ele>
        <time>2026-03-03T17:04:12.794Z</time>
      </trkpt>
      <trkpt lat="52.025730" lon="4.867034">
        <ele>0.371961</ele>
        <time>2026-03-03T17:04:21.080Z</time>
      </trkpt>
      <trkpt lat="52.025764" lon="4.867051">
        <ele>0.357941</ele>
        <time>2026-03-03T17:04:21.738Z</time>
      </trkpt>
      <trkpt lat="52.025856" lon="4.867250">
        <ele>0.297579</ele>
        <time>2026-03-03T17:04:24.563Z</time>
      </trkpt>
      <trkpt lat="52.025911" lon="4.867249">
        <ele>0.275902</ele>
        <time>2026-03-03T17:04:25.575Z</time>
      </trkpt>
      <trkpt lat="52.025975" lon="4.867240">
        <ele>0.250584</ele>
        <time>2026-03-03T17:04:26.768Z</time>
      </trkpt>
      <trkpt lat="52.026027" lon="4.867231">
        <ele>0.229974</ele>
        <time>2026-03-03T17:04:27.715Z</time>
      </trkpt>
      <trkpt lat="52.026111" lon="4.867261">
        <ele>0.196078</ele>
        <time>2026-03-03T17:04:29.298Z</time>
      </trkpt>
      <trkpt lat="52.026187" lon="4.867233">
        <ele>0.165365</ele>
        <time>2026-03-03T17:04:30.728Z</time>
      </trkpt>
      <trkpt lat="52.026413" lon="4.867064">
        <ele>0.067319</ele>
        <time>2026-03-03T17:04:35.275Z</time>
      </trkpt>
      <trkpt lat="52.027465" lon="4.866334">
        <ele>-0.100349</ele>
        <time>2026-03-03T17:04:57.591Z</time>
      </trkpt>
      <trkpt lat="52.027494" lon="4.866315">
        <ele>-0.101496</ele>
        <time>2026-03-03T17:04:58.229Z</time>
      </trkpt>
      <trkpt lat="52.027627" lon="4.866278">
        <ele>-0.106445</ele>
        <time>2026-03-03T17:05:01.047Z</time>
      </trkpt>
      <trkpt lat="52.027703" lon="4.866255">
        <ele>-0.109280</ele>
        <time>2026-03-03T17:05:02.653Z</time>
      </trkpt>
      <trkpt lat="52.027724" lon="4.866197">
        <ele>-0.110799</ele>
        <time>2026-03-03T17:05:03.525Z</time>
      </trkpt>
      <trkpt lat="52.027785" lon="4.866103">
        <ele>-0.113882</ele>
        <time>2026-03-03T17:05:05.278Z</time>
      </trkpt>
      <trkpt lat="52.027828" lon="4.866075">
        <ele>-0.115581</ele>
        <time>2026-03-03T17:05:06.221Z</time>
      </trkpt>
      <trkpt lat="52.028006" lon="4.865938">
        <ele>-0.122804</ele>
        <time>2026-03-03T17:05:10.335Z</time>
      </trkpt>
      <trkpt lat="52.028279" lon="4.865719">
        <ele>-0.133970</ele>
        <time>2026-03-03T17:05:16.678Z</time>
      </trkpt>
      <trkpt lat="52.028666" lon="4.865439">
        <ele>-0.225691</ele>
        <time>2026-03-03T17:05:25.494Z</time>
      </trkpt>
      <trkpt lat="52.029184" lon="4.865068">
        <ele>-0.375637</ele>
        <time>2026-03-03T17:05:36.680Z</time>
      </trkpt>
      <trkpt lat="52.029609" lon="4.864720">
        <ele>-0.501696</ele>
        <time>2026-03-03T17:05:45.635Z</time>
      </trkpt>
      <trkpt lat="52.029713" lon="4.864771">
        <ele>-0.530471</ele>
        <time>2026-03-03T17:05:47.609Z</time>
      </trkpt>
      <trkpt lat="52.029770" lon="4.864737">
        <ele>-0.546555</ele>
        <time>2026-03-03T17:05:48.725Z</time>
      </trkpt>
      <trkpt lat="52.029843" lon="4.864540">
        <ele>-0.584035</ele>
        <time>2026-03-03T17:05:51.308Z</time>
      </trkpt>
      <trkpt lat="52.030214" lon="4.864483">
        <ele>-0.743200</ele>
        <time>2026-03-03T17:05:58.054Z</time>
      </trkpt>
      <trkpt lat="52.030414" lon="4.864474">
        <ele>-0.842607</ele>
        <time>2026-03-03T17:06:01.654Z</time>
      </trkpt>
      <trkpt lat="52.030410" lon="4.864340">
        <ele>-0.883616</ele>
        <time>2026-03-03T17:06:03.127Z</time>
      </trkpt>
      <trkpt lat="52.030409" lon="4.864220">
        <ele>-0.920301</ele>
        <time>2026-03-03T17:06:04.471Z</time>
      </trkpt>
      <trkpt lat="52.030407" lon="4.864100">
        <ele>-0.956996</ele>
        <time>2026-03-03T17:06:05.790Z</time>
      </trkpt>
      <trkpt lat="52.030942" lon="4.863755">
        <ele>-1.242963</ele>
        <time>2026-03-03T17:06:13.284Z</time>
      </trkpt>
      <trkpt lat="52.032990" lon="4.862262">
        <ele>-1.804012</ele>
        <time>2026-03-03T17:06:44.670Z</time>
      </trkpt>
      <trkpt lat="52.034834" lon="4.860923">
        <ele>-1.647649</ele>
        <time>2026-03-03T17:07:15.823Z</time>
      </trkpt>
      <trkpt lat="52.034923" lon="4.860576">
        <ele>-1.653430</ele>
        <time>2026-03-03T17:07:20.651Z</time>
      </trkpt>
      <trkpt lat="52.034950" lon="4.860470">
        <ele>-1.655194</ele>
        <time>2026-03-03T17:07:22.064Z</time>
      </trkpt>
      <trkpt lat="52.034976" lon="4.860416">
        <ele>-1.656249</ele>
        <time>2026-03-03T17:07:22.947Z</time>
      </trkpt>
      <trkpt lat="52.035031" lon="4.860354">
        <ele>-1.657922</ele>
        <time>2026-03-03T17:07:24.320Z</time>
      </trkpt>
      <trkpt lat="52.035232" lon="4.860253">
        <ele>-1.663180</ele>
        <time>2026-03-03T17:07:28.581Z</time>
      </trkpt>
      <trkpt lat="52.035304" lon="4.860216">
        <ele>-1.665068</ele>
        <time>2026-03-03T17:07:30.158Z</time>
      </trkpt>
      <trkpt lat="52.036201" lon="4.859482">
        <ele>-1.691846</ele>
        <time>2026-03-03T17:07:44.728Z</time>
      </trkpt>
      <trkpt lat="52.038990" lon="4.857448">
        <ele>-1.840232</ele>
        <time>2026-03-03T17:08:29.291Z</time>
      </trkpt>
      <trkpt lat="52.044265" lon="4.853558">
        <ele>-1.458714</ele>
        <time>2026-03-03T17:09:56.907Z</time>
      </trkpt>
      <trkpt lat="52.044669" lon="4.853288">
        <ele>-1.578505</ele>
        <time>2026-03-03T17:10:03.467Z</time>
      </trkpt>
      <trkpt lat="52.044919" lon="4.853102">
        <ele>-1.682942</ele>
        <time>2026-03-03T17:10:08.676Z</time>
      </trkpt>
      <trkpt lat="52.044994" lon="4.852915">
        <ele>-1.735100</ele>
        <time>2026-03-03T17:10:11.161Z</time>
      </trkpt>
      <trkpt lat="52.044974" lon="4.852777">
        <ele>-1.768224</ele>
        <time>2026-03-03T17:10:12.752Z</time>
      </trkpt>
      <trkpt lat="52.045007" lon="4.852497">
        <ele>-1.834832</ele>
        <time>2026-03-03T17:10:15.945Z</time>
      </trkpt>
      <trkpt lat="52.044905" lon="4.852055">
        <ele>-1.945128</ele>
        <time>2026-03-03T17:10:21.260Z</time>
      </trkpt>
      <trkpt lat="52.044853" lon="4.851885">
        <ele>-1.989487</ele>
        <time>2026-03-03T17:10:23.386Z</time>
      </trkpt>
      <trkpt lat="52.044832" lon="4.851722">
        <ele>-2.028396</ele>
        <time>2026-03-03T17:10:25.246Z</time>
      </trkpt>
      <trkpt lat="52.044866" lon="4.851417">
        <ele>-2.100815</ele>
        <time>2026-03-03T17:10:28.774Z</time>
      </trkpt>
      <trkpt lat="52.044908" lon="4.851274">
        <ele>-2.136437</ele>
        <time>2026-03-03T17:10:30.649Z</time>
      </trkpt>
      <trkpt lat="52.045031" lon="4.851073">
        <ele>-2.136366</ele>
        <time>2026-03-03T17:10:34.046Z</time>
      </trkpt>
      <trkpt lat="52.045138" lon="4.851009">
        <ele>-2.136319</ele>
        <time>2026-03-03T17:10:35.643Z</time>
      </trkpt>
      <trkpt lat="52.045313" lon="4.850987">
        <ele>-2.136247</ele>
        <time>2026-03-03T17:10:38.039Z</time>
      </trkpt>
      <trkpt lat="52.045704" lon="4.851076">
        <ele>-2.136085</ele>
        <time>2026-03-03T17:10:43.510Z</time>
      </trkpt>
      <trkpt lat="52.046046" lon="4.851143">
        <ele>-2.135944</ele>
        <time>2026-03-03T17:10:48.857Z</time>
      </trkpt>
      <trkpt lat="52.046928" lon="4.851336">
        <ele>-2.090694</ele>
        <time>2026-03-03T17:11:03.633Z</time>
      </trkpt>
      <trkpt lat="52.046974" lon="4.851265">
        <ele>-2.081122</ele>
        <time>2026-03-03T17:11:04.669Z</time>
      </trkpt>
      <trkpt lat="52.047359" lon="4.851315">
        <ele>-2.022829</ele>
        <time>2026-03-03T17:11:12.540Z</time>
      </trkpt>
      <trkpt lat="52.047437" lon="4.851303">
        <ele>-2.011004</ele>
        <time>2026-03-03T17:11:14.110Z</time>
      </trkpt>
      <trkpt lat="52.047574" lon="4.851255">
        <ele>-1.989853</ele>
        <time>2026-03-03T17:11:16.920Z</time>
      </trkpt>
      <trkpt lat="52.048128" lon="4.850843">
        <ele>-1.897908</ele>
        <time>2026-03-03T17:11:29.370Z</time>
      </trkpt>
      <trkpt lat="52.049046" lon="4.850183">
        <ele>-1.794381</ele>
        <time>2026-03-03T17:11:50.262Z</time>
      </trkpt>
      <trkpt lat="52.049325" lon="4.849963">
        <ele>-1.766634</ele>
        <time>2026-03-03T17:11:56.589Z</time>
      </trkpt>
      <trkpt lat="52.050607" lon="4.849007">
        <ele>-1.743386</ele>
        <time>2026-03-03T17:12:25.215Z</time>
      </trkpt>
      <trkpt lat="52.051160" lon="4.848606">
        <ele>-1.777954</ele>
        <time>2026-03-03T17:12:37.325Z</time>
      </trkpt>
      <trkpt lat="52.051624" lon="4.848264">
        <ele>-1.810904</ele>
        <time>2026-03-03T17:12:47.384Z</time>
      </trkpt>
      <trkpt lat="52.052140" lon="4.847877">
        <ele>-1.960686</ele>
        <time>2026-03-03T17:12:58.600Z</time>
      </trkpt>
      <trkpt lat="52.053160" lon="4.847124">
        <ele>-2.255956</ele>
        <time>2026-03-03T17:13:19.867Z</time>
      </trkpt>
      <trkpt lat="52.053464" lon="4.846902">
        <ele>-2.268898</ele>
        <time>2026-03-03T17:13:26.288Z</time>
      </trkpt>
      <trkpt lat="52.053930" lon="4.846574">
        <ele>-2.245424</ele>
        <time>2026-03-03T17:13:36.220Z</time>
      </trkpt>
      <trkpt lat="52.054513" lon="4.846136">
        <ele>-2.215736</ele>
        <time>2026-03-03T17:13:49.638Z</time>
      </trkpt>
      <trkpt lat="52.055034" lon="4.845761">
        <ele>-2.197347</ele>
        <time>2026-03-03T17:14:01.968Z</time>
      </trkpt>
      <trkpt lat="52.055484" lon="4.845435">
        <ele>-2.198624</ele>
        <time>2026-03-03T17:14:11.974Z</time>
      </trkpt>
      <trkpt lat="52.055726" lon="4.845280">
        <ele>-2.199297</ele>
        <time>2026-03-03T17:14:17.285Z</time>
      </trkpt>
      <trkpt lat="52.055777" lon="4.845249">
        <ele>-2.199438</ele>
        <time>2026-03-03T17:14:18.373Z</time>
      </trkpt>
      <trkpt lat="52.056023" lon="4.845092">
        <ele>-2.200123</ele>
        <time>2026-03-03T17:14:23.756Z</time>
      </trkpt>
      <trkpt lat="52.056515" lon="4.844776">
        <ele>-2.201493</ele>
        <time>2026-03-03T17:14:34.179Z</time>
      </trkpt>
      <trkpt lat="52.056642" lon="4.844621">
        <ele>-2.214975</ele>
        <time>2026-03-03T17:14:37.241Z</time>
      </trkpt>
      <trkpt lat="52.056690" lon="4.844498">
        <ele>-2.224697</ele>
        <time>2026-03-03T17:14:38.977Z</time>
      </trkpt>
      <trkpt lat="52.056678" lon="4.844309">
        <ele>-2.237375</ele>
        <time>2026-03-03T17:14:41.210Z</time>
      </trkpt>
      <trkpt lat="52.056298" lon="4.843528">
        <ele>-2.303834</ele>
        <time>2026-03-03T17:14:53.572Z</time>
      </trkpt>
      <trkpt lat="52.056250" lon="4.843411">
        <ele>-2.313219</ele>
        <time>2026-03-03T17:14:55.328Z</time>
      </trkpt>
      <trkpt lat="52.056218" lon="4.843234">
        <ele>-2.325530</ele>
        <time>2026-03-03T17:14:57.657Z</time>
      </trkpt>
      <trkpt lat="52.056256" lon="4.843080">
        <ele>-2.336603</ele>
        <time>2026-03-03T17:14:59.747Z</time>
      </trkpt>
      <trkpt lat="52.056318" lon="4.843007">
        <ele>-2.344910</ele>
        <time>2026-03-03T17:15:01.294Z</time>
      </trkpt>
      <trkpt lat="52.057799" lon="4.841882">
        <ele>-2.516093</ele>
        <time>2026-03-03T17:15:33.198Z</time>
      </trkpt>
      <trkpt lat="52.061991" lon="4.838731">
        <ele>-2.364822</ele>
        <time>2026-03-03T17:16:41.926Z</time>
      </trkpt>
      <trkpt lat="52.062177" lon="4.838508">
        <ele>-2.295618</ele>
        <time>2026-03-03T17:16:46.866Z</time>
      </trkpt>
      <trkpt lat="52.063565" lon="4.837414">
        <ele>-1.862454</ele>
        <time>2026-03-03T17:17:20.671Z</time>
      </trkpt>
      <trkpt lat="52.063811" lon="4.837028">
        <ele>-1.787900</ele>
        <time>2026-03-03T17:17:28.088Z</time>
      </trkpt>
      <trkpt lat="52.063883" lon="4.837017">
        <ele>-1.772127</ele>
        <time>2026-03-03T17:17:29.601Z</time>
      </trkpt>
      <trkpt lat="52.063743" lon="4.836534">
        <ele>-1.700521</ele>
        <time>2026-03-03T17:17:34.787Z</time>
      </trkpt>
      <trkpt lat="52.063496" lon="4.835700">
        <ele>-1.576385</ele>
        <time>2026-03-03T17:17:43.409Z</time>
      </trkpt>
      <trkpt lat="52.062797" lon="4.833639">
        <ele>-1.632123</ele>
        <time>2026-03-03T17:18:04.512Z</time>
      </trkpt>
      <trkpt lat="52.062296" lon="4.832500">
        <ele>-1.699381</ele>
        <time>2026-03-03T17:18:16.762Z</time>
      </trkpt>
      <trkpt lat="52.061596" lon="4.831100">
        <ele>-1.805370</ele>
        <time>2026-03-03T17:18:32.753Z</time>
      </trkpt>
      <trkpt lat="52.060993" lon="4.830053">
        <ele>-1.769569</ele>
        <time>2026-03-03T17:18:46.144Z</time>
      </trkpt>
      <trkpt lat="52.060094" lon="4.828472">
        <ele>-1.620801</ele>
        <time>2026-03-03T17:19:06.610Z</time>
      </trkpt>
      <trkpt lat="52.060022" lon="4.828350">
        <ele>-1.613490</ele>
        <time>2026-03-03T17:19:08.732Z</time>
      </trkpt>
      <trkpt lat="52.059924" lon="4.828176">
        <ele>-1.603289</ele>
        <time>2026-03-03T17:19:11.686Z</time>
      </trkpt>
      <trkpt lat="52.059511" lon="4.827439">
        <ele>-1.560181</ele>
        <time>2026-03-03T17:19:24.314Z</time>
      </trkpt>
      <trkpt lat="52.059337" lon="4.827130">
        <ele>-1.542067</ele>
        <time>2026-03-03T17:19:29.653Z</time>
      </trkpt>
      <trkpt lat="52.058386" lon="4.825490">
        <ele>-1.653261</ele>
        <time>2026-03-03T17:19:57.763Z</time>
      </trkpt>
      <trkpt lat="52.057946" lon="4.824687">
        <ele>-1.778959</ele>
        <time>2026-03-03T17:20:10.364Z</time>
      </trkpt>
      <trkpt lat="52.057869" lon="4.824548">
        <ele>-1.800824</ele>
        <time>2026-03-03T17:20:12.499Z</time>
      </trkpt>
      <trkpt lat="52.057388" lon="4.823685">
        <ele>-1.849626</ele>
        <time>2026-03-03T17:20:25.800Z</time>
      </trkpt>
      <trkpt lat="52.057370" lon="4.823592">
        <ele>-1.850451</ele>
        <time>2026-03-03T17:20:26.968Z</time>
      </trkpt>
      <trkpt lat="52.057326" lon="4.823485">
        <ele>-1.851539</ele>
        <time>2026-03-03T17:20:28.512Z</time>
      </trkpt>
      <trkpt lat="52.057462" lon="4.823381">
        <ele>-1.853606</ele>
        <time>2026-03-03T17:20:31.504Z</time>
      </trkpt>
      <trkpt lat="52.057602" lon="4.823308">
        <ele>-1.855628</ele>
        <time>2026-03-03T17:20:34.529Z</time>
      </trkpt>
      <trkpt lat="52.058950" lon="4.822235">
        <ele>-1.680266</ele>
        <time>2026-03-03T17:21:06.463Z</time>
      </trkpt>
      <trkpt lat="52.059759" lon="4.821588">
        <ele>-1.413876</ele>
        <time>2026-03-03T17:21:25.909Z</time>
      </trkpt>
      <trkpt lat="52.060367" lon="4.821117">
        <ele>-1.277098</ele>
        <time>2026-03-03T17:21:40.226Z</time>
      </trkpt>
      <trkpt lat="52.060438" lon="4.821059">
        <ele>-1.265673</ele>
        <time>2026-03-03T17:21:41.913Z</time>
      </trkpt>
      <trkpt lat="52.061318" lon="4.820353">
        <ele>-1.124586</ele>
        <time>2026-03-03T17:22:02.446Z</time>
      </trkpt>
      <trkpt lat="52.061373" lon="4.820281">
        <ele>-1.114434</ele>
        <time>2026-03-03T17:22:03.899Z</time>
      </trkpt>
      <trkpt lat="52.061469" lon="4.820374">
        <ele>-1.098368</ele>
        <time>2026-03-03T17:22:05.536Z</time>
      </trkpt>
      <trkpt lat="52.061570" lon="4.820410">
        <ele>-1.083501</ele>
        <time>2026-03-03T17:22:07.037Z</time>
      </trkpt>
      <trkpt lat="52.061716" lon="4.820463">
        <ele>-1.084344</ele>
        <time>2026-03-03T17:22:09.191Z</time>
      </trkpt>
      <trkpt lat="52.061783" lon="4.820487">
        <ele>-1.088747</ele>
        <time>2026-03-03T17:22:10.196Z</time>
      </trkpt>
      <trkpt lat="52.061964" lon="4.820564">
        <ele>-1.100751</ele>
        <time>2026-03-03T17:22:12.856Z</time>
      </trkpt>
      <trkpt lat="52.062162" lon="4.820566">
        <ele>-1.113457</ele>
        <time>2026-03-03T17:22:15.670Z</time>
      </trkpt>
      <trkpt lat="52.062447" lon="4.820646">
        <ele>-1.132015</ele>
        <time>2026-03-03T17:22:19.815Z</time>
      </trkpt>
      <trkpt lat="52.062905" lon="4.820806">
        <ele>-1.162073</ele>
        <time>2026-03-03T17:22:26.680Z</time>
      </trkpt>
      <trkpt lat="52.063262" lon="4.821044">
        <ele>-1.186830</ele>
        <time>2026-03-03T17:22:32.399Z</time>
      </trkpt>
      <trkpt lat="52.063637" lon="4.821322">
        <ele>-1.145715</ele>
        <time>2026-03-03T17:22:38.629Z</time>
      </trkpt>
      <trkpt lat="52.063985" lon="4.821597">
        <ele>-1.088379</ele>
        <time>2026-03-03T17:22:44.369Z</time>
      </trkpt>
      <trkpt lat="52.064104" lon="4.821689">
        <ele>-1.068854</ele>
        <time>2026-03-03T17:22:46.354Z</time>
      </trkpt>
      <trkpt lat="52.064160" lon="4.821661">
        <ele>-1.060172</ele>
        <time>2026-03-03T17:22:47.551Z</time>
      </trkpt>
      <trkpt lat="52.064236" lon="4.821691">
        <ele>-1.048582</ele>
        <time>2026-03-03T17:22:49.148Z</time>
      </trkpt>
      <trkpt lat="52.064367" lon="4.821737">
        <ele>-1.028721</ele>
        <time>2026-03-03T17:22:51.905Z</time>
      </trkpt>
      <trkpt lat="52.064454" lon="4.821674">
        <ele>-1.014609</ele>
        <time>2026-03-03T17:22:53.859Z</time>
      </trkpt>
      <trkpt lat="52.064510" lon="4.821622">
        <ele>-1.005053</ele>
        <time>2026-03-03T17:22:55.214Z</time>
      </trkpt>
      <trkpt lat="52.064716" lon="4.821647">
        <ele>-0.974440</ele>
        <time>2026-03-03T17:22:59.644Z</time>
      </trkpt>
      <trkpt lat="52.064957" lon="4.821760">
        <ele>-0.937271</ele>
        <time>2026-03-03T17:23:05.147Z</time>
      </trkpt>
      <trkpt lat="52.065020" lon="4.821757">
        <ele>-0.927931</ele>
        <time>2026-03-03T17:23:06.520Z</time>
      </trkpt>
      <trkpt lat="52.065095" lon="4.821779">
        <ele>-0.927855</ele>
        <time>2026-03-03T17:23:08.185Z</time>
      </trkpt>
      <trkpt lat="52.065219" lon="4.822173">
        <ele>-0.934282</ele>
        <time>2026-03-03T17:23:13.991Z</time>
      </trkpt>
      <trkpt lat="52.065305" lon="4.822234">
        <ele>-0.936499</ele>
        <time>2026-03-03T17:23:15.903Z</time>
      </trkpt>
      <trkpt lat="52.065683" lon="4.822258">
        <ele>-0.945434</ele>
        <time>2026-03-03T17:23:23.702Z</time>
      </trkpt>
      <trkpt lat="52.065883" lon="4.822276">
        <ele>-0.950166</ele>
        <time>2026-03-03T17:23:27.761Z</time>
      </trkpt>
      <trkpt lat="52.066321" lon="4.822319">
        <ele>-0.960531</ele>
        <time>2026-03-03T17:23:36.336Z</time>
      </trkpt>
      <trkpt lat="52.066559" lon="4.822175">
        <ele>-0.966529</ele>
        <time>2026-03-03T17:23:41.283Z</time>
      </trkpt>
      <trkpt lat="52.066627" lon="4.822154">
        <ele>-0.968164</ele>
        <time>2026-03-03T17:23:42.613Z</time>
      </trkpt>
      <trkpt lat="52.066697" lon="4.822125">
        <ele>-0.977277</ele>
        <time>2026-03-03T17:23:43.966Z</time>
      </trkpt>
      <trkpt lat="52.066781" lon="4.822209">
        <ele>-0.995711</ele>
        <time>2026-03-03T17:23:45.816Z</time>
      </trkpt>
      <trkpt lat="52.066860" lon="4.822199">
        <ele>-1.010525</ele>
        <time>2026-03-03T17:23:47.281Z</time>
      </trkpt>
      <trkpt lat="52.066846" lon="4.822148">
        <ele>-1.016944</ele>
        <time>2026-03-03T17:23:47.917Z</time>
      </trkpt>
      <trkpt lat="52.066823" lon="4.822051">
        <ele>-1.028893</ele>
        <time>2026-03-03T17:23:49.079Z</time>
      </trkpt>
      <trkpt lat="52.066725" lon="4.821670">
        <ele>-1.076358</ele>
        <time>2026-03-03T17:23:53.784Z</time>
      </trkpt>
      <trkpt lat="52.066310" lon="4.820035">
        <ele>-1.279651</ele>
        <time>2026-03-03T17:24:15.340Z</time>
      </trkpt>
      <trkpt lat="52.065735" lon="4.817794">
        <ele>-1.564498</ele>
        <time>2026-03-03T17:24:45.297Z</time>
      </trkpt>
      <trkpt lat="52.065698" lon="4.817599">
        <ele>-1.588485</ele>
        <time>2026-03-03T17:24:47.632Z</time>
      </trkpt>
      <trkpt lat="52.065735" lon="4.817432">
        <ele>-1.609349</ele>
        <time>2026-03-03T17:24:49.674Z</time>
      </trkpt>
      <trkpt lat="52.065779" lon="4.817361">
        <ele>-1.621199</ele>
        <time>2026-03-03T17:24:50.805Z</time>
      </trkpt>
      <trkpt lat="52.065861" lon="4.817347">
        <ele>-1.636963</ele>
        <time>2026-03-03T17:24:52.360Z</time>
      </trkpt>
      <trkpt lat="52.066188" lon="4.817440">
        <ele>-1.757168</ele>
        <time>2026-03-03T17:24:58.440Z</time>
      </trkpt>
      <trkpt lat="52.066273" lon="4.817419">
        <ele>-1.791721</ele>
        <time>2026-03-03T17:25:00.014Z</time>
      </trkpt>
      <trkpt lat="52.066340" lon="4.817332">
        <ele>-1.826175</ele>
        <time>2026-03-03T17:25:01.558Z</time>
      </trkpt>
      <trkpt lat="52.066365" lon="4.817151">
        <ele>-1.872009</ele>
        <time>2026-03-03T17:25:03.614Z</time>
      </trkpt>
      <trkpt lat="52.066468" lon="4.816397">
        <ele>-2.062839</ele>
        <time>2026-03-03T17:25:12.124Z</time>
      </trkpt>
      <trkpt lat="52.066586" lon="4.815424">
        <ele>-2.307864</ele>
        <time>2026-03-03T17:25:24.130Z</time>
      </trkpt>
      <trkpt lat="52.066789" lon="4.813760">
        <ele>-2.467562</ele>
        <time>2026-03-03T17:25:45.128Z</time>
      </trkpt>
      <trkpt lat="52.066948" lon="4.812435">
        <ele>-2.557476</ele>
        <time>2026-03-03T17:26:01.513Z</time>
      </trkpt>
      <trkpt lat="52.066972" lon="4.812235">
        <ele>-2.578338</ele>
        <time>2026-03-03T17:26:03.889Z</time>
      </trkpt>
      <trkpt lat="52.067101" lon="4.811159">
        <ele>-2.773282</ele>
        <time>2026-03-03T17:26:16.671Z</time>
      </trkpt>
      <trkpt lat="52.067202" lon="4.810323">
        <ele>-2.924787</ele>
        <time>2026-03-03T17:26:26.940Z</time>
      </trkpt>
      <trkpt lat="52.067268" lon="4.809769">
        <ele>-3.025134</ele>
        <time>2026-03-03T17:26:33.410Z</time>
      </trkpt>
      <trkpt lat="52.067355" lon="4.809046">
        <ele>-3.064892</ele>
        <time>2026-03-03T17:26:41.909Z</time>
      </trkpt>
      <trkpt lat="52.067446" lon="4.808255">
        <ele>-3.019207</ele>
        <time>2026-03-03T17:26:51.506Z</time>
      </trkpt>
      <trkpt lat="52.067418" lon="4.808097">
        <ele>-3.009872</ele>
        <time>2026-03-03T17:26:53.535Z</time>
      </trkpt>
      <trkpt lat="52.067375" lon="4.808048">
        <ele>-3.005024</ele>
        <time>2026-03-03T17:26:54.557Z</time>
      </trkpt>
      <trkpt lat="52.066302" lon="4.807606">
        <ele>-2.846088</ele>
        <time>2026-03-03T17:27:18.715Z</time>
      </trkpt>
      <trkpt lat="52.066241" lon="4.807554">
        <ele>-2.819761</ele>
        <time>2026-03-03T17:27:20.365Z</time>
      </trkpt>
      <trkpt lat="52.066196" lon="4.807495">
        <ele>-2.797665</ele>
        <time>2026-03-03T17:27:21.715Z</time>
      </trkpt>
      <trkpt lat="52.066138" lon="4.807276">
        <ele>-2.741625</ele>
        <time>2026-03-03T17:27:25.127Z</time>
      </trkpt>
      <trkpt lat="52.066138" lon="4.807142">
        <ele>-2.710133</ele>
        <time>2026-03-03T17:27:27.028Z</time>
      </trkpt>
      <trkpt lat="52.066205" lon="4.806723">
        <ele>-2.608386</ele>
        <time>2026-03-03T17:27:33.024Z</time>
      </trkpt>
      <trkpt lat="52.066209" lon="4.806697">
        <ele>-2.602087</ele>
        <time>2026-03-03T17:27:33.400Z</time>
      </trkpt>
      <trkpt lat="52.066288" lon="4.806202">
        <ele>-2.481900</ele>
        <time>2026-03-03T17:27:40.391Z</time>
      </trkpt>
      <trkpt lat="52.066355" lon="4.805757">
        <ele>-2.374229</ele>
        <time>2026-03-03T17:27:46.610Z</time>
      </trkpt>
      <trkpt lat="52.066438" lon="4.805398">
        <ele>-2.284090</ele>
        <time>2026-03-03T17:27:51.569Z</time>
      </trkpt>
      <trkpt lat="52.066775" lon="4.804042">
        <ele>-2.243148</ele>
        <time>2026-03-03T17:28:08.920Z</time>
      </trkpt>
      <trkpt lat="52.067658" lon="4.800462">
        <ele>-2.167025</ele>
        <time>2026-03-03T17:28:57.401Z</time>
      </trkpt>
      <trkpt lat="52.068233" lon="4.798108">
        <ele>-2.139059</ele>
        <time>2026-03-03T17:29:29.588Z</time>
      </trkpt>
      <trkpt lat="52.068620" lon="4.796511">
        <ele>-2.221565</ele>
        <time>2026-03-03T17:29:50.217Z</time>
      </trkpt>
      <trkpt lat="52.069825" lon="4.791529">
        <ele>-3.064688</ele>
        <time>2026-03-03T17:30:53.939Z</time>
      </trkpt>
      <trkpt lat="52.069878" lon="4.791382">
        <ele>-3.084743</ele>
        <time>2026-03-03T17:30:56.084Z</time>
      </trkpt>
      <trkpt lat="52.070255" lon="4.791570">
        <ele>-3.160231</ele>
        <time>2026-03-03T17:31:01.123Z</time>
      </trkpt>
      <trkpt lat="52.070512" lon="4.791720">
        <ele>-3.212502</ele>
        <time>2026-03-03T17:31:04.620Z</time>
      </trkpt>
      <trkpt lat="52.070903" lon="4.791846">
        <ele>-3.288809</ele>
        <time>2026-03-03T17:31:10.027Z</time>
      </trkpt>
      <trkpt lat="52.071191" lon="4.791928">
        <ele>-3.344782</ele>
        <time>2026-03-03T17:31:14.356Z</time>
      </trkpt>
      <trkpt lat="52.071273" lon="4.791952">
        <ele>-3.360733</ele>
        <time>2026-03-03T17:31:15.579Z</time>
      </trkpt>
      <trkpt lat="52.072999" lon="4.792471">
        <ele>-2.597321</ele>
        <time>2026-03-03T17:31:45.551Z</time>
      </trkpt>
      <trkpt lat="52.073311" lon="4.792556">
        <ele>-2.448751</ele>
        <time>2026-03-03T17:31:51.225Z</time>
      </trkpt>
      <trkpt lat="52.073904" lon="4.792742">
        <ele>-2.270167</ele>
        <time>2026-03-03T17:32:01.146Z</time>
      </trkpt>
      <trkpt lat="52.074310" lon="4.792827">
        <ele>-2.149120</ele>
        <time>2026-03-03T17:32:07.324Z</time>
      </trkpt>
      <trkpt lat="52.075163" lon="4.792801">
        <ele>-1.921736</ele>
        <time>2026-03-03T17:32:20.777Z</time>
      </trkpt>
      <trkpt lat="52.075193" lon="4.792794">
        <ele>-1.918318</ele>
        <time>2026-03-03T17:32:21.250Z</time>
      </trkpt>
      <trkpt lat="52.075581" lon="4.792788">
        <ele>-1.874558</ele>
        <time>2026-03-03T17:32:27.245Z</time>
      </trkpt>
      <trkpt lat="52.075716" lon="4.792751">
        <ele>-1.859119</ele>
        <time>2026-03-03T17:32:29.355Z</time>
      </trkpt>
      <trkpt lat="52.077551" lon="4.792621">
        <ele>-1.548019</ele>
        <time>2026-03-03T17:32:57.210Z</time>
      </trkpt>
      <trkpt lat="52.077822" lon="4.792596">
        <ele>-1.478723</ele>
        <time>2026-03-03T17:33:01.707Z</time>
      </trkpt>
      <trkpt lat="52.078101" lon="4.792572">
        <ele>-1.407397</ele>
        <time>2026-03-03T17:33:06.304Z</time>
      </trkpt>
      <trkpt lat="52.078287" lon="4.792518">
        <ele>-1.359163</ele>
        <time>2026-03-03T17:33:09.418Z</time>
      </trkpt>
      <trkpt lat="52.078421" lon="4.792403">
        <ele>-1.320487</ele>
        <time>2026-03-03T17:33:11.913Z</time>
      </trkpt>
      <trkpt lat="52.078617" lon="4.792099">
        <ele>-1.270422</ele>
        <time>2026-03-03T17:33:16.340Z</time>
      </trkpt>
      <trkpt lat="52.079135" lon="4.791217">
        <ele>-1.232979</ele>
        <time>2026-03-03T17:33:27.928Z</time>
      </trkpt>
      <trkpt lat="52.079281" lon="4.791033">
        <ele>-1.223756</ele>
        <time>2026-03-03T17:33:30.581Z</time>
      </trkpt>
      <trkpt lat="52.079490" lon="4.790940">
        <ele>-1.212935</ele>
        <time>2026-03-03T17:33:33.603Z</time>
      </trkpt>
      <trkpt lat="52.079873" lon="4.790904">
        <ele>-1.193776</ele>
        <time>2026-03-03T17:33:38.935Z</time>
      </trkpt>
      <trkpt lat="52.080162" lon="4.790875">
        <ele>-1.168449</ele>
        <time>2026-03-03T17:33:43.040Z</time>
      </trkpt>
      <trkpt lat="52.082021" lon="4.790693">
        <ele>-0.889881</ele>
        <time>2026-03-03T17:34:12.231Z</time>
      </trkpt>
      <trkpt lat="52.082354" lon="4.790659">
        <ele>-0.815608</ele>
        <time>2026-03-03T17:34:17.733Z</time>
      </trkpt>
      <trkpt lat="52.084208" lon="4.790477">
        <ele>-0.546806</ele>
        <time>2026-03-03T17:34:46.790Z</time>
      </trkpt>
      <trkpt lat="52.084559" lon="4.790442">
        <ele>-0.557057</ele>
        <time>2026-03-03T17:34:51.914Z</time>
      </trkpt>
      <trkpt lat="52.084576" lon="4.790440">
        <ele>-0.557554</ele>
        <time>2026-03-03T17:34:52.140Z</time>
      </trkpt>
      <trkpt lat="52.084839" lon="4.790417">
        <ele>-0.565231</ele>
        <time>2026-03-03T17:34:55.844Z</time>
      </trkpt>
      <trkpt lat="52.085005" lon="4.790340">
        <ele>-0.570263</ele>
        <time>2026-03-03T17:34:58.204Z</time>
      </trkpt>
      <trkpt lat="52.084740" lon="4.789544">
        <ele>-0.595173</ele>
        <time>2026-03-03T17:35:05.934Z</time>
      </trkpt>
      <trkpt lat="52.084713" lon="4.789459">
        <ele>-0.600619</ele>
        <time>2026-03-03T17:35:06.800Z</time>
      </trkpt>
      <trkpt lat="52.084487" lon="4.788701">
        <ele>-0.648573</ele>
        <time>2026-03-03T17:35:14.626Z</time>
      </trkpt>
      <trkpt lat="52.084150" lon="4.787608">
        <ele>-0.718176</ele>
        <time>2026-03-03T17:35:25.389Z</time>
      </trkpt>
      <trkpt lat="52.083979" lon="4.787066">
        <ele>-0.753005</ele>
        <time>2026-03-03T17:35:30.764Z</time>
      </trkpt>
      <trkpt lat="52.083874" lon="4.786714">
        <ele>-0.776161</ele>
        <time>2026-03-03T17:35:34.366Z</time>
      </trkpt>
      <trkpt lat="52.083694" lon="4.786104">
        <ele>-0.816209</ele>
        <time>2026-03-03T17:35:40.373Z</time>
      </trkpt>
      <trkpt lat="52.083668" lon="4.785948">
        <ele>-0.825775</ele>
        <time>2026-03-03T17:35:41.769Z</time>
      </trkpt>
      <trkpt lat="52.083648" lon="4.785778">
        <ele>-0.836019</ele>
        <time>2026-03-03T17:35:43.256Z</time>
      </trkpt>
      <trkpt lat="52.083619" lon="4.785174">
        <ele>-0.871874</ele>
        <time>2026-03-03T17:35:48.533Z</time>
      </trkpt>
      <trkpt lat="52.083564" lon="4.784829">
        <ele>-0.892968</ele>
        <time>2026-03-03T17:35:51.722Z</time>
      </trkpt>
      <trkpt lat="52.082886" lon="4.782490">
        <ele>-0.824921</ele>
        <time>2026-03-03T17:36:15.719Z</time>
      </trkpt>
      <trkpt lat="52.082571" lon="4.781068">
        <ele>-0.676496</ele>
        <time>2026-03-03T17:36:29.726Z</time>
      </trkpt>
      <trkpt lat="52.082476" lon="4.780640">
        <ele>-0.602709</ele>
        <time>2026-03-03T17:36:34.160Z</time>
      </trkpt>
      <trkpt lat="52.082392" lon="4.780380">
        <ele>-0.555080</ele>
        <time>2026-03-03T17:36:37.024Z</time>
      </trkpt>
      <trkpt lat="52.082268" lon="4.780130">
        <ele>-0.502986</ele>
        <time>2026-03-03T17:36:40.196Z</time>
      </trkpt>
      <trkpt lat="52.082157" lon="4.779916">
        <ele>-0.457578</ele>
        <time>2026-03-03T17:36:42.983Z</time>
      </trkpt>
      <trkpt lat="52.082137" lon="4.779866">
        <ele>-0.447905</ele>
        <time>2026-03-03T17:36:43.580Z</time>
      </trkpt>
      <trkpt lat="52.082056" lon="4.779606">
        <ele>-0.400638</ele>
        <time>2026-03-03T17:36:46.532Z</time>
      </trkpt>
      <trkpt lat="52.081847" lon="4.778484">
        <ele>-0.235415</ele>
        <time>2026-03-03T17:36:58.672Z</time>
      </trkpt>
      <trkpt lat="52.081815" lon="4.778310">
        <ele>-0.213233</ele>
        <time>2026-03-03T17:37:00.491Z</time>
      </trkpt>
      <trkpt lat="52.081707" lon="4.777726">
        <ele>-0.138748</ele>
        <time>2026-03-03T17:37:06.229Z</time>
      </trkpt>
      <trkpt lat="52.081498" lon="4.776676">
        <ele>-0.003949</ele>
        <time>2026-03-03T17:37:16.502Z</time>
      </trkpt>
      <trkpt lat="52.081294" lon="4.775687">
        <ele>0.029825</ele>
        <time>2026-03-03T17:37:26.274Z</time>
      </trkpt>
      <trkpt lat="52.081221" lon="4.775356">
        <ele>0.020786</ele>
        <time>2026-03-03T17:37:29.556Z</time>
      </trkpt>
      <trkpt lat="52.081207" lon="4.775289">
        <ele>0.018967</ele>
        <time>2026-03-03T17:37:30.213Z</time>
      </trkpt>
      <trkpt lat="52.081138" lon="4.774970">
        <ele>0.010276</ele>
        <time>2026-03-03T17:37:33.285Z</time>
      </trkpt>
      <trkpt lat="52.080925" lon="4.773952">
        <ele>-0.017363</ele>
        <time>2026-03-03T17:37:42.752Z</time>
      </trkpt>
      <trkpt lat="52.080837" lon="4.773523">
        <ele>-0.028987</ele>
        <time>2026-03-03T17:37:46.681Z</time>
      </trkpt>
      <trkpt lat="52.080833" lon="4.773494">
        <ele>-0.031063</ele>
        <time>2026-03-03T17:37:46.949Z</time>
      </trkpt>
      <trkpt lat="52.080806" lon="4.773331">
        <ele>-0.044401</ele>
        <time>2026-03-03T17:37:48.403Z</time>
      </trkpt>
      <trkpt lat="52.080799" lon="4.773290">
        <ele>-0.047763</ele>
        <time>2026-03-03T17:37:48.758Z</time>
      </trkpt>
      <trkpt lat="52.080725" lon="4.772804">
        <ele>-0.087321</ele>
        <time>2026-03-03T17:37:53.069Z</time>
      </trkpt>
      <trkpt lat="52.080683" lon="4.772569">
        <ele>-0.106657</ele>
        <time>2026-03-03T17:37:55.219Z</time>
      </trkpt>
      <trkpt lat="52.080637" lon="4.772307">
        <ele>-0.128185</ele>
        <time>2026-03-03T17:37:57.621Z</time>
      </trkpt>
      <trkpt lat="52.080613" lon="4.772172">
        <ele>-0.139289</ele>
        <time>2026-03-03T17:37:58.860Z</time>
      </trkpt>
      <trkpt lat="52.080529" lon="4.771595">
        <ele>-0.186138</ele>
        <time>2026-03-03T17:38:04.038Z</time>
      </trkpt>
      <trkpt lat="52.080504" lon="4.771422">
        <ele>-0.200179</ele>
        <time>2026-03-03T17:38:05.603Z</time>
      </trkpt>
      <trkpt lat="52.080412" lon="4.770689">
        <ele>-0.259287</ele>
        <time>2026-03-03T17:38:12.126Z</time>
      </trkpt>
      <trkpt lat="52.080299" lon="4.769563">
        <ele>-0.204905</ele>
        <time>2026-03-03T17:38:22.576Z</time>
      </trkpt>
      <trkpt lat="52.080233" lon="4.768904">
        <ele>-0.172066</ele>
        <time>2026-03-03T17:38:28.980Z</time>
      </trkpt>
      <trkpt lat="52.080223" lon="4.768791">
        <ele>-0.166451</ele>
        <time>2026-03-03T17:38:30.035Z</time>
      </trkpt>
      <trkpt lat="52.080157" lon="4.767955">
        <ele>-0.124996</ele>
        <time>2026-03-03T17:38:37.826Z</time>
      </trkpt>
      <trkpt lat="52.080132" lon="4.767562">
        <ele>-0.111633</ele>
        <time>2026-03-03T17:38:41.632Z</time>
      </trkpt>
      <trkpt lat="52.080123" lon="4.767422">
        <ele>-0.108584</ele>
        <time>2026-03-03T17:38:42.980Z</time>
      </trkpt>
      <trkpt lat="52.080093" lon="4.766926">
        <ele>-0.097790</ele>
        <time>2026-03-03T17:38:48.034Z</time>
      </trkpt>
      <trkpt lat="52.080064" lon="4.766154">
        <ele>-0.081038</ele>
        <time>2026-03-03T17:38:55.403Z</time>
      </trkpt>
      <trkpt lat="52.080043" lon="4.765572">
        <ele>-0.068411</ele>
        <time>2026-03-03T17:39:00.375Z</time>
      </trkpt>
      <trkpt lat="52.080036" lon="4.765213">
        <ele>-0.060632</ele>
        <time>2026-03-03T17:39:03.380Z</time>
      </trkpt>
      <trkpt lat="52.080030" lon="4.764250">
        <ele>-0.044225</ele>
        <time>2026-03-03T17:39:12.066Z</time>
      </trkpt>
      <trkpt lat="52.080042" lon="4.763637">
        <ele>-0.035405</ele>
        <time>2026-03-03T17:39:17.707Z</time>
      </trkpt>
      <trkpt lat="52.080102" lon="4.762698">
        <ele>-0.021828</ele>
        <time>2026-03-03T17:39:26.484Z</time>
      </trkpt>
      <trkpt lat="52.080168" lon="4.762253">
        <ele>-0.015245</ele>
        <time>2026-03-03T17:39:30.675Z</time>
      </trkpt>
      <trkpt lat="52.080301" lon="4.761359">
        <ele>0.036313</ele>
        <time>2026-03-03T17:39:39.573Z</time>
      </trkpt>
      <trkpt lat="52.080318" lon="4.761258">
        <ele>0.044294</ele>
        <time>2026-03-03T17:39:40.587Z</time>
      </trkpt>
      <trkpt lat="52.080329" lon="4.761152">
        <ele>0.052487</ele>
        <time>2026-03-03T17:39:41.992Z</time>
      </trkpt>
      <trkpt lat="52.080458" lon="4.761199">
        <ele>0.068882</ele>
        <time>2026-03-03T17:39:44.028Z</time>
      </trkpt>
      <trkpt lat="52.080498" lon="4.761228">
        <ele>0.074312</ele>
        <time>2026-03-03T17:39:44.691Z</time>
      </trkpt>
      <trkpt lat="52.080522" lon="4.761252">
        <ele>0.077806</ele>
        <time>2026-03-03T17:39:45.244Z</time>
      </trkpt>
      <trkpt lat="52.080576" lon="4.761324">
        <ele>0.086464</ele>
        <time>2026-03-03T17:39:46.687Z</time>
      </trkpt>
      <trkpt lat="52.080842" lon="4.761441">
        <ele>0.120636</ele>
        <time>2026-03-03T17:39:52.327Z</time>
      </trkpt>
      <trkpt lat="52.081320" lon="4.761609">
        <ele>0.181284</ele>
        <time>2026-03-03T17:40:02.459Z</time>
      </trkpt>
      <trkpt lat="52.081376" lon="4.761591">
        <ele>0.188363</ele>
        <time>2026-03-03T17:40:03.613Z</time>
      </trkpt>
      <trkpt lat="52.081445" lon="4.761495">
        <ele>0.199621</ele>
        <time>2026-03-03T17:40:05.466Z</time>
      </trkpt>
      <trkpt lat="52.081457" lon="4.761420">
        <ele>0.205528</ele>
        <time>2026-03-03T17:40:06.421Z</time>
      </trkpt>
      <trkpt lat="52.081533" lon="4.761426">
        <ele>0.213752</ele>
        <time>2026-03-03T17:40:07.970Z</time>
      </trkpt>
      <trkpt lat="52.081619" lon="4.761431">
        <ele>0.219858</ele>
        <time>2026-03-03T17:40:09.726Z</time>
      </trkpt>
      <trkpt lat="52.081580" lon="4.760894">
        <ele>0.243435</ele>
        <time>2026-03-03T17:40:16.583Z</time>
      </trkpt>
      <trkpt lat="52.081640" lon="4.760513">
        <ele>0.260584</ele>
        <time>2026-03-03T17:40:20.286Z</time>
      </trkpt>
      <trkpt lat="52.081907" lon="4.759443">
        <ele>0.310937</ele>
        <time>2026-03-03T17:40:30.949Z</time>
      </trkpt>
      <trkpt lat="52.082453" lon="4.757739">
        <ele>0.267279</ele>
        <time>2026-03-03T17:40:48.743Z</time>
      </trkpt>
      <trkpt lat="52.082559" lon="4.757633">
        <ele>0.255644</ele>
        <time>2026-03-03T17:40:51.321Z</time>
      </trkpt>
      <trkpt lat="52.082608" lon="4.757622">
        <ele>0.251019</ele>
        <time>2026-03-03T17:40:52.320Z</time>
      </trkpt>
      <trkpt lat="52.082760" lon="4.757700">
        <ele>0.236114</ele>
        <time>2026-03-03T17:40:55.539Z</time>
      </trkpt>
      <trkpt lat="52.082811" lon="4.757549">
        <ele>0.226213</ele>
        <time>2026-03-03T17:40:57.662Z</time>
      </trkpt>
      <trkpt lat="52.082854" lon="4.757393">
        <ele>0.216387</ele>
        <time>2026-03-03T17:40:59.700Z</time>
      </trkpt>
      <trkpt lat="52.083302" lon="4.757679">
        <ele>0.170958</ele>
        <time>2026-03-03T17:41:08.936Z</time>
      </trkpt>
      <trkpt lat="52.084120" lon="4.758205">
        <ele>-0.128850</ele>
        <time>2026-03-03T17:41:25.124Z</time>
      </trkpt>
      <trkpt lat="52.084355" lon="4.758291">
        <ele>-0.210954</ele>
        <time>2026-03-03T17:41:29.612Z</time>
      </trkpt>
      <trkpt lat="52.084612" lon="4.758397">
        <ele>-0.301326</ele>
        <time>2026-03-03T17:41:33.226Z</time>
      </trkpt>
      <trkpt lat="52.084832" lon="4.758533">
        <ele>-0.381545</ele>
        <time>2026-03-03T17:41:36.555Z</time>
      </trkpt>
      <trkpt lat="52.085937" lon="4.759209">
        <ele>-0.336889</ele>
        <time>2026-03-03T17:41:54.459Z</time>
      </trkpt>
      <trkpt lat="52.086203" lon="4.759236">
        <ele>-0.309119</ele>
        <time>2026-03-03T17:41:58.759Z</time>
      </trkpt>
      <trkpt lat="52.086327" lon="4.759209">
        <ele>-0.296083</ele>
        <time>2026-03-03T17:42:00.746Z</time>
      </trkpt>
      <trkpt lat="52.086425" lon="4.759147">
        <ele>-0.285128</ele>
        <time>2026-03-03T17:42:02.410Z</time>
      </trkpt>
      <trkpt lat="52.086624" lon="4.758881">
        <ele>-0.258295</ele>
        <time>2026-03-03T17:42:06.422Z</time>
      </trkpt>
      <trkpt lat="52.086794" lon="4.758512">
        <ele>-0.230607</ele>
        <time>2026-03-03T17:42:10.743Z</time>
      </trkpt>
      <trkpt lat="52.087401" lon="4.756984">
        <ele>-0.122564</ele>
        <time>2026-03-03T17:42:27.341Z</time>
      </trkpt>
      <trkpt lat="52.087559" lon="4.756384">
        <ele>-0.083802</ele>
        <time>2026-03-03T17:42:33.421Z</time>
      </trkpt>
      <trkpt lat="52.087733" lon="4.756022">
        <ele>0.020686</ele>
        <time>2026-03-03T17:42:39.431Z</time>
      </trkpt>
      <trkpt lat="52.088073" lon="4.755160">
        <ele>0.278710</ele>
        <time>2026-03-03T17:42:53.256Z</time>
      </trkpt>
      <trkpt lat="52.088374" lon="4.754393">
        <ele>0.507959</ele>
        <time>2026-03-03T17:43:05.963Z</time>
      </trkpt>
      <trkpt lat="52.088382" lon="4.754366">
        <ele>0.515509</ele>
        <time>2026-03-03T17:43:06.387Z</time>
      </trkpt>
      <trkpt lat="52.088850" lon="4.752733">
        <ele>0.570110</ele>
        <time>2026-03-03T17:43:30.077Z</time>
      </trkpt>
      <trkpt lat="52.089066" lon="4.752080">
        <ele>0.518118</ele>
        <time>2026-03-03T17:43:38.936Z</time>
      </trkpt>
      <trkpt lat="52.089465" lon="4.751035">
        <ele>0.369433</ele>
        <time>2026-03-03T17:43:52.749Z</time>
      </trkpt>
      <trkpt lat="52.089497" lon="4.750862">
        <ele>0.317144</ele>
        <time>2026-03-03T17:43:54.745Z</time>
      </trkpt>
      <trkpt lat="52.089514" lon="4.750528">
        <ele>0.220146</ele>
        <time>2026-03-03T17:43:58.465Z</time>
      </trkpt>
      <trkpt lat="52.089591" lon="4.750388">
        <ele>0.165764</ele>
        <time>2026-03-03T17:44:00.598Z</time>
      </trkpt>
      <trkpt lat="52.089645" lon="4.750300">
        <ele>0.129769</ele>
        <time>2026-03-03T17:44:01.993Z</time>
      </trkpt>
      <trkpt lat="52.089691" lon="4.750283">
        <ele>0.107549</ele>
        <time>2026-03-03T17:44:02.879Z</time>
      </trkpt>
      <trkpt lat="52.089781" lon="4.750360">
        <ele>0.059655</ele>
        <time>2026-03-03T17:44:04.756Z</time>
      </trkpt>
      <trkpt lat="52.089889" lon="4.750335">
        <ele>0.008271</ele>
        <time>2026-03-03T17:44:06.788Z</time>
      </trkpt>
      <trkpt lat="52.089914" lon="4.750329">
        <ele>-0.003633</ele>
        <time>2026-03-03T17:44:07.253Z</time>
      </trkpt>
      <trkpt lat="52.090849" lon="4.748943">
        <ele>-0.414450</ele>
        <time>2026-03-03T17:44:31.257Z</time>
      </trkpt>
      <trkpt lat="52.091318" lon="4.748252">
        <ele>-0.442263</ele>
        <time>2026-03-03T17:44:44.132Z</time>
      </trkpt>
      <trkpt lat="52.091532" lon="4.747826">
        <ele>-0.457127</ele>
        <time>2026-03-03T17:44:50.957Z</time>
      </trkpt>
      <trkpt lat="52.091603" lon="4.747397">
        <ele>-0.469128</ele>
        <time>2026-03-03T17:44:56.544Z</time>
      </trkpt>
      <trkpt lat="52.091591" lon="4.746927">
        <ele>-0.447384</ele>
        <time>2026-03-03T17:45:02.505Z</time>
      </trkpt>
      <trkpt lat="52.091544" lon="4.746669">
        <ele>-0.420545</ele>
        <time>2026-03-03T17:45:05.916Z</time>
      </trkpt>
      <trkpt lat="52.091447" lon="4.746425">
        <ele>-0.391559</ele>
        <time>2026-03-03T17:45:09.632Z</time>
      </trkpt>
      <trkpt lat="52.091252" lon="4.745981">
        <ele>-0.337125</ele>
        <time>2026-03-03T17:45:16.653Z</time>
      </trkpt>
      <trkpt lat="52.090690" lon="4.744700">
        <ele>-0.178730</ele>
        <time>2026-03-03T17:45:37.138Z</time>
      </trkpt>
      <trkpt lat="52.090264" lon="4.743887">
        <ele>-0.009469</ele>
        <time>2026-03-03T17:45:50.960Z</time>
      </trkpt>
      <trkpt lat="52.090034" lon="4.743360">
        <ele>0.092930</ele>
        <time>2026-03-03T17:45:59.454Z</time>
      </trkpt>
      <trkpt lat="52.090118" lon="4.743243">
        <ele>0.121435</ele>
        <time>2026-03-03T17:46:01.813Z</time>
      </trkpt>
      <trkpt lat="52.090170" lon="4.743171">
        <ele>0.139037</ele>
        <time>2026-03-03T17:46:03.289Z</time>
      </trkpt>
      <trkpt lat="52.090225" lon="4.743094">
        <ele>0.157742</ele>
        <time>2026-03-03T17:46:04.866Z</time>
      </trkpt>
      <trkpt lat="52.090235" lon="4.743025">
        <ele>0.168972</ele>
        <time>2026-03-03T17:46:05.828Z</time>
      </trkpt>
      <trkpt lat="52.090226" lon="4.742760">
        <ele>0.211015</ele>
        <time>2026-03-03T17:46:09.415Z</time>
      </trkpt>
      <trkpt lat="52.090328" lon="4.742458">
        <ele>0.265606</ele>
        <time>2026-03-03T17:46:13.947Z</time>
      </trkpt>
      <trkpt lat="52.090323" lon="4.742177">
        <ele>0.251410</ele>
        <time>2026-03-03T17:46:17.574Z</time>
      </trkpt>
      <trkpt lat="52.090217" lon="4.741915">
        <ele>0.200212</ele>
        <time>2026-03-03T17:46:21.483Z</time>
      </trkpt>
      <trkpt lat="52.090113" lon="4.741770">
        <ele>0.163836</ele>
        <time>2026-03-03T17:46:24.165Z</time>
      </trkpt>
      <trkpt lat="52.089974" lon="4.741306">
        <ele>0.079585</ele>
        <time>2026-03-03T17:46:28.764Z</time>
      </trkpt>
      <trkpt lat="52.089790" lon="4.740432">
        <ele>-0.071201</ele>
        <time>2026-03-03T17:46:36.705Z</time>
      </trkpt>
      <trkpt lat="52.089773" lon="4.740343">
        <ele>-0.086413</ele>
        <time>2026-03-03T17:46:37.453Z</time>
      </trkpt>
      <trkpt lat="52.089723" lon="4.740088">
        <ele>-0.130099</ele>
        <time>2026-03-03T17:46:39.588Z</time>
      </trkpt>
      <trkpt lat="52.089719" lon="4.739996">
        <ele>-0.145152</ele>
        <time>2026-03-03T17:46:40.321Z</time>
      </trkpt>
      <trkpt lat="52.089761" lon="4.739849">
        <ele>-0.171611</ele>
        <time>2026-03-03T17:46:41.583Z</time>
      </trkpt>
      <trkpt lat="52.089833" lon="4.739791">
        <ele>-0.192951</ele>
        <time>2026-03-03T17:46:42.594Z</time>
      </trkpt>
      <trkpt lat="52.089970" lon="4.739712">
        <ele>-0.254067</ele>
        <time>2026-03-03T17:46:44.381Z</time>
      </trkpt>
      <trkpt lat="52.090177" lon="4.739621">
        <ele>-0.347654</ele>
        <time>2026-03-03T17:46:46.990Z</time>
      </trkpt>
      <trkpt lat="52.090680" lon="4.739467">
        <ele>-0.571048</ele>
        <time>2026-03-03T17:46:53.512Z</time>
      </trkpt>
      <trkpt lat="52.091221" lon="4.739324">
        <ele>-0.810271</ele>
        <time>2026-03-03T17:47:00.953Z</time>
      </trkpt>
      <trkpt lat="52.092370" lon="4.739100">
        <ele>-0.968487</ele>
        <time>2026-03-03T17:47:18.596Z</time>
      </trkpt>
      <trkpt lat="52.092712" lon="4.739022">
        <ele>-0.962560</ele>
        <time>2026-03-03T17:47:23.776Z</time>
      </trkpt>
      <trkpt lat="52.092837" lon="4.739009">
        <ele>-0.960410</ele>
        <time>2026-03-03T17:47:25.628Z</time>
      </trkpt>
      <trkpt lat="52.093580" lon="4.738947">
        <ele>-0.935788</ele>
        <time>2026-03-03T17:47:36.289Z</time>
      </trkpt>
      <trkpt lat="52.095029" lon="4.738851">
        <ele>-0.815716</ele>
        <time>2026-03-03T17:47:58.138Z</time>
      </trkpt>
      <trkpt lat="52.096193" lon="4.738697">
        <ele>-0.760237</ele>
        <time>2026-03-03T17:48:17.023Z</time>
      </trkpt>
      <trkpt lat="52.097367" lon="4.738589">
        <ele>-0.801485</ele>
        <time>2026-03-03T17:48:33.540Z</time>
      </trkpt>
      <trkpt lat="52.097673" lon="4.738651">
        <ele>-0.862354</ele>
        <time>2026-03-03T17:48:37.625Z</time>
      </trkpt>
      <trkpt lat="52.097738" lon="4.738761">
        <ele>-0.880863</ele>
        <time>2026-03-03T17:48:38.868Z</time>
      </trkpt>
      <trkpt lat="52.097807" lon="4.738758">
        <ele>-0.894488</ele>
        <time>2026-03-03T17:48:39.812Z</time>
      </trkpt>
      <trkpt lat="52.097854" lon="4.738695">
        <ele>-0.906506</ele>
        <time>2026-03-03T17:48:40.632Z</time>
      </trkpt>
      <trkpt lat="52.097870" lon="4.738599">
        <ele>-0.918568</ele>
        <time>2026-03-03T17:48:41.468Z</time>
      </trkpt>
      <trkpt lat="52.098161" lon="4.738398">
        <ele>-0.980968</ele>
        <time>2026-03-03T17:48:45.865Z</time>
      </trkpt>
      <trkpt lat="52.098544" lon="4.738196">
        <ele>-1.060440</ele>
        <time>2026-03-03T17:48:51.929Z</time>
      </trkpt>
      <trkpt lat="52.099071" lon="4.737858">
        <ele>-1.044882</ele>
        <time>2026-03-03T17:49:00.602Z</time>
      </trkpt>
      <trkpt lat="52.099361" lon="4.737634">
        <ele>-1.018750</ele>
        <time>2026-03-03T17:49:05.453Z</time>
      </trkpt>
      <trkpt lat="52.099386" lon="4.737611">
        <ele>-1.016412</ele>
        <time>2026-03-03T17:49:05.886Z</time>
      </trkpt>
      <trkpt lat="52.099581" lon="4.737468">
        <ele>-0.999001</ele>
        <time>2026-03-03T17:49:09.146Z</time>
      </trkpt>
      <trkpt lat="52.100512" lon="4.736713">
        <ele>-0.928616</ele>
        <time>2026-03-03T17:49:25.033Z</time>
      </trkpt>
      <trkpt lat="52.101474" lon="4.735757">
        <ele>-0.898357</ele>
        <time>2026-03-03T17:49:41.782Z</time>
      </trkpt>
      <trkpt lat="52.101672" lon="4.735553">
        <ele>-0.892066</ele>
        <time>2026-03-03T17:49:45.328Z</time>
      </trkpt>
      <trkpt lat="52.103805" lon="4.733309">
        <ele>-0.746453</ele>
        <time>2026-03-03T17:50:23.057Z</time>
      </trkpt>
      <trkpt lat="52.104414" lon="4.732838">
        <ele>-0.660095</ele>
        <time>2026-03-03T17:50:33.582Z</time>
      </trkpt>
      <trkpt lat="52.105166" lon="4.732018">
        <ele>-0.542876</ele>
        <time>2026-03-03T17:50:47.659Z</time>
      </trkpt>
      <trkpt lat="52.105402" lon="4.731827">
        <ele>-0.508137</ele>
        <time>2026-03-03T17:50:51.821Z</time>
      </trkpt>
      <trkpt lat="52.105908" lon="4.731604">
        <ele>-0.439039</ele>
        <time>2026-03-03T17:50:59.803Z</time>
      </trkpt>
      <trkpt lat="52.106183" lon="4.731487">
        <ele>-0.401573</ele>
        <time>2026-03-03T17:51:04.160Z</time>
      </trkpt>
      <trkpt lat="52.106350" lon="4.731416">
        <ele>-0.378822</ele>
        <time>2026-03-03T17:51:06.831Z</time>
      </trkpt>
      <trkpt lat="52.106497" lon="4.731306">
        <ele>-0.357497</ele>
        <time>2026-03-03T17:51:09.349Z</time>
      </trkpt>
      <trkpt lat="52.106581" lon="4.731333">
        <ele>-0.362192</ele>
        <time>2026-03-03T17:51:10.681Z</time>
      </trkpt>
      <trkpt lat="52.106828" lon="4.731272">
        <ele>-0.429994</ele>
        <time>2026-03-03T17:51:14.475Z</time>
      </trkpt>
      <trkpt lat="52.106934" lon="4.731240">
        <ele>-0.459253</ele>
        <time>2026-03-03T17:51:16.087Z</time>
      </trkpt>
      <trkpt lat="52.107124" lon="4.731172">
        <ele>-0.512050</ele>
        <time>2026-03-03T17:51:18.953Z</time>
      </trkpt>
      <trkpt lat="52.107169" lon="4.731140">
        <ele>-0.525377</ele>
        <time>2026-03-03T17:51:19.658Z</time>
      </trkpt>
      <trkpt lat="52.107274" lon="4.731076">
        <ele>-0.555805</ele>
        <time>2026-03-03T17:51:21.241Z</time>
      </trkpt>
      <trkpt lat="52.107356" lon="4.731007">
        <ele>-0.580857</ele>
        <time>2026-03-03T17:51:22.523Z</time>
      </trkpt>
      <trkpt lat="52.107444" lon="4.731211">
        <ele>-0.622410</ele>
        <time>2026-03-03T17:51:25.433Z</time>
      </trkpt>
      <trkpt lat="52.107459" lon="4.731361">
        <ele>-0.647743</ele>
        <time>2026-03-03T17:51:27.163Z</time>
      </trkpt>
      <trkpt lat="52.107444" lon="4.733098">
        <ele>-0.982150</ele>
        <time>2026-03-03T17:51:46.812Z</time>
      </trkpt>
      <trkpt lat="52.107512" lon="4.734156">
        <ele>-1.240832</ele>
        <time>2026-03-03T17:51:58.774Z</time>
      </trkpt>
      <trkpt lat="52.107611" lon="4.735120">
        <ele>-1.478504</ele>
        <time>2026-03-03T17:52:10.391Z</time>
      </trkpt>
      <trkpt lat="52.107635" lon="4.735669">
        <ele>-1.549384</ele>
        <time>2026-03-03T17:52:17.128Z</time>
      </trkpt>
      <trkpt lat="52.107633" lon="4.736101">
        <ele>-1.545332</ele>
        <time>2026-03-03T17:52:22.492Z</time>
      </trkpt>
      <trkpt lat="52.107587" lon="4.736580">
        <ele>-1.540785</ele>
        <time>2026-03-03T17:52:28.534Z</time>
      </trkpt>
      <trkpt lat="52.107476" lon="4.737217">
        <ele>-1.534575</ele>
        <time>2026-03-03T17:52:36.828Z</time>
      </trkpt>
      <trkpt lat="52.107227" lon="4.738135">
        <ele>-1.525163</ele>
        <time>2026-03-03T17:52:49.437Z</time>
      </trkpt>
      <trkpt lat="52.106915" lon="4.738789">
        <ele>-1.493222</ele>
        <time>2026-03-03T17:52:59.862Z</time>
      </trkpt>
      <trkpt lat="52.106881" lon="4.739003">
        <ele>-1.483844</ele>
        <time>2026-03-03T17:53:02.672Z</time>
      </trkpt>
      <trkpt lat="52.106895" lon="4.739257">
        <ele>-1.473023</ele>
        <time>2026-03-03T17:53:05.913Z</time>
      </trkpt>
      <trkpt lat="52.106943" lon="4.739444">
        <ele>-1.464424</ele>
        <time>2026-03-03T17:53:08.505Z</time>
      </trkpt>
      <trkpt lat="52.107042" lon="4.739630">
        <ele>-1.453980</ele>
        <time>2026-03-03T17:53:11.641Z</time>
      </trkpt>
      <trkpt lat="52.107173" lon="4.739788">
        <ele>-1.442718</ele>
        <time>2026-03-03T17:53:15.055Z</time>
      </trkpt>
      <trkpt lat="52.108960" lon="4.741480">
        <ele>-1.516314</ele>
        <time>2026-03-03T17:53:56.990Z</time>
      </trkpt>
      <trkpt lat="52.109102" lon="4.741628">
        <ele>-1.529850</ele>
        <time>2026-03-03T17:54:00.176Z</time>
      </trkpt>
      <trkpt lat="52.109294" lon="4.741829">
        <ele>-1.562116</ele>
        <time>2026-03-03T17:54:04.429Z</time>
      </trkpt>
      <trkpt lat="52.110816" lon="4.743337">
        <ele>-2.227875</ele>
        <time>2026-03-03T17:54:37.731Z</time>
      </trkpt>
      <trkpt lat="52.112015" lon="4.744580">
        <ele>-2.517869</ele>
        <time>2026-03-03T17:55:05.863Z</time>
      </trkpt>
      <trkpt lat="52.113439" lon="4.746142">
        <ele>-2.800806</ele>
        <time>2026-03-03T17:55:39.156Z</time>
      </trkpt>
      <trkpt lat="52.117937" lon="4.750760">
        <ele>-2.717482</ele>
        <time>2026-03-03T17:57:27.266Z</time>
      </trkpt>
      <trkpt lat="52.118419" lon="4.751222">
        <ele>-2.729888</ele>
        <time>2026-03-03T17:57:38.822Z</time>
      </trkpt>
      <trkpt lat="52.119023" lon="4.751823">
        <ele>-3.066826</ele>
        <time>2026-03-03T17:57:52.829Z</time>
      </trkpt>
      <trkpt lat="52.119231" lon="4.752168">
        <ele>-3.208150</ele>
        <time>2026-03-03T17:57:58.250Z</time>
      </trkpt>
      <trkpt lat="52.119360" lon="4.752421">
        <ele>-3.304271</ele>
        <time>2026-03-03T17:58:01.812Z</time>
      </trkpt>
      <trkpt lat="52.119562" lon="4.752656">
        <ele>-3.422442</ele>
        <time>2026-03-03T17:58:06.115Z</time>
      </trkpt>
      <trkpt lat="52.120402" lon="4.753470">
        <ele>-3.702007</ele>
        <time>2026-03-03T17:58:23.281Z</time>
      </trkpt>
      <trkpt lat="52.122993" lon="4.755552">
        <ele>-3.517595</ele>
        <time>2026-03-03T17:59:24.433Z</time>
      </trkpt>
      <trkpt lat="52.124118" lon="4.756225">
        <ele>-3.317960</ele>
        <time>2026-03-03T17:59:49.662Z</time>
      </trkpt>
      <trkpt lat="52.124840" lon="4.756611">
        <ele>-3.177436</ele>
        <time>2026-03-03T18:00:05.443Z</time>
      </trkpt>
      <trkpt lat="52.124999" lon="4.756649">
        <ele>-3.133384</ele>
        <time>2026-03-03T18:00:08.830Z</time>
      </trkpt>
      <trkpt lat="52.125397" lon="4.756862">
        <ele>-3.018547</ele>
        <time>2026-03-03T18:00:17.691Z</time>
      </trkpt>
      <trkpt lat="52.127825" lon="4.758263">
        <ele>-2.299607</ele>
        <time>2026-03-03T18:01:13.311Z</time>
      </trkpt>
      <trkpt lat="52.128032" lon="4.758361">
        <ele>-2.238662</ele>
        <time>2026-03-03T18:01:17.734Z</time>
      </trkpt>
      <trkpt lat="52.129296" lon="4.759162">
        <ele>-2.221354</ele>
        <time>2026-03-03T18:01:44.637Z</time>
      </trkpt>
      <trkpt lat="52.130284" lon="4.759698">
        <ele>-1.984165</ele>
        <time>2026-03-03T18:02:06.058Z</time>
      </trkpt>
      <trkpt lat="52.130923" lon="4.759967">
        <ele>-1.672779</ele>
        <time>2026-03-03T18:02:20.658Z</time>
      </trkpt>
      <trkpt lat="52.131376" lon="4.759961">
        <ele>-1.459046</ele>
        <time>2026-03-03T18:02:31.223Z</time>
      </trkpt>
      <trkpt lat="52.131442" lon="4.760116">
        <ele>-1.404412</ele>
        <time>2026-03-03T18:02:33.947Z</time>
      </trkpt>
      <trkpt lat="52.131498" lon="4.760249">
        <ele>-1.376071</ele>
        <time>2026-03-03T18:02:36.297Z</time>
      </trkpt>
      <trkpt lat="52.131576" lon="4.760434">
        <ele>-1.376071</ele>
        <time>2026-03-03T18:02:39.519Z</time>
      </trkpt>
      <trkpt lat="52.131623" lon="4.760546">
        <ele>-1.376071</ele>
        <time>2026-03-03T18:02:41.409Z</time>
      </trkpt>
      <trkpt lat="52.131684" lon="4.760692">
        <ele>-1.376071</ele>
        <time>2026-03-03T18:02:43.943Z</time>
      </trkpt>
      <trkpt lat="52.131736" lon="4.760815">
        <ele>-1.376071</ele>
        <time>2026-03-03T18:02:46.072Z</time>
      </trkpt>
      <trkpt lat="52.131913" lon="4.761236">
        <ele>-1.376071</ele>
        <time>2026-03-03T18:02:53.230Z</time>
      </trkpt>
      <trkpt lat="52.132068" lon="4.761606">
        <ele>-1.376071</ele>
        <time>2026-03-03T18:02:59.429Z</time>
      </trkpt>
      <trkpt lat="52.132129" lon="4.761750">
        <ele>-1.376071</ele>
        <time>2026-03-03T18:03:01.773Z</time>
      </trkpt>
      <trkpt lat="52.132219" lon="4.761967">
        <ele>-1.376071</ele>
        <time>2026-03-03T18:03:05.256Z</time>
      </trkpt>
      <trkpt lat="52.132380" lon="4.762353">
        <ele>-1.376071</ele>
        <time>2026-03-03T18:03:11.465Z</time>
      </trkpt>
      <trkpt lat="52.132495" lon="4.762599">
        <ele>-1.376071</ele>
        <time>2026-03-03T18:03:15.430Z</time>
      </trkpt>
      <trkpt lat="52.132551" lon="4.762695">
        <ele>-1.376071</ele>
        <time>2026-03-03T18:03:17.093Z</time>
      </trkpt>
      <trkpt lat="52.132640" lon="4.762831">
        <ele>-1.376071</ele>
        <time>2026-03-03T18:03:19.558Z</time>
      </trkpt>
    </trkseg>
  </trk>
</gpx>